<?xml version="1.0" encoding="UTF-8" standalone="no" ?>
<gpx xmlns="http://www.topografix.com/GPX/1/1" xmlns:xsi="http://www.w3.org/2001/XMLSchema-instance" xsi:schemaLocation="http://www.topografix.com/GPX/1/1 http://www.topografix.com/GPX/1/1/gpx.xsd" version="1.1" creator="VisuGPX - https://www.visugpx.com">
  <metadata>
    <name>Les Opies</name>
  </metadata>
  <trk>
    <name><![CDATA[Les Opies_2]]></name>
    <trkseg>
      <trkpt lat="43.71858" lon="4.97505">
        <ele>380.2</ele>
      </trkpt>
      <trkpt lat="43.71858" lon="4.97505">
        <ele>380.2</ele>
      </trkpt>
      <trkpt lat="43.71851" lon="4.97613">
        <ele>393.6</ele>
      </trkpt>
      <trkpt lat="43.71854" lon="4.9764">
        <ele>391.20001220703</ele>
        <time>2021-03-06T10:04:15.000Z</time>
      </trkpt>
      <trkpt lat="43.71856" lon="4.97644">
        <ele>391.79998779297</ele>
        <time>2021-03-06T10:04:22.000Z</time>
      </trkpt>
      <trkpt lat="43.71855" lon="4.97652">
        <ele>393.20001220703</ele>
        <time>2021-03-06T10:04:32.000Z</time>
      </trkpt>
      <trkpt lat="43.71855" lon="4.97659">
        <ele>394.20001220703</ele>
        <time>2021-03-06T10:04:41.000Z</time>
      </trkpt>
      <trkpt lat="43.71853" lon="4.97665">
        <ele>395.20001220703</ele>
        <time>2021-03-06T10:04:51.000Z</time>
      </trkpt>
      <trkpt lat="43.71852" lon="4.97671">
        <ele>395.20001220703</ele>
        <time>2021-03-06T10:05:04.000Z</time>
      </trkpt>
      <trkpt lat="43.71844" lon="4.97678">
        <ele>392</ele>
        <time>2021-03-06T10:05:18.000Z</time>
      </trkpt>
      <trkpt lat="43.71844" lon="4.97685">
        <ele>393.20001220703</ele>
        <time>2021-03-06T10:05:29.000Z</time>
      </trkpt>
      <trkpt lat="43.71841" lon="4.97691">
        <ele>393</ele>
        <time>2021-03-06T10:05:42.000Z</time>
      </trkpt>
      <trkpt lat="43.71841" lon="4.97698">
        <ele>393.79998779297</ele>
        <time>2021-03-06T10:05:52.000Z</time>
      </trkpt>
      <trkpt lat="43.71841" lon="4.97706">
        <ele>395.20001220703</ele>
        <time>2021-03-06T10:06:01.000Z</time>
      </trkpt>
      <trkpt lat="43.71841" lon="4.97713">
        <ele>396</ele>
        <time>2021-03-06T10:06:09.000Z</time>
      </trkpt>
      <trkpt lat="43.71837" lon="4.97717">
        <ele>394.39999389648</ele>
        <time>2021-03-06T10:06:17.000Z</time>
      </trkpt>
      <trkpt lat="43.71832" lon="4.97717">
        <ele>391.79998779297</ele>
        <time>2021-03-06T10:06:25.000Z</time>
      </trkpt>
      <trkpt lat="43.71826" lon="4.97721">
        <ele>389.20001220703</ele>
        <time>2021-03-06T10:06:33.000Z</time>
      </trkpt>
      <trkpt lat="43.71823" lon="4.97724">
        <ele>387.79998779297</ele>
        <time>2021-03-06T10:07:35.000Z</time>
      </trkpt>
      <trkpt lat="43.71824" lon="4.97732">
        <ele>389.39999389648</ele>
        <time>2021-03-06T10:07:42.000Z</time>
      </trkpt>
      <trkpt lat="43.71825" lon="4.97739">
        <ele>390.60000610352</ele>
        <time>2021-03-06T10:07:48.000Z</time>
      </trkpt>
      <trkpt lat="43.71822" lon="4.97747">
        <ele>389.79998779297</ele>
        <time>2021-03-06T10:07:56.000Z</time>
      </trkpt>
      <trkpt lat="43.71819" lon="4.97754">
        <ele>389</ele>
        <time>2021-03-06T10:08:01.000Z</time>
      </trkpt>
      <trkpt lat="43.71817" lon="4.9776">
        <ele>389.79998779297</ele>
        <time>2021-03-06T10:08:11.000Z</time>
      </trkpt>
      <trkpt lat="43.71817" lon="4.97768">
        <ele>391.79998779297</ele>
        <time>2021-03-06T10:08:18.000Z</time>
      </trkpt>
      <trkpt lat="43.71813" lon="4.97773">
        <ele>391.79998779297</ele>
        <time>2021-03-06T10:08:24.000Z</time>
      </trkpt>
      <trkpt lat="43.71809" lon="4.97778">
        <ele>392</ele>
        <time>2021-03-06T10:08:30.000Z</time>
      </trkpt>
      <trkpt lat="43.71804" lon="4.97784">
        <ele>391.60000610352</ele>
        <time>2021-03-06T10:08:35.000Z</time>
      </trkpt>
      <trkpt lat="43.71801" lon="4.97788">
        <ele>391.79998779297</ele>
        <time>2021-03-06T10:08:43.000Z</time>
      </trkpt>
      <trkpt lat="43.71799" lon="4.97795">
        <ele>391.79998779297</ele>
        <time>2021-03-06T10:09:01.000Z</time>
      </trkpt>
      <trkpt lat="43.71796" lon="4.97801">
        <ele>390.60000610352</ele>
        <time>2021-03-06T10:09:05.000Z</time>
      </trkpt>
      <trkpt lat="43.71793" lon="4.97807">
        <ele>389.20001220703</ele>
        <time>2021-03-06T10:09:09.000Z</time>
      </trkpt>
      <trkpt lat="43.7179" lon="4.97813">
        <ele>388.39999389648</ele>
        <time>2021-03-06T10:09:13.000Z</time>
      </trkpt>
      <trkpt lat="43.71786" lon="4.97819">
        <ele>389.39999389648</ele>
        <time>2021-03-06T10:09:18.000Z</time>
      </trkpt>
      <trkpt lat="43.71783" lon="4.97823">
        <ele>390</ele>
        <time>2021-03-06T10:09:26.000Z</time>
      </trkpt>
      <trkpt lat="43.71778" lon="4.97827">
        <ele>390.39999389648</ele>
        <time>2021-03-06T10:09:31.000Z</time>
      </trkpt>
      <trkpt lat="43.71774" lon="4.97832">
        <ele>391</ele>
        <time>2021-03-06T10:09:37.000Z</time>
      </trkpt>
      <trkpt lat="43.71769" lon="4.97838">
        <ele>391.60000610352</ele>
        <time>2021-03-06T10:09:45.000Z</time>
      </trkpt>
      <trkpt lat="43.71764" lon="4.97842">
        <ele>389.79998779297</ele>
        <time>2021-03-06T10:09:49.000Z</time>
      </trkpt>
      <trkpt lat="43.7176" lon="4.97845">
        <ele>388</ele>
        <time>2021-03-06T10:09:53.000Z</time>
      </trkpt>
      <trkpt lat="43.71754" lon="4.97851">
        <ele>386.39999389648</ele>
        <time>2021-03-06T10:09:58.000Z</time>
      </trkpt>
      <trkpt lat="43.71751" lon="4.97855">
        <ele>385.60000610352</ele>
        <time>2021-03-06T10:10:02.000Z</time>
      </trkpt>
      <trkpt lat="43.71749" lon="4.97863">
        <ele>387</ele>
        <time>2021-03-06T10:10:07.000Z</time>
      </trkpt>
      <trkpt lat="43.71748" lon="4.9787">
        <ele>388.79998779297</ele>
        <time>2021-03-06T10:10:11.000Z</time>
      </trkpt>
      <trkpt lat="43.71746" lon="4.97877">
        <ele>389.20001220703</ele>
        <time>2021-03-06T10:10:16.000Z</time>
      </trkpt>
      <trkpt lat="43.71743" lon="4.97885">
        <ele>387</ele>
        <time>2021-03-06T10:10:22.000Z</time>
      </trkpt>
      <trkpt lat="43.71741" lon="4.97893">
        <ele>385.79998779297</ele>
        <time>2021-03-06T10:10:26.000Z</time>
      </trkpt>
      <trkpt lat="43.71739" lon="4.979">
        <ele>384.60000610352</ele>
        <time>2021-03-06T10:10:29.000Z</time>
      </trkpt>
      <trkpt lat="43.71737" lon="4.97906">
        <ele>383.39999389648</ele>
        <time>2021-03-06T10:10:32.000Z</time>
      </trkpt>
      <trkpt lat="43.71735" lon="4.97914">
        <ele>382</ele>
        <time>2021-03-06T10:10:36.000Z</time>
      </trkpt>
      <trkpt lat="43.71733" lon="4.97923">
        <ele>380.79998779297</ele>
        <time>2021-03-06T10:10:40.000Z</time>
      </trkpt>
      <trkpt lat="43.71732" lon="4.9793">
        <ele>380.60000610352</ele>
        <time>2021-03-06T10:10:44.000Z</time>
      </trkpt>
      <trkpt lat="43.71732" lon="4.97938">
        <ele>381</ele>
        <time>2021-03-06T10:10:50.000Z</time>
      </trkpt>
      <trkpt lat="43.71732" lon="4.97945">
        <ele>381</ele>
        <time>2021-03-06T10:10:55.000Z</time>
      </trkpt>
      <trkpt lat="43.71728" lon="4.97952">
        <ele>380.20001220703</ele>
        <time>2021-03-06T10:11:00.000Z</time>
      </trkpt>
      <trkpt lat="43.71725" lon="4.9796">
        <ele>378.79998779297</ele>
        <time>2021-03-06T10:11:06.000Z</time>
      </trkpt>
      <trkpt lat="43.71724" lon="4.97969">
        <ele>377.39999389648</ele>
        <time>2021-03-06T10:11:11.000Z</time>
      </trkpt>
      <trkpt lat="43.71724" lon="4.97976">
        <ele>376.60000610352</ele>
        <time>2021-03-06T10:11:15.000Z</time>
      </trkpt>
      <trkpt lat="43.71725" lon="4.97982">
        <ele>376.20001220703</ele>
        <time>2021-03-06T10:11:19.000Z</time>
      </trkpt>
      <trkpt lat="43.71724" lon="4.97991">
        <ele>374.60000610352</ele>
        <time>2021-03-06T10:11:26.000Z</time>
      </trkpt>
      <trkpt lat="43.71724" lon="4.97999">
        <ele>374</ele>
        <time>2021-03-06T10:11:31.000Z</time>
      </trkpt>
      <trkpt lat="43.71723" lon="4.98006">
        <ele>373.60000610352</ele>
        <time>2021-03-06T10:11:36.000Z</time>
      </trkpt>
      <trkpt lat="43.71723" lon="4.98013">
        <ele>373.60000610352</ele>
        <time>2021-03-06T10:11:46.000Z</time>
      </trkpt>
      <trkpt lat="43.71722" lon="4.98021">
        <ele>373.39999389648</ele>
        <time>2021-03-06T10:11:53.000Z</time>
      </trkpt>
      <trkpt lat="43.71722" lon="4.98027">
        <ele>373</ele>
        <time>2021-03-06T10:12:00.000Z</time>
      </trkpt>
      <trkpt lat="43.71724" lon="4.98034">
        <ele>373.60000610352</ele>
        <time>2021-03-06T10:12:20.000Z</time>
      </trkpt>
      <trkpt lat="43.71727" lon="4.98039">
        <ele>374.20001220703</ele>
        <time>2021-03-06T10:12:27.000Z</time>
      </trkpt>
      <trkpt lat="43.71726" lon="4.98046">
        <ele>374.20001220703</ele>
        <time>2021-03-06T10:12:41.000Z</time>
      </trkpt>
      <trkpt lat="43.71725" lon="4.98054">
        <ele>374.39999389648</ele>
        <time>2021-03-06T10:12:54.000Z</time>
      </trkpt>
      <trkpt lat="43.71724" lon="4.98061">
        <ele>374.39999389648</ele>
        <time>2021-03-06T10:13:04.000Z</time>
      </trkpt>
      <trkpt lat="43.71714" lon="4.98071">
        <ele>372.60000610352</ele>
        <time>2021-03-06T10:13:52.000Z</time>
      </trkpt>
      <trkpt lat="43.71709" lon="4.98076">
        <ele>372</ele>
        <time>2021-03-06T10:14:05.000Z</time>
      </trkpt>
      <trkpt lat="43.71703" lon="4.98082">
        <ele>371.20001220703</ele>
        <time>2021-03-06T10:14:24.000Z</time>
      </trkpt>
      <trkpt lat="43.71698" lon="4.98084">
        <ele>370.39999389648</ele>
        <time>2021-03-06T10:14:33.000Z</time>
      </trkpt>
      <trkpt lat="43.71691" lon="4.98085">
        <ele>369</ele>
        <time>2021-03-06T10:14:41.000Z</time>
      </trkpt>
      <trkpt lat="43.71685" lon="4.98089">
        <ele>367.60000610352</ele>
        <time>2021-03-06T10:14:46.000Z</time>
      </trkpt>
      <trkpt lat="43.71681" lon="4.98092">
        <ele>366</ele>
        <time>2021-03-06T10:14:49.000Z</time>
      </trkpt>
      <trkpt lat="43.71675" lon="4.98097">
        <ele>364</ele>
        <time>2021-03-06T10:14:53.000Z</time>
      </trkpt>
      <trkpt lat="43.71671" lon="4.981">
        <ele>362.20001220703</ele>
        <time>2021-03-06T10:14:57.000Z</time>
      </trkpt>
      <trkpt lat="43.71666" lon="4.98106">
        <ele>360.60000610352</ele>
        <time>2021-03-06T10:15:03.000Z</time>
      </trkpt>
      <trkpt lat="43.71661" lon="4.98111">
        <ele>359.20001220703</ele>
        <time>2021-03-06T10:15:07.000Z</time>
      </trkpt>
      <trkpt lat="43.71656" lon="4.98116">
        <ele>357.39999389648</ele>
        <time>2021-03-06T10:15:11.000Z</time>
      </trkpt>
      <trkpt lat="43.71652" lon="4.9812">
        <ele>356.39999389648</ele>
        <time>2021-03-06T10:15:14.000Z</time>
      </trkpt>
      <trkpt lat="43.71646" lon="4.98125">
        <ele>354.60000610352</ele>
        <time>2021-03-06T10:15:18.000Z</time>
      </trkpt>
      <trkpt lat="43.71642" lon="4.98129">
        <ele>354</ele>
        <time>2021-03-06T10:15:21.000Z</time>
      </trkpt>
      <trkpt lat="43.71635" lon="4.98134">
        <ele>352.60000610352</ele>
        <time>2021-03-06T10:15:25.000Z</time>
      </trkpt>
      <trkpt lat="43.71631" lon="4.98138">
        <ele>352.20001220703</ele>
        <time>2021-03-06T10:15:28.000Z</time>
      </trkpt>
      <trkpt lat="43.71627" lon="4.98143">
        <ele>352.20001220703</ele>
        <time>2021-03-06T10:15:32.000Z</time>
      </trkpt>
      <trkpt lat="43.71622" lon="4.9815">
        <ele>352</ele>
        <time>2021-03-06T10:15:36.000Z</time>
      </trkpt>
      <trkpt lat="43.71618" lon="4.98155">
        <ele>351.39999389648</ele>
        <time>2021-03-06T10:15:39.000Z</time>
      </trkpt>
      <trkpt lat="43.71611" lon="4.98157">
        <ele>348.60000610352</ele>
        <time>2021-03-06T10:15:42.000Z</time>
      </trkpt>
      <trkpt lat="43.71606" lon="4.98158">
        <ele>346.79998779297</ele>
        <time>2021-03-06T10:15:44.000Z</time>
      </trkpt>
      <trkpt lat="43.71599" lon="4.9816">
        <ele>345.60000610352</ele>
        <time>2021-03-06T10:15:46.000Z</time>
      </trkpt>
      <trkpt lat="43.71594" lon="4.98162">
        <ele>345.39999389648</ele>
        <time>2021-03-06T10:15:48.000Z</time>
      </trkpt>
      <trkpt lat="43.71588" lon="4.98164">
        <ele>344.79998779297</ele>
        <time>2021-03-06T10:15:51.000Z</time>
      </trkpt>
      <trkpt lat="43.71584" lon="4.98167">
        <ele>345.20001220703</ele>
        <time>2021-03-06T10:15:54.000Z</time>
      </trkpt>
      <trkpt lat="43.71582" lon="4.98174">
        <ele>346.60000610352</ele>
        <time>2021-03-06T10:15:59.000Z</time>
      </trkpt>
      <trkpt lat="43.7158" lon="4.98181">
        <ele>348.20001220703</ele>
        <time>2021-03-06T10:16:06.000Z</time>
      </trkpt>
      <trkpt lat="43.71578" lon="4.98187">
        <ele>349.20001220703</ele>
        <time>2021-03-06T10:16:11.000Z</time>
      </trkpt>
      <trkpt lat="43.71575" lon="4.98195">
        <ele>349.79998779297</ele>
        <time>2021-03-06T10:16:17.000Z</time>
      </trkpt>
      <trkpt lat="43.71573" lon="4.98202">
        <ele>350.60000610352</ele>
        <time>2021-03-06T10:16:22.000Z</time>
      </trkpt>
      <trkpt lat="43.71568" lon="4.98208">
        <ele>350.60000610352</ele>
        <time>2021-03-06T10:16:27.000Z</time>
      </trkpt>
      <trkpt lat="43.71563" lon="4.98211">
        <ele>349.39999389648</ele>
        <time>2021-03-06T10:16:31.000Z</time>
      </trkpt>
      <trkpt lat="43.71558" lon="4.98212">
        <ele>348.39999389648</ele>
        <time>2021-03-06T10:16:36.000Z</time>
      </trkpt>
      <trkpt lat="43.71553" lon="4.98212">
        <ele>347</ele>
        <time>2021-03-06T10:16:43.000Z</time>
      </trkpt>
      <trkpt lat="43.71554" lon="4.98217">
        <ele>347.79998779297</ele>
        <time>2021-03-06T10:17:02.000Z</time>
      </trkpt>
      <trkpt lat="43.71554" lon="4.98223">
        <ele>348.39999389648</ele>
        <time>2021-03-06T10:17:07.000Z</time>
      </trkpt>
      <trkpt lat="43.7155" lon="4.98228">
        <ele>348</ele>
        <time>2021-03-06T10:17:15.000Z</time>
      </trkpt>
      <trkpt lat="43.71545" lon="4.98227">
        <ele>346.39999389648</ele>
        <time>2021-03-06T10:17:38.000Z</time>
      </trkpt>
      <trkpt lat="43.7154" lon="4.98224">
        <ele>345</ele>
        <time>2021-03-06T10:17:42.000Z</time>
      </trkpt>
      <trkpt lat="43.71535" lon="4.9822">
        <ele>343.60000610352</ele>
        <time>2021-03-06T10:17:47.000Z</time>
      </trkpt>
      <trkpt lat="43.71532" lon="4.98212">
        <ele>342.20001220703</ele>
        <time>2021-03-06T10:17:53.000Z</time>
      </trkpt>
      <trkpt lat="43.71527" lon="4.9821">
        <ele>340.79998779297</ele>
        <time>2021-03-06T10:17:57.000Z</time>
      </trkpt>
      <trkpt lat="43.71522" lon="4.98212">
        <ele>339.79998779297</ele>
        <time>2021-03-06T10:18:00.000Z</time>
      </trkpt>
      <trkpt lat="43.71518" lon="4.98213">
        <ele>339.60000610352</ele>
        <time>2021-03-06T10:18:04.000Z</time>
      </trkpt>
      <trkpt lat="43.71513" lon="4.98218">
        <ele>340</ele>
        <time>2021-03-06T10:18:10.000Z</time>
      </trkpt>
      <trkpt lat="43.71507" lon="4.9822">
        <ele>340.39999389648</ele>
        <time>2021-03-06T10:18:16.000Z</time>
      </trkpt>
      <trkpt lat="43.71503" lon="4.98223">
        <ele>340.79998779297</ele>
        <time>2021-03-06T10:18:22.000Z</time>
      </trkpt>
      <trkpt lat="43.71501" lon="4.98231">
        <ele>341.60000610352</ele>
        <time>2021-03-06T10:18:28.000Z</time>
      </trkpt>
      <trkpt lat="43.71497" lon="4.98237">
        <ele>342.20001220703</ele>
        <time>2021-03-06T10:18:32.000Z</time>
      </trkpt>
      <trkpt lat="43.71494" lon="4.98241">
        <ele>342.79998779297</ele>
        <time>2021-03-06T10:18:36.000Z</time>
      </trkpt>
      <trkpt lat="43.71489" lon="4.98247">
        <ele>343.39999389648</ele>
        <time>2021-03-06T10:18:41.000Z</time>
      </trkpt>
      <trkpt lat="43.71485" lon="4.98249">
        <ele>343.60000610352</ele>
        <time>2021-03-06T10:18:45.000Z</time>
      </trkpt>
      <trkpt lat="43.71478" lon="4.98249">
        <ele>344</ele>
        <time>2021-03-06T10:18:51.000Z</time>
      </trkpt>
      <trkpt lat="43.71472" lon="4.98247">
        <ele>344.20001220703</ele>
        <time>2021-03-06T10:18:56.000Z</time>
      </trkpt>
      <trkpt lat="43.71467" lon="4.98243">
        <ele>344.20001220703</ele>
        <time>2021-03-06T10:19:02.000Z</time>
      </trkpt>
      <trkpt lat="43.71461" lon="4.98239">
        <ele>344</ele>
        <time>2021-03-06T10:19:42.000Z</time>
      </trkpt>
      <trkpt lat="43.71455" lon="4.98236">
        <ele>344.20001220703</ele>
        <time>2021-03-06T10:19:49.000Z</time>
      </trkpt>
      <trkpt lat="43.71438" lon="4.98217">
        <ele>343</ele>
        <time>2021-03-06T10:20:14.000Z</time>
      </trkpt>
      <trkpt lat="43.71432" lon="4.98209">
        <ele>344</ele>
        <time>2021-03-06T10:20:19.000Z</time>
      </trkpt>
      <trkpt lat="43.71428" lon="4.98201">
        <ele>344.60000610352</ele>
        <time>2021-03-06T10:20:22.000Z</time>
      </trkpt>
      <trkpt lat="43.71425" lon="4.98195">
        <ele>344.79998779297</ele>
        <time>2021-03-06T10:20:25.000Z</time>
      </trkpt>
      <trkpt lat="43.71421" lon="4.98189">
        <ele>345.60000610352</ele>
        <time>2021-03-06T10:20:28.000Z</time>
      </trkpt>
      <trkpt lat="43.71416" lon="4.98184">
        <ele>346.79998779297</ele>
        <time>2021-03-06T10:20:31.000Z</time>
      </trkpt>
      <trkpt lat="43.71411" lon="4.98178">
        <ele>348</ele>
        <time>2021-03-06T10:20:34.000Z</time>
      </trkpt>
      <trkpt lat="43.71406" lon="4.98172">
        <ele>349.39999389648</ele>
        <time>2021-03-06T10:20:37.000Z</time>
      </trkpt>
      <trkpt lat="43.71402" lon="4.98166">
        <ele>350</ele>
        <time>2021-03-06T10:20:39.000Z</time>
      </trkpt>
      <trkpt lat="43.71398" lon="4.98159">
        <ele>350.79998779297</ele>
        <time>2021-03-06T10:20:42.000Z</time>
      </trkpt>
      <trkpt lat="43.71395" lon="4.98151">
        <ele>351.20001220703</ele>
        <time>2021-03-06T10:20:45.000Z</time>
      </trkpt>
      <trkpt lat="43.71392" lon="4.98144">
        <ele>351.60000610352</ele>
        <time>2021-03-06T10:20:48.000Z</time>
      </trkpt>
      <trkpt lat="43.71388" lon="4.98138">
        <ele>352.20001220703</ele>
        <time>2021-03-06T10:20:51.000Z</time>
      </trkpt>
      <trkpt lat="43.71385" lon="4.98129">
        <ele>352.60000610352</ele>
        <time>2021-03-06T10:20:55.000Z</time>
      </trkpt>
      <trkpt lat="43.71382" lon="4.98122">
        <ele>352.79998779297</ele>
        <time>2021-03-06T10:20:58.000Z</time>
      </trkpt>
      <trkpt lat="43.71378" lon="4.98118">
        <ele>353</ele>
        <time>2021-03-06T10:21:01.000Z</time>
      </trkpt>
      <trkpt lat="43.71373" lon="4.98111">
        <ele>353.60000610352</ele>
        <time>2021-03-06T10:21:05.000Z</time>
      </trkpt>
      <trkpt lat="43.7137" lon="4.98105">
        <ele>353.60000610352</ele>
        <time>2021-03-06T10:21:09.000Z</time>
      </trkpt>
      <trkpt lat="43.71366" lon="4.98099">
        <ele>353.60000610352</ele>
        <time>2021-03-06T10:21:13.000Z</time>
      </trkpt>
      <trkpt lat="43.71363" lon="4.98092">
        <ele>353.60000610352</ele>
        <time>2021-03-06T10:21:17.000Z</time>
      </trkpt>
      <trkpt lat="43.71358" lon="4.98087">
        <ele>354.20001220703</ele>
        <time>2021-03-06T10:21:20.000Z</time>
      </trkpt>
      <trkpt lat="43.71354" lon="4.98081">
        <ele>354.39999389648</ele>
        <time>2021-03-06T10:21:23.000Z</time>
      </trkpt>
      <trkpt lat="43.71352" lon="4.98074">
        <ele>353.60000610352</ele>
        <time>2021-03-06T10:21:26.000Z</time>
      </trkpt>
      <trkpt lat="43.7135" lon="4.98066">
        <ele>352.20001220703</ele>
        <time>2021-03-06T10:21:29.000Z</time>
      </trkpt>
      <trkpt lat="43.71349" lon="4.98059">
        <ele>351.20001220703</ele>
        <time>2021-03-06T10:21:32.000Z</time>
      </trkpt>
      <trkpt lat="43.71345" lon="4.9805">
        <ele>350</ele>
        <time>2021-03-06T10:21:36.000Z</time>
      </trkpt>
      <trkpt lat="43.71341" lon="4.98044">
        <ele>349.60000610352</ele>
        <time>2021-03-06T10:21:39.000Z</time>
      </trkpt>
      <trkpt lat="43.71338" lon="4.98037">
        <ele>348.60000610352</ele>
        <time>2021-03-06T10:21:42.000Z</time>
      </trkpt>
      <trkpt lat="43.71335" lon="4.9803">
        <ele>347.79998779297</ele>
        <time>2021-03-06T10:21:45.000Z</time>
      </trkpt>
      <trkpt lat="43.7133" lon="4.98026">
        <ele>347.79998779297</ele>
        <time>2021-03-06T10:21:48.000Z</time>
      </trkpt>
      <trkpt lat="43.71325" lon="4.98024">
        <ele>348.20001220703</ele>
        <time>2021-03-06T10:21:52.000Z</time>
      </trkpt>
      <trkpt lat="43.7132" lon="4.98024">
        <ele>349</ele>
        <time>2021-03-06T10:21:56.000Z</time>
      </trkpt>
      <trkpt lat="43.71314" lon="4.98026">
        <ele>350.20001220703</ele>
        <time>2021-03-06T10:22:01.000Z</time>
      </trkpt>
      <trkpt lat="43.71309" lon="4.98029">
        <ele>351.79998779297</ele>
        <time>2021-03-06T10:22:07.000Z</time>
      </trkpt>
      <trkpt lat="43.71303" lon="4.98032">
        <ele>353.60000610352</ele>
        <time>2021-03-06T10:22:13.000Z</time>
      </trkpt>
      <trkpt lat="43.71299" lon="4.98036">
        <ele>355</ele>
        <time>2021-03-06T10:22:21.000Z</time>
      </trkpt>
      <trkpt lat="43.71294" lon="4.98039">
        <ele>356.60000610352</ele>
        <time>2021-03-06T10:22:31.000Z</time>
      </trkpt>
      <trkpt lat="43.71289" lon="4.9804">
        <ele>357.60000610352</ele>
        <time>2021-03-06T10:22:39.000Z</time>
      </trkpt>
      <trkpt lat="43.71283" lon="4.98042">
        <ele>358.79998779297</ele>
        <time>2021-03-06T10:22:52.000Z</time>
      </trkpt>
      <trkpt lat="43.71278" lon="4.98045">
        <ele>360.39999389648</ele>
        <time>2021-03-06T10:23:01.000Z</time>
      </trkpt>
      <trkpt lat="43.71274" lon="4.98046">
        <ele>361.60000610352</ele>
        <time>2021-03-06T10:23:09.000Z</time>
      </trkpt>
      <trkpt lat="43.71249" lon="4.98064">
        <ele>373.79998779297</ele>
        <time>2021-03-06T10:24:09.000Z</time>
      </trkpt>
      <trkpt lat="43.71244" lon="4.98066">
        <ele>375.60000610352</ele>
        <time>2021-03-06T10:24:14.000Z</time>
      </trkpt>
      <trkpt lat="43.71238" lon="4.98068">
        <ele>377.39999389648</ele>
        <time>2021-03-06T10:24:20.000Z</time>
      </trkpt>
      <trkpt lat="43.71234" lon="4.98071">
        <ele>379.60000610352</ele>
        <time>2021-03-06T10:24:27.000Z</time>
      </trkpt>
      <trkpt lat="43.71229" lon="4.98075">
        <ele>382</ele>
        <time>2021-03-06T10:24:34.000Z</time>
      </trkpt>
      <trkpt lat="43.71225" lon="4.98081">
        <ele>385</ele>
        <time>2021-03-06T10:24:42.000Z</time>
      </trkpt>
      <trkpt lat="43.71226" lon="4.98087">
        <ele>386.60000610352</ele>
        <time>2021-03-06T10:24:50.000Z</time>
      </trkpt>
      <trkpt lat="43.71226" lon="4.98093">
        <ele>388.60000610352</ele>
        <time>2021-03-06T10:25:01.000Z</time>
      </trkpt>
      <trkpt lat="43.7121" lon="4.98123">
        <ele>401.39999389648</ele>
        <time>2021-03-06T10:26:19.000Z</time>
      </trkpt>
      <trkpt lat="43.71205" lon="4.98121">
        <ele>401.39999389648</ele>
        <time>2021-03-06T10:26:26.000Z</time>
      </trkpt>
      <trkpt lat="43.712" lon="4.9812">
        <ele>402.20001220703</ele>
        <time>2021-03-06T10:26:35.000Z</time>
      </trkpt>
      <trkpt lat="43.71195" lon="4.98122">
        <ele>403.60000610352</ele>
        <time>2021-03-06T10:26:43.000Z</time>
      </trkpt>
      <trkpt lat="43.71189" lon="4.98123">
        <ele>405.20001220703</ele>
        <time>2021-03-06T10:26:49.000Z</time>
      </trkpt>
      <trkpt lat="43.71184" lon="4.98126">
        <ele>405.79998779297</ele>
        <time>2021-03-06T10:26:56.000Z</time>
      </trkpt>
      <trkpt lat="43.71178" lon="4.98126">
        <ele>404.60000610352</ele>
        <time>2021-03-06T10:27:02.000Z</time>
      </trkpt>
      <trkpt lat="43.71173" lon="4.98125">
        <ele>402.79998779297</ele>
        <time>2021-03-06T10:27:07.000Z</time>
      </trkpt>
      <trkpt lat="43.71167" lon="4.98124">
        <ele>401</ele>
        <time>2021-03-06T10:27:12.000Z</time>
      </trkpt>
      <trkpt lat="43.71162" lon="4.98127">
        <ele>401</ele>
        <time>2021-03-06T10:27:18.000Z</time>
      </trkpt>
      <trkpt lat="43.71156" lon="4.98129">
        <ele>400.39999389648</ele>
        <time>2021-03-06T10:27:23.000Z</time>
      </trkpt>
      <trkpt lat="43.71151" lon="4.98131">
        <ele>399.79998779297</ele>
        <time>2021-03-06T10:27:30.000Z</time>
      </trkpt>
      <trkpt lat="43.71146" lon="4.98132">
        <ele>398.79998779297</ele>
        <time>2021-03-06T10:27:37.000Z</time>
      </trkpt>
      <trkpt lat="43.71141" lon="4.98136">
        <ele>399</ele>
        <time>2021-03-06T10:27:45.000Z</time>
      </trkpt>
      <trkpt lat="43.71139" lon="4.98143">
        <ele>401.20001220703</ele>
        <time>2021-03-06T10:27:52.000Z</time>
      </trkpt>
      <trkpt lat="43.71139" lon="4.98151">
        <ele>404.60000610352</ele>
        <time>2021-03-06T10:27:58.000Z</time>
      </trkpt>
      <trkpt lat="43.71141" lon="4.98159">
        <ele>407.60000610352</ele>
        <time>2021-03-06T10:28:03.000Z</time>
      </trkpt>
      <trkpt lat="43.71143" lon="4.98166">
        <ele>410.20001220703</ele>
        <time>2021-03-06T10:28:08.000Z</time>
      </trkpt>
      <trkpt lat="43.71145" lon="4.98172">
        <ele>412.39999389648</ele>
        <time>2021-03-06T10:28:13.000Z</time>
      </trkpt>
      <trkpt lat="43.71146" lon="4.9818">
        <ele>414.20001220703</ele>
        <time>2021-03-06T10:28:20.000Z</time>
      </trkpt>
      <trkpt lat="43.71147" lon="4.98186">
        <ele>415.79998779297</ele>
        <time>2021-03-06T10:28:25.000Z</time>
      </trkpt>
      <trkpt lat="43.71153" lon="4.98188">
        <ele>418.79998779297</ele>
        <time>2021-03-06T10:28:32.000Z</time>
      </trkpt>
      <trkpt lat="43.71156" lon="4.98194">
        <ele>421.20001220703</ele>
        <time>2021-03-06T10:28:40.000Z</time>
      </trkpt>
      <trkpt lat="43.7116" lon="4.98197">
        <ele>423.60000610352</ele>
        <time>2021-03-06T10:28:46.000Z</time>
      </trkpt>
      <trkpt lat="43.71165" lon="4.982">
        <ele>426.20001220703</ele>
        <time>2021-03-06T10:28:55.000Z</time>
      </trkpt>
      <trkpt lat="43.7117" lon="4.98198">
        <ele>427.79998779297</ele>
        <time>2021-03-06T10:29:07.000Z</time>
      </trkpt>
      <trkpt lat="43.71173" lon="4.98204">
        <ele>430</ele>
        <time>2021-03-06T10:29:28.000Z</time>
      </trkpt>
      <trkpt lat="43.71176" lon="4.9821">
        <ele>432.79998779297</ele>
        <time>2021-03-06T10:29:47.000Z</time>
      </trkpt>
      <trkpt lat="43.71184" lon="4.98247">
        <ele>447</ele>
        <time>2021-03-06T10:30:59.000Z</time>
      </trkpt>
      <trkpt lat="43.71184" lon="4.98253">
        <ele>448.79998779297</ele>
        <time>2021-03-06T10:31:07.000Z</time>
      </trkpt>
      <trkpt lat="43.71184" lon="4.9826">
        <ele>450.79998779297</ele>
        <time>2021-03-06T10:31:15.000Z</time>
      </trkpt>
      <trkpt lat="43.71183" lon="4.98268">
        <ele>452.60000610352</ele>
        <time>2021-03-06T10:31:21.000Z</time>
      </trkpt>
      <trkpt lat="43.71186" lon="4.98274">
        <ele>455.79998779297</ele>
        <time>2021-03-06T10:31:27.000Z</time>
      </trkpt>
      <trkpt lat="43.71191" lon="4.98275">
        <ele>455.79998779297</ele>
        <time>2021-03-06T10:31:34.000Z</time>
      </trkpt>
      <trkpt lat="43.71195" lon="4.98272">
        <ele>454.60000610352</ele>
        <time>2021-03-06T10:31:43.000Z</time>
      </trkpt>
      <trkpt lat="43.71216" lon="4.98339">
        <ele>463</ele>
        <time>2021-03-06T10:40:58.000Z</time>
      </trkpt>
      <trkpt lat="43.71216" lon="4.9834">
        <ele>463</ele>
        <time>2021-03-06T10:40:59.000Z</time>
      </trkpt>
      <trkpt lat="43.71213" lon="4.98346">
        <ele>463.20001220703</ele>
        <time>2021-03-06T10:41:16.000Z</time>
      </trkpt>
      <trkpt lat="43.71212" lon="4.98353">
        <ele>463.60000610352</ele>
        <time>2021-03-06T10:41:23.000Z</time>
      </trkpt>
      <trkpt lat="43.71208" lon="4.98353">
        <ele>463.39999389648</ele>
        <time>2021-03-06T10:41:31.000Z</time>
      </trkpt>
      <trkpt lat="43.71173" lon="4.98337">
        <ele>456.20001220703</ele>
        <time>2021-03-06T10:44:53.000Z</time>
      </trkpt>
      <trkpt lat="43.71167" lon="4.98339">
        <ele>453.39999389648</ele>
        <time>2021-03-06T10:44:58.000Z</time>
      </trkpt>
      <trkpt lat="43.71163" lon="4.98342">
        <ele>451.20001220703</ele>
        <time>2021-03-06T10:45:02.000Z</time>
      </trkpt>
      <trkpt lat="43.71159" lon="4.98346">
        <ele>449.60000610352</ele>
        <time>2021-03-06T10:45:06.000Z</time>
      </trkpt>
      <trkpt lat="43.71154" lon="4.98349">
        <ele>449</ele>
        <time>2021-03-06T10:45:13.000Z</time>
      </trkpt>
      <trkpt lat="43.71149" lon="4.98349">
        <ele>447.79998779297</ele>
        <time>2021-03-06T10:45:21.000Z</time>
      </trkpt>
      <trkpt lat="43.71145" lon="4.98352">
        <ele>447.60000610352</ele>
        <time>2021-03-06T10:45:28.000Z</time>
      </trkpt>
      <trkpt lat="43.71147" lon="4.98361">
        <ele>450.39999389648</ele>
        <time>2021-03-06T10:45:36.000Z</time>
      </trkpt>
      <trkpt lat="43.71142" lon="4.98363">
        <ele>449.79998779297</ele>
        <time>2021-03-06T10:45:42.000Z</time>
      </trkpt>
      <trkpt lat="43.71136" lon="4.98365">
        <ele>448.60000610352</ele>
        <time>2021-03-06T10:45:47.000Z</time>
      </trkpt>
      <trkpt lat="43.7113" lon="4.98365">
        <ele>447.20001220703</ele>
        <time>2021-03-06T10:45:51.000Z</time>
      </trkpt>
      <trkpt lat="43.71125" lon="4.98367">
        <ele>446.60000610352</ele>
        <time>2021-03-06T10:45:56.000Z</time>
      </trkpt>
      <trkpt lat="43.7112" lon="4.98372">
        <ele>446.39999389648</ele>
        <time>2021-03-06T10:46:01.000Z</time>
      </trkpt>
      <trkpt lat="43.71118" lon="4.98377">
        <ele>446.20001220703</ele>
        <time>2021-03-06T10:46:13.000Z</time>
      </trkpt>
      <trkpt lat="43.71118" lon="4.98385">
        <ele>444.60000610352</ele>
        <time>2021-03-06T10:46:20.000Z</time>
      </trkpt>
      <trkpt lat="43.71117" lon="4.98393">
        <ele>443.60000610352</ele>
        <time>2021-03-06T10:46:25.000Z</time>
      </trkpt>
      <trkpt lat="43.71114" lon="4.98399">
        <ele>443</ele>
        <time>2021-03-06T10:46:30.000Z</time>
      </trkpt>
      <trkpt lat="43.71114" lon="4.98407">
        <ele>442.60000610352</ele>
        <time>2021-03-06T10:46:35.000Z</time>
      </trkpt>
      <trkpt lat="43.71115" lon="4.98414">
        <ele>442.39999389648</ele>
        <time>2021-03-06T10:46:41.000Z</time>
      </trkpt>
      <trkpt lat="43.71117" lon="4.98422">
        <ele>442.20001220703</ele>
        <time>2021-03-06T10:46:47.000Z</time>
      </trkpt>
      <trkpt lat="43.7112" lon="4.9843">
        <ele>442.20001220703</ele>
        <time>2021-03-06T10:46:51.000Z</time>
      </trkpt>
      <trkpt lat="43.71126" lon="4.98436">
        <ele>442.39999389648</ele>
        <time>2021-03-06T10:46:54.000Z</time>
      </trkpt>
      <trkpt lat="43.71131" lon="4.98445">
        <ele>442.60000610352</ele>
        <time>2021-03-06T10:46:58.000Z</time>
      </trkpt>
      <trkpt lat="43.71135" lon="4.98451">
        <ele>442.79998779297</ele>
        <time>2021-03-06T10:47:01.000Z</time>
      </trkpt>
      <trkpt lat="43.71135" lon="4.98459">
        <ele>442.20001220703</ele>
        <time>2021-03-06T10:47:04.000Z</time>
      </trkpt>
      <trkpt lat="43.71135" lon="4.98467">
        <ele>440.20001220703</ele>
        <time>2021-03-06T10:47:07.000Z</time>
      </trkpt>
      <trkpt lat="43.71138" lon="4.98474">
        <ele>438.60000610352</ele>
        <time>2021-03-06T10:47:10.000Z</time>
      </trkpt>
      <trkpt lat="43.71142" lon="4.98479">
        <ele>437.79998779297</ele>
        <time>2021-03-06T10:47:13.000Z</time>
      </trkpt>
      <trkpt lat="43.71147" lon="4.98483">
        <ele>437.39999389648</ele>
        <time>2021-03-06T10:47:16.000Z</time>
      </trkpt>
      <trkpt lat="43.71152" lon="4.98489">
        <ele>436.60000610352</ele>
        <time>2021-03-06T10:47:19.000Z</time>
      </trkpt>
      <trkpt lat="43.71156" lon="4.98495">
        <ele>435.39999389648</ele>
        <time>2021-03-06T10:47:22.000Z</time>
      </trkpt>
      <trkpt lat="43.71159" lon="4.98504">
        <ele>433.39999389648</ele>
        <time>2021-03-06T10:47:25.000Z</time>
      </trkpt>
      <trkpt lat="43.71162" lon="4.98512">
        <ele>431.79998779297</ele>
        <time>2021-03-06T10:47:28.000Z</time>
      </trkpt>
      <trkpt lat="43.71164" lon="4.98519">
        <ele>430.20001220703</ele>
        <time>2021-03-06T10:47:31.000Z</time>
      </trkpt>
      <trkpt lat="43.71168" lon="4.98525">
        <ele>430</ele>
        <time>2021-03-06T10:47:34.000Z</time>
      </trkpt>
      <trkpt lat="43.71172" lon="4.98531">
        <ele>429.39999389648</ele>
        <time>2021-03-06T10:47:37.000Z</time>
      </trkpt>
      <trkpt lat="43.71177" lon="4.98536">
        <ele>428.60000610352</ele>
        <time>2021-03-06T10:47:40.000Z</time>
      </trkpt>
      <trkpt lat="43.71182" lon="4.9854">
        <ele>427.79998779297</ele>
        <time>2021-03-06T10:47:43.000Z</time>
      </trkpt>
      <trkpt lat="43.71186" lon="4.98545">
        <ele>426.79998779297</ele>
        <time>2021-03-06T10:47:46.000Z</time>
      </trkpt>
      <trkpt lat="43.71192" lon="4.9855">
        <ele>425</ele>
        <time>2021-03-06T10:47:49.000Z</time>
      </trkpt>
      <trkpt lat="43.71199" lon="4.98553">
        <ele>423.20001220703</ele>
        <time>2021-03-06T10:47:52.000Z</time>
      </trkpt>
      <trkpt lat="43.71202" lon="4.98557">
        <ele>422.20001220703</ele>
        <time>2021-03-06T10:47:54.000Z</time>
      </trkpt>
      <trkpt lat="43.71206" lon="4.98564">
        <ele>420.60000610352</ele>
        <time>2021-03-06T10:47:57.000Z</time>
      </trkpt>
      <trkpt lat="43.7121" lon="4.98569">
        <ele>419.20001220703</ele>
        <time>2021-03-06T10:48:00.000Z</time>
      </trkpt>
      <trkpt lat="43.71215" lon="4.98574">
        <ele>417.79998779297</ele>
        <time>2021-03-06T10:48:03.000Z</time>
      </trkpt>
      <trkpt lat="43.7122" lon="4.98576">
        <ele>416.60000610352</ele>
        <time>2021-03-06T10:48:06.000Z</time>
      </trkpt>
      <trkpt lat="43.71226" lon="4.98578">
        <ele>415.60000610352</ele>
        <time>2021-03-06T10:48:09.000Z</time>
      </trkpt>
      <trkpt lat="43.71231" lon="4.98581">
        <ele>414.39999389648</ele>
        <time>2021-03-06T10:48:12.000Z</time>
      </trkpt>
      <trkpt lat="43.71236" lon="4.98585">
        <ele>413</ele>
        <time>2021-03-06T10:48:15.000Z</time>
      </trkpt>
      <trkpt lat="43.71242" lon="4.98589">
        <ele>411.79998779297</ele>
        <time>2021-03-06T10:48:18.000Z</time>
      </trkpt>
      <trkpt lat="43.71248" lon="4.98592">
        <ele>410.79998779297</ele>
        <time>2021-03-06T10:48:21.000Z</time>
      </trkpt>
      <trkpt lat="43.71253" lon="4.98594">
        <ele>410</ele>
        <time>2021-03-06T10:48:24.000Z</time>
      </trkpt>
      <trkpt lat="43.71257" lon="4.98598">
        <ele>408.79998779297</ele>
        <time>2021-03-06T10:48:27.000Z</time>
      </trkpt>
      <trkpt lat="43.71262" lon="4.98601">
        <ele>407.79998779297</ele>
        <time>2021-03-06T10:48:30.000Z</time>
      </trkpt>
      <trkpt lat="43.71268" lon="4.98605">
        <ele>406.60000610352</ele>
        <time>2021-03-06T10:48:34.000Z</time>
      </trkpt>
      <trkpt lat="43.71271" lon="4.98612">
        <ele>404.60000610352</ele>
        <time>2021-03-06T10:48:38.000Z</time>
      </trkpt>
      <trkpt lat="43.71277" lon="4.98616">
        <ele>402.20001220703</ele>
        <time>2021-03-06T10:48:43.000Z</time>
      </trkpt>
      <trkpt lat="43.71282" lon="4.98618">
        <ele>400.39999389648</ele>
        <time>2021-03-06T10:48:47.000Z</time>
      </trkpt>
      <trkpt lat="43.71284" lon="4.98625">
        <ele>398</ele>
        <time>2021-03-06T10:48:51.000Z</time>
      </trkpt>
      <trkpt lat="43.71288" lon="4.9863">
        <ele>396</ele>
        <time>2021-03-06T10:48:55.000Z</time>
      </trkpt>
      <trkpt lat="43.71292" lon="4.98634">
        <ele>394.20001220703</ele>
        <time>2021-03-06T10:48:59.000Z</time>
      </trkpt>
      <trkpt lat="43.71297" lon="4.98638">
        <ele>391.79998779297</ele>
        <time>2021-03-06T10:49:04.000Z</time>
      </trkpt>
      <trkpt lat="43.71299" lon="4.98644">
        <ele>389.79998779297</ele>
        <time>2021-03-06T10:49:08.000Z</time>
      </trkpt>
      <trkpt lat="43.713" lon="4.98651">
        <ele>387.60000610352</ele>
        <time>2021-03-06T10:49:12.000Z</time>
      </trkpt>
      <trkpt lat="43.71305" lon="4.98655">
        <ele>385.60000610352</ele>
        <time>2021-03-06T10:49:16.000Z</time>
      </trkpt>
      <trkpt lat="43.7131" lon="4.9866">
        <ele>383.20001220703</ele>
        <time>2021-03-06T10:49:20.000Z</time>
      </trkpt>
      <trkpt lat="43.71313" lon="4.98664">
        <ele>381.39999389648</ele>
        <time>2021-03-06T10:49:23.000Z</time>
      </trkpt>
      <trkpt lat="43.71319" lon="4.98666">
        <ele>379.60000610352</ele>
        <time>2021-03-06T10:49:27.000Z</time>
      </trkpt>
      <trkpt lat="43.71322" lon="4.98672">
        <ele>377.60000610352</ele>
        <time>2021-03-06T10:49:33.000Z</time>
      </trkpt>
      <trkpt lat="43.71328" lon="4.98676">
        <ele>375</ele>
        <time>2021-03-06T10:49:38.000Z</time>
      </trkpt>
      <trkpt lat="43.71331" lon="4.98682">
        <ele>372.79998779297</ele>
        <time>2021-03-06T10:49:42.000Z</time>
      </trkpt>
      <trkpt lat="43.71336" lon="4.98688">
        <ele>370</ele>
        <time>2021-03-06T10:49:46.000Z</time>
      </trkpt>
      <trkpt lat="43.71341" lon="4.98691">
        <ele>368.20001220703</ele>
        <time>2021-03-06T10:49:50.000Z</time>
      </trkpt>
      <trkpt lat="43.71345" lon="4.98697">
        <ele>365.60000610352</ele>
        <time>2021-03-06T10:49:54.000Z</time>
      </trkpt>
      <trkpt lat="43.7135" lon="4.98703">
        <ele>363.20001220703</ele>
        <time>2021-03-06T10:49:58.000Z</time>
      </trkpt>
      <trkpt lat="43.71355" lon="4.98705">
        <ele>361.60000610352</ele>
        <time>2021-03-06T10:50:02.000Z</time>
      </trkpt>
      <trkpt lat="43.71359" lon="4.98708">
        <ele>360.20001220703</ele>
        <time>2021-03-06T10:50:07.000Z</time>
      </trkpt>
      <trkpt lat="43.71364" lon="4.98711">
        <ele>358.79998779297</ele>
        <time>2021-03-06T10:50:13.000Z</time>
      </trkpt>
      <trkpt lat="43.71369" lon="4.98715">
        <ele>357.39999389648</ele>
        <time>2021-03-06T10:50:20.000Z</time>
      </trkpt>
      <trkpt lat="43.71373" lon="4.98719">
        <ele>356</ele>
        <time>2021-03-06T10:50:29.000Z</time>
      </trkpt>
      <trkpt lat="43.71379" lon="4.9872">
        <ele>354.79998779297</ele>
        <time>2021-03-06T10:50:37.000Z</time>
      </trkpt>
      <trkpt lat="43.71383" lon="4.98727">
        <ele>352.60000610352</ele>
        <time>2021-03-06T10:50:42.000Z</time>
      </trkpt>
      <trkpt lat="43.71387" lon="4.98733">
        <ele>351</ele>
        <time>2021-03-06T10:50:46.000Z</time>
      </trkpt>
      <trkpt lat="43.71389" lon="4.98738">
        <ele>349.60000610352</ele>
        <time>2021-03-06T10:50:51.000Z</time>
      </trkpt>
      <trkpt lat="43.71392" lon="4.98748">
        <ele>346.79998779297</ele>
        <time>2021-03-06T10:50:57.000Z</time>
      </trkpt>
      <trkpt lat="43.71393" lon="4.98755">
        <ele>344.39999389648</ele>
        <time>2021-03-06T10:51:01.000Z</time>
      </trkpt>
      <trkpt lat="43.71394" lon="4.98763">
        <ele>342</ele>
        <time>2021-03-06T10:51:05.000Z</time>
      </trkpt>
      <trkpt lat="43.71395" lon="4.98771">
        <ele>339.20001220703</ele>
        <time>2021-03-06T10:51:09.000Z</time>
      </trkpt>
      <trkpt lat="43.71395" lon="4.9878">
        <ele>336.60000610352</ele>
        <time>2021-03-06T10:51:12.000Z</time>
      </trkpt>
      <trkpt lat="43.71395" lon="4.98789">
        <ele>333.79998779297</ele>
        <time>2021-03-06T10:51:15.000Z</time>
      </trkpt>
      <trkpt lat="43.71394" lon="4.98797">
        <ele>332</ele>
        <time>2021-03-06T10:51:18.000Z</time>
      </trkpt>
      <trkpt lat="43.71392" lon="4.98805">
        <ele>330.39999389648</ele>
        <time>2021-03-06T10:51:21.000Z</time>
      </trkpt>
      <trkpt lat="43.71392" lon="4.98812">
        <ele>329.20001220703</ele>
        <time>2021-03-06T10:51:24.000Z</time>
      </trkpt>
      <trkpt lat="43.7139" lon="4.9882">
        <ele>327.79998779297</ele>
        <time>2021-03-06T10:51:28.000Z</time>
      </trkpt>
      <trkpt lat="43.71388" lon="4.98826">
        <ele>326.60000610352</ele>
        <time>2021-03-06T10:51:33.000Z</time>
      </trkpt>
      <trkpt lat="43.71388" lon="4.98832">
        <ele>325.39999389648</ele>
        <time>2021-03-06T10:51:40.000Z</time>
      </trkpt>
      <trkpt lat="43.71388" lon="4.98839">
        <ele>323.60000610352</ele>
        <time>2021-03-06T10:51:57.000Z</time>
      </trkpt>
      <trkpt lat="43.71386" lon="4.98855">
        <ele>319.79998779297</ele>
        <time>2021-03-06T10:52:06.000Z</time>
      </trkpt>
      <trkpt lat="43.71387" lon="4.98861">
        <ele>318.20001220703</ele>
        <time>2021-03-06T10:52:09.000Z</time>
      </trkpt>
      <trkpt lat="43.71385" lon="4.98869">
        <ele>316.39999389648</ele>
        <time>2021-03-06T10:52:13.000Z</time>
      </trkpt>
      <trkpt lat="43.71383" lon="4.98875">
        <ele>314.79998779297</ele>
        <time>2021-03-06T10:52:18.000Z</time>
      </trkpt>
      <trkpt lat="43.71383" lon="4.98883">
        <ele>313.39999389648</ele>
        <time>2021-03-06T10:52:23.000Z</time>
      </trkpt>
      <trkpt lat="43.71382" lon="4.9889">
        <ele>312</ele>
        <time>2021-03-06T10:52:28.000Z</time>
      </trkpt>
      <trkpt lat="43.71383" lon="4.98897">
        <ele>310.79998779297</ele>
        <time>2021-03-06T10:52:37.000Z</time>
      </trkpt>
      <trkpt lat="43.71384" lon="4.98904">
        <ele>309.39999389648</ele>
        <time>2021-03-06T10:52:45.000Z</time>
      </trkpt>
      <trkpt lat="43.71383" lon="4.98912">
        <ele>308.20001220703</ele>
        <time>2021-03-06T10:52:51.000Z</time>
      </trkpt>
      <trkpt lat="43.71383" lon="4.98919">
        <ele>307.20001220703</ele>
        <time>2021-03-06T10:52:56.000Z</time>
      </trkpt>
      <trkpt lat="43.71383" lon="4.98927">
        <ele>306</ele>
        <time>2021-03-06T10:53:04.000Z</time>
      </trkpt>
      <trkpt lat="43.71382" lon="4.98936">
        <ele>304.79998779297</ele>
        <time>2021-03-06T10:53:09.000Z</time>
      </trkpt>
      <trkpt lat="43.7138" lon="4.98944">
        <ele>303.79998779297</ele>
        <time>2021-03-06T10:53:12.000Z</time>
      </trkpt>
      <trkpt lat="43.71378" lon="4.9895">
        <ele>303</ele>
        <time>2021-03-06T10:53:14.000Z</time>
      </trkpt>
      <trkpt lat="43.71377" lon="4.98959">
        <ele>301.79998779297</ele>
        <time>2021-03-06T10:53:17.000Z</time>
      </trkpt>
      <trkpt lat="43.71379" lon="4.98967">
        <ele>300</ele>
        <time>2021-03-06T10:53:21.000Z</time>
      </trkpt>
      <trkpt lat="43.71381" lon="4.98975">
        <ele>298</ele>
        <time>2021-03-06T10:53:25.000Z</time>
      </trkpt>
      <trkpt lat="43.71383" lon="4.98982">
        <ele>296.39999389648</ele>
        <time>2021-03-06T10:53:28.000Z</time>
      </trkpt>
      <trkpt lat="43.71385" lon="4.9899">
        <ele>294.60000610352</ele>
        <time>2021-03-06T10:53:31.000Z</time>
      </trkpt>
      <trkpt lat="43.71387" lon="4.98997">
        <ele>293.39999389648</ele>
        <time>2021-03-06T10:53:34.000Z</time>
      </trkpt>
      <trkpt lat="43.7139" lon="4.99004">
        <ele>292.20001220703</ele>
        <time>2021-03-06T10:53:38.000Z</time>
      </trkpt>
      <trkpt lat="43.71394" lon="4.9901">
        <ele>291</ele>
        <time>2021-03-06T10:53:42.000Z</time>
      </trkpt>
      <trkpt lat="43.71398" lon="4.99016">
        <ele>289.79998779297</ele>
        <time>2021-03-06T10:53:46.000Z</time>
      </trkpt>
      <trkpt lat="43.71401" lon="4.99022">
        <ele>288.60000610352</ele>
        <time>2021-03-06T10:53:51.000Z</time>
      </trkpt>
      <trkpt lat="43.71406" lon="4.99028">
        <ele>287</ele>
        <time>2021-03-06T10:53:56.000Z</time>
      </trkpt>
      <trkpt lat="43.7141" lon="4.99033">
        <ele>286</ele>
        <time>2021-03-06T10:54:00.000Z</time>
      </trkpt>
      <trkpt lat="43.71412" lon="4.9904">
        <ele>284.79998779297</ele>
        <time>2021-03-06T10:54:07.000Z</time>
      </trkpt>
      <trkpt lat="43.71413" lon="4.99048">
        <ele>282.60000610352</ele>
        <time>2021-03-06T10:54:11.000Z</time>
      </trkpt>
      <trkpt lat="43.71416" lon="4.99056">
        <ele>279.79998779297</ele>
        <time>2021-03-06T10:54:15.000Z</time>
      </trkpt>
      <trkpt lat="43.71417" lon="4.99064">
        <ele>277.39999389648</ele>
        <time>2021-03-06T10:54:19.000Z</time>
      </trkpt>
      <trkpt lat="43.71419" lon="4.99072">
        <ele>274.79998779297</ele>
        <time>2021-03-06T10:54:23.000Z</time>
      </trkpt>
      <trkpt lat="43.71419" lon="4.99079">
        <ele>272.79998779297</ele>
        <time>2021-03-06T10:54:26.000Z</time>
      </trkpt>
      <trkpt lat="43.71419" lon="4.99085">
        <ele>270.79998779297</ele>
        <time>2021-03-06T10:54:30.000Z</time>
      </trkpt>
      <trkpt lat="43.71421" lon="4.99093">
        <ele>268.60000610352</ele>
        <time>2021-03-06T10:54:34.000Z</time>
      </trkpt>
      <trkpt lat="43.71423" lon="4.991">
        <ele>266.20001220703</ele>
        <time>2021-03-06T10:54:40.000Z</time>
      </trkpt>
      <trkpt lat="43.71425" lon="4.99106">
        <ele>264</ele>
        <time>2021-03-06T10:54:45.000Z</time>
      </trkpt>
      <trkpt lat="43.71429" lon="4.99112">
        <ele>262</ele>
        <time>2021-03-06T10:54:50.000Z</time>
      </trkpt>
      <trkpt lat="43.71428" lon="4.99119">
        <ele>260.20001220703</ele>
        <time>2021-03-06T10:54:57.000Z</time>
      </trkpt>
      <trkpt lat="43.71428" lon="4.99127">
        <ele>258.79998779297</ele>
        <time>2021-03-06T10:55:03.000Z</time>
      </trkpt>
      <trkpt lat="43.71429" lon="4.99135">
        <ele>256.79998779297</ele>
        <time>2021-03-06T10:55:07.000Z</time>
      </trkpt>
      <trkpt lat="43.71431" lon="4.99143">
        <ele>254.60000610352</ele>
        <time>2021-03-06T10:55:11.000Z</time>
      </trkpt>
      <trkpt lat="43.71434" lon="4.99151">
        <ele>252.19999694824</ele>
        <time>2021-03-06T10:55:15.000Z</time>
      </trkpt>
      <trkpt lat="43.71435" lon="4.99158">
        <ele>250.39999389648</ele>
        <time>2021-03-06T10:55:18.000Z</time>
      </trkpt>
      <trkpt lat="43.71434" lon="4.99166">
        <ele>249</ele>
        <time>2021-03-06T10:55:21.000Z</time>
      </trkpt>
      <trkpt lat="43.71432" lon="4.99172">
        <ele>247.80000305176</ele>
        <time>2021-03-06T10:55:24.000Z</time>
      </trkpt>
      <trkpt lat="43.71429" lon="4.9918">
        <ele>247.19999694824</ele>
        <time>2021-03-06T10:55:27.000Z</time>
      </trkpt>
      <trkpt lat="43.71426" lon="4.99189">
        <ele>245.80000305176</ele>
        <time>2021-03-06T10:55:30.000Z</time>
      </trkpt>
      <trkpt lat="43.71425" lon="4.99197">
        <ele>244.39999389648</ele>
        <time>2021-03-06T10:55:33.000Z</time>
      </trkpt>
      <trkpt lat="43.71422" lon="4.99206">
        <ele>244.39999389648</ele>
        <time>2021-03-06T10:55:36.000Z</time>
      </trkpt>
      <trkpt lat="43.71421" lon="4.99213">
        <ele>244</ele>
        <time>2021-03-06T10:55:38.000Z</time>
      </trkpt>
      <trkpt lat="43.71418" lon="4.99222">
        <ele>243.80000305176</ele>
        <time>2021-03-06T10:55:41.000Z</time>
      </trkpt>
      <trkpt lat="43.71417" lon="4.99227">
        <ele>243.39999389648</ele>
        <time>2021-03-06T10:55:43.000Z</time>
      </trkpt>
      <trkpt lat="43.71419" lon="4.99236">
        <ele>241.60000610352</ele>
        <time>2021-03-06T10:55:47.000Z</time>
      </trkpt>
      <trkpt lat="43.71424" lon="4.99242">
        <ele>239</ele>
        <time>2021-03-06T10:55:50.000Z</time>
      </trkpt>
      <trkpt lat="43.71431" lon="4.99247">
        <ele>236</ele>
        <time>2021-03-06T10:55:53.000Z</time>
      </trkpt>
      <trkpt lat="43.71436" lon="4.99254">
        <ele>233.19999694824</ele>
        <time>2021-03-06T10:55:56.000Z</time>
      </trkpt>
      <trkpt lat="43.71442" lon="4.99261">
        <ele>231.60000610352</ele>
        <time>2021-03-06T10:55:59.000Z</time>
      </trkpt>
      <trkpt lat="43.71445" lon="4.99266">
        <ele>230.60000610352</ele>
        <time>2021-03-06T10:56:01.000Z</time>
      </trkpt>
      <trkpt lat="43.71449" lon="4.9927">
        <ele>229.80000305176</ele>
        <time>2021-03-06T10:56:03.000Z</time>
      </trkpt>
      <trkpt lat="43.71455" lon="4.99276">
        <ele>228.60000610352</ele>
        <time>2021-03-06T10:56:06.000Z</time>
      </trkpt>
      <trkpt lat="43.71457" lon="4.99281">
        <ele>227.60000610352</ele>
        <time>2021-03-06T10:56:08.000Z</time>
      </trkpt>
      <trkpt lat="43.7146" lon="4.9929">
        <ele>226.19999694824</ele>
        <time>2021-03-06T10:56:11.000Z</time>
      </trkpt>
      <trkpt lat="43.71461" lon="4.99299">
        <ele>224.19999694824</ele>
        <time>2021-03-06T10:56:14.000Z</time>
      </trkpt>
      <trkpt lat="43.71465" lon="4.99305">
        <ele>222.60000610352</ele>
        <time>2021-03-06T10:56:17.000Z</time>
      </trkpt>
      <trkpt lat="43.71471" lon="4.99309">
        <ele>221.19999694824</ele>
        <time>2021-03-06T10:56:20.000Z</time>
      </trkpt>
      <trkpt lat="43.71476" lon="4.99315">
        <ele>219.60000610352</ele>
        <time>2021-03-06T10:56:23.000Z</time>
      </trkpt>
      <trkpt lat="43.71481" lon="4.9932">
        <ele>218.19999694824</ele>
        <time>2021-03-06T10:56:25.000Z</time>
      </trkpt>
      <trkpt lat="43.71485" lon="4.99324">
        <ele>216.80000305176</ele>
        <time>2021-03-06T10:56:27.000Z</time>
      </trkpt>
      <trkpt lat="43.71489" lon="4.99329">
        <ele>215.60000610352</ele>
        <time>2021-03-06T10:56:29.000Z</time>
      </trkpt>
      <trkpt lat="43.71496" lon="4.99333">
        <ele>214</ele>
        <time>2021-03-06T10:56:32.000Z</time>
      </trkpt>
      <trkpt lat="43.715" lon="4.99336">
        <ele>213.19999694824</ele>
        <time>2021-03-06T10:56:34.000Z</time>
      </trkpt>
      <trkpt lat="43.71506" lon="4.9934">
        <ele>211.80000305176</ele>
        <time>2021-03-06T10:56:37.000Z</time>
      </trkpt>
      <trkpt lat="43.71512" lon="4.99346">
        <ele>210</ele>
        <time>2021-03-06T10:56:40.000Z</time>
      </trkpt>
      <trkpt lat="43.71517" lon="4.99353">
        <ele>208</ele>
        <time>2021-03-06T10:56:43.000Z</time>
      </trkpt>
      <trkpt lat="43.71521" lon="4.9936">
        <ele>206</ele>
        <time>2021-03-06T10:56:46.000Z</time>
      </trkpt>
      <trkpt lat="43.71524" lon="4.99367">
        <ele>204.39999389648</ele>
        <time>2021-03-06T10:56:49.000Z</time>
      </trkpt>
      <trkpt lat="43.71527" lon="4.99375">
        <ele>202.60000610352</ele>
        <time>2021-03-06T10:56:52.000Z</time>
      </trkpt>
      <trkpt lat="43.71528" lon="4.99387">
        <ele>202</ele>
        <time>2021-03-06T10:56:56.000Z</time>
      </trkpt>
      <trkpt lat="43.7153" lon="4.99396">
        <ele>201.39999389648</ele>
        <time>2021-03-06T10:56:59.000Z</time>
      </trkpt>
      <trkpt lat="43.71532" lon="4.99403">
        <ele>200.80000305176</ele>
        <time>2021-03-06T10:57:01.000Z</time>
      </trkpt>
      <trkpt lat="43.71535" lon="4.99409">
        <ele>200.39999389648</ele>
        <time>2021-03-06T10:57:03.000Z</time>
      </trkpt>
      <trkpt lat="43.71538" lon="4.99415">
        <ele>199.80000305176</ele>
        <time>2021-03-06T10:57:05.000Z</time>
      </trkpt>
      <trkpt lat="43.71542" lon="4.99423">
        <ele>199.19999694824</ele>
        <time>2021-03-06T10:57:08.000Z</time>
      </trkpt>
      <trkpt lat="43.71547" lon="4.99432">
        <ele>198.60000610352</ele>
        <time>2021-03-06T10:57:11.000Z</time>
      </trkpt>
      <trkpt lat="43.7155" lon="4.99438">
        <ele>198.19999694824</ele>
        <time>2021-03-06T10:57:13.000Z</time>
      </trkpt>
      <trkpt lat="43.71552" lon="4.99446">
        <ele>197.39999389648</ele>
        <time>2021-03-06T10:57:16.000Z</time>
      </trkpt>
      <trkpt lat="43.71553" lon="4.99453">
        <ele>197</ele>
        <time>2021-03-06T10:57:20.000Z</time>
      </trkpt>
      <trkpt lat="43.71552" lon="4.99459">
        <ele>196.60000610352</ele>
        <time>2021-03-06T10:57:29.000Z</time>
      </trkpt>
      <trkpt lat="43.71552" lon="4.99464">
        <ele>196.60000610352</ele>
        <time>2021-03-06T11:00:16.000Z</time>
      </trkpt>
      <trkpt lat="43.71551" lon="4.99474">
        <ele>196.39999389648</ele>
        <time>2021-03-06T11:00:20.000Z</time>
      </trkpt>
      <trkpt lat="43.71549" lon="4.99482">
        <ele>196.39999389648</ele>
        <time>2021-03-06T11:00:23.000Z</time>
      </trkpt>
      <trkpt lat="43.71547" lon="4.99489">
        <ele>196</ele>
        <time>2021-03-06T11:00:27.000Z</time>
      </trkpt>
      <trkpt lat="43.71544" lon="4.99494">
        <ele>195</ele>
        <time>2021-03-06T11:00:31.000Z</time>
      </trkpt>
      <trkpt lat="43.71541" lon="4.995">
        <ele>194.19999694824</ele>
        <time>2021-03-06T11:00:35.000Z</time>
      </trkpt>
      <trkpt lat="43.71535" lon="4.99507">
        <ele>193</ele>
        <time>2021-03-06T11:00:40.000Z</time>
      </trkpt>
      <trkpt lat="43.71529" lon="4.99512">
        <ele>192</ele>
        <time>2021-03-06T11:00:43.000Z</time>
      </trkpt>
      <trkpt lat="43.71523" lon="4.99518">
        <ele>190.80000305176</ele>
        <time>2021-03-06T11:00:46.000Z</time>
      </trkpt>
      <trkpt lat="43.71518" lon="4.99523">
        <ele>190.60000610352</ele>
        <time>2021-03-06T11:00:49.000Z</time>
      </trkpt>
      <trkpt lat="43.71512" lon="4.99529">
        <ele>191.39999389648</ele>
        <time>2021-03-06T11:00:52.000Z</time>
      </trkpt>
      <trkpt lat="43.71508" lon="4.99533">
        <ele>191.60000610352</ele>
        <time>2021-03-06T11:00:55.000Z</time>
      </trkpt>
      <trkpt lat="43.71503" lon="4.99538">
        <ele>191.60000610352</ele>
        <time>2021-03-06T11:00:58.000Z</time>
      </trkpt>
      <trkpt lat="43.71499" lon="4.99543">
        <ele>191.60000610352</ele>
        <time>2021-03-06T11:01:01.000Z</time>
      </trkpt>
      <trkpt lat="43.71493" lon="4.99549">
        <ele>192.39999389648</ele>
        <time>2021-03-06T11:01:05.000Z</time>
      </trkpt>
      <trkpt lat="43.71488" lon="4.99554">
        <ele>193.19999694824</ele>
        <time>2021-03-06T11:01:08.000Z</time>
      </trkpt>
      <trkpt lat="43.71483" lon="4.9956">
        <ele>193.80000305176</ele>
        <time>2021-03-06T11:01:11.000Z</time>
      </trkpt>
      <trkpt lat="43.71479" lon="4.99565">
        <ele>194.39999389648</ele>
        <time>2021-03-06T11:01:14.000Z</time>
      </trkpt>
      <trkpt lat="43.71476" lon="4.9957">
        <ele>194.80000305176</ele>
        <time>2021-03-06T11:01:17.000Z</time>
      </trkpt>
      <trkpt lat="43.71473" lon="4.99578">
        <ele>195</ele>
        <time>2021-03-06T11:01:20.000Z</time>
      </trkpt>
      <trkpt lat="43.7147" lon="4.99587">
        <ele>194.19999694824</ele>
        <time>2021-03-06T11:01:23.000Z</time>
      </trkpt>
      <trkpt lat="43.71468" lon="4.99596">
        <ele>193.19999694824</ele>
        <time>2021-03-06T11:01:26.000Z</time>
      </trkpt>
      <trkpt lat="43.71466" lon="4.99603">
        <ele>192.60000610352</ele>
        <time>2021-03-06T11:01:28.000Z</time>
      </trkpt>
      <trkpt lat="43.71464" lon="4.99613">
        <ele>191.60000610352</ele>
        <time>2021-03-06T11:01:31.000Z</time>
      </trkpt>
      <trkpt lat="43.71461" lon="4.99619">
        <ele>191</ele>
        <time>2021-03-06T11:01:33.000Z</time>
      </trkpt>
      <trkpt lat="43.71458" lon="4.99629">
        <ele>190.39999389648</ele>
        <time>2021-03-06T11:01:36.000Z</time>
      </trkpt>
      <trkpt lat="43.71458" lon="4.99636">
        <ele>190</ele>
        <time>2021-03-06T11:01:38.000Z</time>
      </trkpt>
      <trkpt lat="43.71458" lon="4.99645">
        <ele>189.80000305176</ele>
        <time>2021-03-06T11:01:41.000Z</time>
      </trkpt>
      <trkpt lat="43.71461" lon="4.99655">
        <ele>189.19999694824</ele>
        <time>2021-03-06T11:01:44.000Z</time>
      </trkpt>
      <trkpt lat="43.71464" lon="4.99661">
        <ele>188.80000305176</ele>
        <time>2021-03-06T11:01:46.000Z</time>
      </trkpt>
      <trkpt lat="43.71468" lon="4.99668">
        <ele>188.19999694824</ele>
        <time>2021-03-06T11:01:49.000Z</time>
      </trkpt>
      <trkpt lat="43.71473" lon="4.99675">
        <ele>187.60000610352</ele>
        <time>2021-03-06T11:01:52.000Z</time>
      </trkpt>
      <trkpt lat="43.71477" lon="4.99681">
        <ele>187.19999694824</ele>
        <time>2021-03-06T11:01:54.000Z</time>
      </trkpt>
      <trkpt lat="43.7148" lon="4.99686">
        <ele>186.80000305176</ele>
        <time>2021-03-06T11:01:56.000Z</time>
      </trkpt>
      <trkpt lat="43.71485" lon="4.99693">
        <ele>186</ele>
        <time>2021-03-06T11:01:59.000Z</time>
      </trkpt>
      <trkpt lat="43.7149" lon="4.99701">
        <ele>185.39999389648</ele>
        <time>2021-03-06T11:02:02.000Z</time>
      </trkpt>
      <trkpt lat="43.71493" lon="4.99707">
        <ele>185</ele>
        <time>2021-03-06T11:02:04.000Z</time>
      </trkpt>
      <trkpt lat="43.71497" lon="4.99716">
        <ele>184.39999389648</ele>
        <time>2021-03-06T11:02:07.000Z</time>
      </trkpt>
      <trkpt lat="43.71499" lon="4.99722">
        <ele>183.80000305176</ele>
        <time>2021-03-06T11:02:09.000Z</time>
      </trkpt>
      <trkpt lat="43.71501" lon="4.99732">
        <ele>183.19999694824</ele>
        <time>2021-03-06T11:02:12.000Z</time>
      </trkpt>
      <trkpt lat="43.71503" lon="4.99738">
        <ele>182.80000305176</ele>
        <time>2021-03-06T11:02:14.000Z</time>
      </trkpt>
      <trkpt lat="43.71505" lon="4.99747">
        <ele>182.19999694824</ele>
        <time>2021-03-06T11:02:17.000Z</time>
      </trkpt>
      <trkpt lat="43.71505" lon="4.99757">
        <ele>181.80000305176</ele>
        <time>2021-03-06T11:02:20.000Z</time>
      </trkpt>
      <trkpt lat="43.71503" lon="4.99766">
        <ele>181.39999389648</ele>
        <time>2021-03-06T11:02:23.000Z</time>
      </trkpt>
      <trkpt lat="43.71503" lon="4.99776">
        <ele>181</ele>
        <time>2021-03-06T11:02:26.000Z</time>
      </trkpt>
      <trkpt lat="43.71501" lon="4.99783">
        <ele>180.80000305176</ele>
        <time>2021-03-06T11:02:28.000Z</time>
      </trkpt>
      <trkpt lat="43.715" lon="4.99791">
        <ele>180.39999389648</ele>
        <time>2021-03-06T11:02:30.000Z</time>
      </trkpt>
      <trkpt lat="43.71499" lon="4.99798">
        <ele>180.39999389648</ele>
        <time>2021-03-06T11:02:32.000Z</time>
      </trkpt>
      <trkpt lat="43.71497" lon="4.99804">
        <ele>180.60000610352</ele>
        <time>2021-03-06T11:02:34.000Z</time>
      </trkpt>
      <trkpt lat="43.71493" lon="4.99818">
        <ele>180.60000610352</ele>
        <time>2021-03-06T11:02:38.000Z</time>
      </trkpt>
      <trkpt lat="43.71491" lon="4.99825">
        <ele>180.80000305176</ele>
        <time>2021-03-06T11:02:40.000Z</time>
      </trkpt>
      <trkpt lat="43.71488" lon="4.99831">
        <ele>180.80000305176</ele>
        <time>2021-03-06T11:02:42.000Z</time>
      </trkpt>
      <trkpt lat="43.71485" lon="4.99838">
        <ele>181</ele>
        <time>2021-03-06T11:02:44.000Z</time>
      </trkpt>
      <trkpt lat="43.71482" lon="4.99843">
        <ele>180.60000610352</ele>
        <time>2021-03-06T11:02:46.000Z</time>
      </trkpt>
      <trkpt lat="43.71477" lon="4.99852">
        <ele>179.80000305176</ele>
        <time>2021-03-06T11:02:49.000Z</time>
      </trkpt>
      <trkpt lat="43.71475" lon="4.99857">
        <ele>179.19999694824</ele>
        <time>2021-03-06T11:02:51.000Z</time>
      </trkpt>
      <trkpt lat="43.71471" lon="4.99863">
        <ele>178.60000610352</ele>
        <time>2021-03-06T11:02:53.000Z</time>
      </trkpt>
      <trkpt lat="43.71468" lon="4.99868">
        <ele>178</ele>
        <time>2021-03-06T11:02:55.000Z</time>
      </trkpt>
      <trkpt lat="43.71462" lon="4.99876">
        <ele>177.39999389648</ele>
        <time>2021-03-06T11:02:58.000Z</time>
      </trkpt>
      <trkpt lat="43.71458" lon="4.99882">
        <ele>177.39999389648</ele>
        <time>2021-03-06T11:03:00.000Z</time>
      </trkpt>
      <trkpt lat="43.71455" lon="4.99887">
        <ele>177.60000610352</ele>
        <time>2021-03-06T11:03:02.000Z</time>
      </trkpt>
      <trkpt lat="43.71451" lon="4.99891">
        <ele>177.60000610352</ele>
        <time>2021-03-06T11:03:04.000Z</time>
      </trkpt>
      <trkpt lat="43.71446" lon="4.99899">
        <ele>176.39999389648</ele>
        <time>2021-03-06T11:03:07.000Z</time>
      </trkpt>
      <trkpt lat="43.71443" lon="4.99905">
        <ele>175.60000610352</ele>
        <time>2021-03-06T11:03:09.000Z</time>
      </trkpt>
      <trkpt lat="43.7144" lon="4.99912">
        <ele>174.80000305176</ele>
        <time>2021-03-06T11:03:11.000Z</time>
      </trkpt>
      <trkpt lat="43.71437" lon="4.99919">
        <ele>173.80000305176</ele>
        <time>2021-03-06T11:03:13.000Z</time>
      </trkpt>
      <trkpt lat="43.71435" lon="4.99926">
        <ele>173.80000305176</ele>
        <time>2021-03-06T11:03:15.000Z</time>
      </trkpt>
      <trkpt lat="43.71433" lon="4.99932">
        <ele>173.80000305176</ele>
        <time>2021-03-06T11:03:17.000Z</time>
      </trkpt>
      <trkpt lat="43.71428" lon="4.99942">
        <ele>174.19999694824</ele>
        <time>2021-03-06T11:03:20.000Z</time>
      </trkpt>
      <trkpt lat="43.71425" lon="4.99949">
        <ele>174.39999389648</ele>
        <time>2021-03-06T11:03:22.000Z</time>
      </trkpt>
      <trkpt lat="43.71423" lon="4.99956">
        <ele>174.60000610352</ele>
        <time>2021-03-06T11:03:24.000Z</time>
      </trkpt>
      <trkpt lat="43.71421" lon="4.99962">
        <ele>172.80000305176</ele>
        <time>2021-03-06T11:03:26.000Z</time>
      </trkpt>
      <trkpt lat="43.71419" lon="4.99969">
        <ele>172.80000305176</ele>
        <time>2021-03-06T11:03:28.000Z</time>
      </trkpt>
      <trkpt lat="43.71417" lon="4.99979">
        <ele>173.19999694824</ele>
        <time>2021-03-06T11:03:31.000Z</time>
      </trkpt>
      <trkpt lat="43.71415" lon="4.99987">
        <ele>173.39999389648</ele>
        <time>2021-03-06T11:03:33.000Z</time>
      </trkpt>
      <trkpt lat="43.71413" lon="4.99994">
        <ele>173.60000610352</ele>
        <time>2021-03-06T11:03:35.000Z</time>
      </trkpt>
      <trkpt lat="43.7141" lon="5.00001">
        <ele>174</ele>
        <time>2021-03-06T11:03:37.000Z</time>
      </trkpt>
      <trkpt lat="43.71408" lon="5.00008">
        <ele>174</ele>
        <time>2021-03-06T11:03:39.000Z</time>
      </trkpt>
      <trkpt lat="43.71406" lon="5.00015">
        <ele>173.80000305176</ele>
        <time>2021-03-06T11:03:41.000Z</time>
      </trkpt>
      <trkpt lat="43.71405" lon="5.00023">
        <ele>172.80000305176</ele>
        <time>2021-03-06T11:03:43.000Z</time>
      </trkpt>
      <trkpt lat="43.71404" lon="5.0003">
        <ele>172</ele>
        <time>2021-03-06T11:03:45.000Z</time>
      </trkpt>
      <trkpt lat="43.71403" lon="5.00037">
        <ele>171.19999694824</ele>
        <time>2021-03-06T11:03:47.000Z</time>
      </trkpt>
      <trkpt lat="43.714" lon="5.00047">
        <ele>170.39999389648</ele>
        <time>2021-03-06T11:03:50.000Z</time>
      </trkpt>
      <trkpt lat="43.71398" lon="5.00054">
        <ele>170</ele>
        <time>2021-03-06T11:03:52.000Z</time>
      </trkpt>
      <trkpt lat="43.71396" lon="5.00061">
        <ele>169.80000305176</ele>
        <time>2021-03-06T11:03:54.000Z</time>
      </trkpt>
      <trkpt lat="43.71394" lon="5.00069">
        <ele>169.60000610352</ele>
        <time>2021-03-06T11:03:56.000Z</time>
      </trkpt>
      <trkpt lat="43.71392" lon="5.00077">
        <ele>169.19999694824</ele>
        <time>2021-03-06T11:03:58.000Z</time>
      </trkpt>
      <trkpt lat="43.71388" lon="5.00084">
        <ele>168.39999389648</ele>
        <time>2021-03-06T11:04:00.000Z</time>
      </trkpt>
      <trkpt lat="43.71384" lon="5.00091">
        <ele>167.60000610352</ele>
        <time>2021-03-06T11:04:02.000Z</time>
      </trkpt>
      <trkpt lat="43.71381" lon="5.00098">
        <ele>167</ele>
        <time>2021-03-06T11:04:04.000Z</time>
      </trkpt>
      <trkpt lat="43.71378" lon="5.00106">
        <ele>166</ele>
        <time>2021-03-06T11:04:06.000Z</time>
      </trkpt>
      <trkpt lat="43.71374" lon="5.00113">
        <ele>165.19999694824</ele>
        <time>2021-03-06T11:04:08.000Z</time>
      </trkpt>
      <trkpt lat="43.71371" lon="5.00119">
        <ele>164.60000610352</ele>
        <time>2021-03-06T11:04:10.000Z</time>
      </trkpt>
      <trkpt lat="43.71369" lon="5.00126">
        <ele>163.80000305176</ele>
        <time>2021-03-06T11:04:12.000Z</time>
      </trkpt>
      <trkpt lat="43.71366" lon="5.00132">
        <ele>163.19999694824</ele>
        <time>2021-03-06T11:04:14.000Z</time>
      </trkpt>
      <trkpt lat="43.71363" lon="5.00138">
        <ele>162.60000610352</ele>
        <time>2021-03-06T11:04:16.000Z</time>
      </trkpt>
      <trkpt lat="43.71359" lon="5.00144">
        <ele>162</ele>
        <time>2021-03-06T11:04:18.000Z</time>
      </trkpt>
      <trkpt lat="43.71356" lon="5.00151">
        <ele>161.19999694824</ele>
        <time>2021-03-06T11:04:20.000Z</time>
      </trkpt>
      <trkpt lat="43.71353" lon="5.00158">
        <ele>160.60000610352</ele>
        <time>2021-03-06T11:04:22.000Z</time>
      </trkpt>
      <trkpt lat="43.71352" lon="5.00165">
        <ele>160.19999694824</ele>
        <time>2021-03-06T11:04:24.000Z</time>
      </trkpt>
      <trkpt lat="43.7135" lon="5.00172">
        <ele>160</ele>
        <time>2021-03-06T11:04:26.000Z</time>
      </trkpt>
      <trkpt lat="43.71347" lon="5.00178">
        <ele>159.80000305176</ele>
        <time>2021-03-06T11:04:28.000Z</time>
      </trkpt>
      <trkpt lat="43.71344" lon="5.00185">
        <ele>159.60000610352</ele>
        <time>2021-03-06T11:04:30.000Z</time>
      </trkpt>
      <trkpt lat="43.71341" lon="5.00192">
        <ele>159.19999694824</ele>
        <time>2021-03-06T11:04:32.000Z</time>
      </trkpt>
      <trkpt lat="43.7134" lon="5.00199">
        <ele>158.19999694824</ele>
        <time>2021-03-06T11:04:34.000Z</time>
      </trkpt>
      <trkpt lat="43.71339" lon="5.00207">
        <ele>156.60000610352</ele>
        <time>2021-03-06T11:04:36.000Z</time>
      </trkpt>
      <trkpt lat="43.7134" lon="5.00214">
        <ele>155.80000305176</ele>
        <time>2021-03-06T11:04:38.000Z</time>
      </trkpt>
      <trkpt lat="43.71342" lon="5.00224">
        <ele>155.19999694824</ele>
        <time>2021-03-06T11:04:41.000Z</time>
      </trkpt>
      <trkpt lat="43.71344" lon="5.00231">
        <ele>154.80000305176</ele>
        <time>2021-03-06T11:04:43.000Z</time>
      </trkpt>
      <trkpt lat="43.71346" lon="5.00238">
        <ele>154.39999389648</ele>
        <time>2021-03-06T11:04:45.000Z</time>
      </trkpt>
      <trkpt lat="43.7135" lon="5.00244">
        <ele>154.19999694824</ele>
        <time>2021-03-06T11:04:47.000Z</time>
      </trkpt>
      <trkpt lat="43.71353" lon="5.0025">
        <ele>154</ele>
        <time>2021-03-06T11:04:49.000Z</time>
      </trkpt>
      <trkpt lat="43.71357" lon="5.00256">
        <ele>153.60000610352</ele>
        <time>2021-03-06T11:04:51.000Z</time>
      </trkpt>
      <trkpt lat="43.7136" lon="5.00261">
        <ele>153.39999389648</ele>
        <time>2021-03-06T11:04:53.000Z</time>
      </trkpt>
      <trkpt lat="43.71363" lon="5.00268">
        <ele>153</ele>
        <time>2021-03-06T11:04:56.000Z</time>
      </trkpt>
      <trkpt lat="43.71366" lon="5.00275">
        <ele>152.60000610352</ele>
        <time>2021-03-06T11:05:00.000Z</time>
      </trkpt>
      <trkpt lat="43.71368" lon="5.00282">
        <ele>152</ele>
        <time>2021-03-06T11:05:04.000Z</time>
      </trkpt>
      <trkpt lat="43.7137" lon="5.00289">
        <ele>151.60000610352</ele>
        <time>2021-03-06T11:05:08.000Z</time>
      </trkpt>
      <trkpt lat="43.71371" lon="5.00296">
        <ele>151.39999389648</ele>
        <time>2021-03-06T11:05:11.000Z</time>
      </trkpt>
      <trkpt lat="43.71374" lon="5.00303">
        <ele>151.19999694824</ele>
        <time>2021-03-06T11:05:15.000Z</time>
      </trkpt>
      <trkpt lat="43.71376" lon="5.0031">
        <ele>151.19999694824</ele>
        <time>2021-03-06T11:05:19.000Z</time>
      </trkpt>
      <trkpt lat="43.71378" lon="5.00319">
        <ele>151</ele>
        <time>2021-03-06T11:05:24.000Z</time>
      </trkpt>
      <trkpt lat="43.71378" lon="5.00327">
        <ele>151.19999694824</ele>
        <time>2021-03-06T11:05:27.000Z</time>
      </trkpt>
      <trkpt lat="43.71378" lon="5.00334">
        <ele>151.19999694824</ele>
        <time>2021-03-06T11:05:30.000Z</time>
      </trkpt>
      <trkpt lat="43.71378" lon="5.00341">
        <ele>151.19999694824</ele>
        <time>2021-03-06T11:05:34.000Z</time>
      </trkpt>
      <trkpt lat="43.71378" lon="5.00349">
        <ele>151.39999389648</ele>
        <time>2021-03-06T11:05:39.000Z</time>
      </trkpt>
      <trkpt lat="43.71379" lon="5.00358">
        <ele>151.39999389648</ele>
        <time>2021-03-06T11:05:43.000Z</time>
      </trkpt>
      <trkpt lat="43.7138" lon="5.00366">
        <ele>151.60000610352</ele>
        <time>2021-03-06T11:05:47.000Z</time>
      </trkpt>
      <trkpt lat="43.71383" lon="5.00374">
        <ele>151.60000610352</ele>
        <time>2021-03-06T11:05:51.000Z</time>
      </trkpt>
      <trkpt lat="43.71385" lon="5.00382">
        <ele>151.39999389648</ele>
        <time>2021-03-06T11:05:55.000Z</time>
      </trkpt>
      <trkpt lat="43.71386" lon="5.00389">
        <ele>151.19999694824</ele>
        <time>2021-03-06T11:05:59.000Z</time>
      </trkpt>
      <trkpt lat="43.71385" lon="5.00396">
        <ele>151.19999694824</ele>
        <time>2021-03-06T11:06:04.000Z</time>
      </trkpt>
      <trkpt lat="43.71381" lon="5.00403">
        <ele>151</ele>
        <time>2021-03-06T11:06:08.000Z</time>
      </trkpt>
      <trkpt lat="43.71377" lon="5.00411">
        <ele>150.80000305176</ele>
        <time>2021-03-06T11:06:11.000Z</time>
      </trkpt>
      <trkpt lat="43.71374" lon="5.00417">
        <ele>150.80000305176</ele>
        <time>2021-03-06T11:06:13.000Z</time>
      </trkpt>
      <trkpt lat="43.71368" lon="5.00427">
        <ele>150.60000610352</ele>
        <time>2021-03-06T11:06:17.000Z</time>
      </trkpt>
      <trkpt lat="43.71363" lon="5.00435">
        <ele>150.39999389648</ele>
        <time>2021-03-06T11:06:20.000Z</time>
      </trkpt>
      <trkpt lat="43.7136" lon="5.0044">
        <ele>150.39999389648</ele>
        <time>2021-03-06T11:06:22.000Z</time>
      </trkpt>
      <trkpt lat="43.71355" lon="5.00445">
        <ele>150.19999694824</ele>
        <time>2021-03-06T11:06:25.000Z</time>
      </trkpt>
      <trkpt lat="43.7135" lon="5.00449">
        <ele>150.19999694824</ele>
        <time>2021-03-06T11:06:27.000Z</time>
      </trkpt>
      <trkpt lat="43.71344" lon="5.00453">
        <ele>150.19999694824</ele>
        <time>2021-03-06T11:06:30.000Z</time>
      </trkpt>
      <trkpt lat="43.71337" lon="5.00455">
        <ele>150.39999389648</ele>
        <time>2021-03-06T11:06:33.000Z</time>
      </trkpt>
      <trkpt lat="43.71333" lon="5.00455">
        <ele>150.60000610352</ele>
        <time>2021-03-06T11:06:36.000Z</time>
      </trkpt>
      <trkpt lat="43.71326" lon="5.00456">
        <ele>150.60000610352</ele>
        <time>2021-03-06T11:06:39.000Z</time>
      </trkpt>
      <trkpt lat="43.71319" lon="5.00457">
        <ele>150.80000305176</ele>
        <time>2021-03-06T11:06:42.000Z</time>
      </trkpt>
      <trkpt lat="43.71313" lon="5.00458">
        <ele>151</ele>
        <time>2021-03-06T11:06:44.000Z</time>
      </trkpt>
      <trkpt lat="43.71309" lon="5.00459">
        <ele>151</ele>
        <time>2021-03-06T11:06:46.000Z</time>
      </trkpt>
      <trkpt lat="43.71302" lon="5.0046">
        <ele>151.19999694824</ele>
        <time>2021-03-06T11:06:49.000Z</time>
      </trkpt>
      <trkpt lat="43.71295" lon="5.00462">
        <ele>151.39999389648</ele>
        <time>2021-03-06T11:06:52.000Z</time>
      </trkpt>
      <trkpt lat="43.71289" lon="5.00467">
        <ele>151.39999389648</ele>
        <time>2021-03-06T11:06:55.000Z</time>
      </trkpt>
      <trkpt lat="43.71284" lon="5.00474">
        <ele>151.39999389648</ele>
        <time>2021-03-06T11:06:58.000Z</time>
      </trkpt>
      <trkpt lat="43.71283" lon="5.00484">
        <ele>151.39999389648</ele>
        <time>2021-03-06T11:07:01.000Z</time>
      </trkpt>
      <trkpt lat="43.71285" lon="5.00494">
        <ele>151.19999694824</ele>
        <time>2021-03-06T11:07:04.000Z</time>
      </trkpt>
      <trkpt lat="43.71286" lon="5.00501">
        <ele>151</ele>
        <time>2021-03-06T11:07:06.000Z</time>
      </trkpt>
      <trkpt lat="43.71286" lon="5.00509">
        <ele>151</ele>
        <time>2021-03-06T11:07:08.000Z</time>
      </trkpt>
      <trkpt lat="43.71285" lon="5.00517">
        <ele>151</ele>
        <time>2021-03-06T11:07:10.000Z</time>
      </trkpt>
      <trkpt lat="43.71283" lon="5.00524">
        <ele>151</ele>
        <time>2021-03-06T11:07:12.000Z</time>
      </trkpt>
      <trkpt lat="43.71281" lon="5.00531">
        <ele>150.80000305176</ele>
        <time>2021-03-06T11:07:14.000Z</time>
      </trkpt>
      <trkpt lat="43.71281" lon="5.00538">
        <ele>150.80000305176</ele>
        <time>2021-03-06T11:07:16.000Z</time>
      </trkpt>
      <trkpt lat="43.7128" lon="5.00547">
        <ele>150.80000305176</ele>
        <time>2021-03-06T11:07:19.000Z</time>
      </trkpt>
      <trkpt lat="43.71279" lon="5.00557">
        <ele>151</ele>
        <time>2021-03-06T11:07:22.000Z</time>
      </trkpt>
      <trkpt lat="43.71277" lon="5.00564">
        <ele>151</ele>
        <time>2021-03-06T11:07:24.000Z</time>
      </trkpt>
      <trkpt lat="43.71273" lon="5.00571">
        <ele>151.19999694824</ele>
        <time>2021-03-06T11:07:27.000Z</time>
      </trkpt>
      <trkpt lat="43.71267" lon="5.00576">
        <ele>151.39999389648</ele>
        <time>2021-03-06T11:07:30.000Z</time>
      </trkpt>
      <trkpt lat="43.71263" lon="5.00582">
        <ele>151.39999389648</ele>
        <time>2021-03-06T11:07:33.000Z</time>
      </trkpt>
      <trkpt lat="43.71262" lon="5.0059">
        <ele>151.39999389648</ele>
        <time>2021-03-06T11:07:36.000Z</time>
      </trkpt>
      <trkpt lat="43.7126" lon="5.00598">
        <ele>151.39999389648</ele>
        <time>2021-03-06T11:07:40.000Z</time>
      </trkpt>
      <trkpt lat="43.71257" lon="5.00603">
        <ele>151.39999389648</ele>
        <time>2021-03-06T11:07:45.000Z</time>
      </trkpt>
      <trkpt lat="43.71253" lon="5.00612">
        <ele>151.39999389648</ele>
        <time>2021-03-06T11:07:50.000Z</time>
      </trkpt>
      <trkpt lat="43.71251" lon="5.00618">
        <ele>151.39999389648</ele>
        <time>2021-03-06T11:07:53.000Z</time>
      </trkpt>
      <trkpt lat="43.71248" lon="5.00626">
        <ele>151.60000610352</ele>
        <time>2021-03-06T11:07:57.000Z</time>
      </trkpt>
      <trkpt lat="43.71248" lon="5.00634">
        <ele>152</ele>
        <time>2021-03-06T11:08:02.000Z</time>
      </trkpt>
      <trkpt lat="43.71247" lon="5.00642">
        <ele>152.39999389648</ele>
        <time>2021-03-06T11:08:06.000Z</time>
      </trkpt>
      <trkpt lat="43.71244" lon="5.00649">
        <ele>152.80000305176</ele>
        <time>2021-03-06T11:08:10.000Z</time>
      </trkpt>
      <trkpt lat="43.71241" lon="5.00656">
        <ele>153.19999694824</ele>
        <time>2021-03-06T11:08:15.000Z</time>
      </trkpt>
      <trkpt lat="43.71238" lon="5.00665">
        <ele>153.60000610352</ele>
        <time>2021-03-06T11:08:19.000Z</time>
      </trkpt>
      <trkpt lat="43.71238" lon="5.00671">
        <ele>154</ele>
        <time>2021-03-06T11:08:22.000Z</time>
      </trkpt>
      <trkpt lat="43.71236" lon="5.00679">
        <ele>154.60000610352</ele>
        <time>2021-03-06T11:08:26.000Z</time>
      </trkpt>
      <trkpt lat="43.71235" lon="5.00686">
        <ele>155.19999694824</ele>
        <time>2021-03-06T11:08:30.000Z</time>
      </trkpt>
      <trkpt lat="43.71235" lon="5.00693">
        <ele>155.80000305176</ele>
        <time>2021-03-06T11:08:34.000Z</time>
      </trkpt>
      <trkpt lat="43.71236" lon="5.00701">
        <ele>156.39999389648</ele>
        <time>2021-03-06T11:08:38.000Z</time>
      </trkpt>
      <trkpt lat="43.71236" lon="5.00708">
        <ele>157</ele>
        <time>2021-03-06T11:08:43.000Z</time>
      </trkpt>
      <trkpt lat="43.71234" lon="5.00717">
        <ele>157.60000610352</ele>
        <time>2021-03-06T11:08:48.000Z</time>
      </trkpt>
      <trkpt lat="43.71234" lon="5.00724">
        <ele>158.19999694824</ele>
        <time>2021-03-06T11:08:52.000Z</time>
      </trkpt>
      <trkpt lat="43.71233" lon="5.00731">
        <ele>158.80000305176</ele>
        <time>2021-03-06T11:08:56.000Z</time>
      </trkpt>
      <trkpt lat="43.71232" lon="5.0074">
        <ele>159.60000610352</ele>
        <time>2021-03-06T11:09:01.000Z</time>
      </trkpt>
      <trkpt lat="43.7123" lon="5.00747">
        <ele>160.19999694824</ele>
        <time>2021-03-06T11:09:05.000Z</time>
      </trkpt>
      <trkpt lat="43.71229" lon="5.00755">
        <ele>161.39999389648</ele>
        <time>2021-03-06T11:09:10.000Z</time>
      </trkpt>
      <trkpt lat="43.71228" lon="5.00763">
        <ele>163</ele>
        <time>2021-03-06T11:09:15.000Z</time>
      </trkpt>
      <trkpt lat="43.71226" lon="5.00769">
        <ele>164.19999694824</ele>
        <time>2021-03-06T11:09:19.000Z</time>
      </trkpt>
      <trkpt lat="43.71226" lon="5.00777">
        <ele>165.60000610352</ele>
        <time>2021-03-06T11:09:24.000Z</time>
      </trkpt>
      <trkpt lat="43.71229" lon="5.00785">
        <ele>166.80000305176</ele>
        <time>2021-03-06T11:09:29.000Z</time>
      </trkpt>
      <trkpt lat="43.71233" lon="5.00791">
        <ele>167.60000610352</ele>
        <time>2021-03-06T11:09:32.000Z</time>
      </trkpt>
      <trkpt lat="43.71236" lon="5.00797">
        <ele>167.80000305176</ele>
        <time>2021-03-06T11:09:35.000Z</time>
      </trkpt>
      <trkpt lat="43.71241" lon="5.00804">
        <ele>168</ele>
        <time>2021-03-06T11:09:38.000Z</time>
      </trkpt>
      <trkpt lat="43.71244" lon="5.00814">
        <ele>168.60000610352</ele>
        <time>2021-03-06T11:09:41.000Z</time>
      </trkpt>
      <trkpt lat="43.71247" lon="5.00822">
        <ele>169.19999694824</ele>
        <time>2021-03-06T11:09:44.000Z</time>
      </trkpt>
      <trkpt lat="43.71251" lon="5.00829">
        <ele>169.39999389648</ele>
        <time>2021-03-06T11:09:47.000Z</time>
      </trkpt>
      <trkpt lat="43.71257" lon="5.00833">
        <ele>169.19999694824</ele>
        <time>2021-03-06T11:09:50.000Z</time>
      </trkpt>
      <trkpt lat="43.71263" lon="5.00836">
        <ele>169</ele>
        <time>2021-03-06T11:09:53.000Z</time>
      </trkpt>
      <trkpt lat="43.71268" lon="5.00842">
        <ele>169</ele>
        <time>2021-03-06T11:09:56.000Z</time>
      </trkpt>
      <trkpt lat="43.71271" lon="5.00848">
        <ele>169.19999694824</ele>
        <time>2021-03-06T11:09:58.000Z</time>
      </trkpt>
      <trkpt lat="43.71275" lon="5.00856">
        <ele>169.60000610352</ele>
        <time>2021-03-06T11:10:01.000Z</time>
      </trkpt>
      <trkpt lat="43.71277" lon="5.00862">
        <ele>169.80000305176</ele>
        <time>2021-03-06T11:10:04.000Z</time>
      </trkpt>
      <trkpt lat="43.71281" lon="5.00869">
        <ele>170</ele>
        <time>2021-03-06T11:10:08.000Z</time>
      </trkpt>
      <trkpt lat="43.71285" lon="5.00875">
        <ele>170.19999694824</ele>
        <time>2021-03-06T11:10:12.000Z</time>
      </trkpt>
      <trkpt lat="43.71288" lon="5.00882">
        <ele>170.39999389648</ele>
        <time>2021-03-06T11:10:16.000Z</time>
      </trkpt>
      <trkpt lat="43.7129" lon="5.00889">
        <ele>170.80000305176</ele>
        <time>2021-03-06T11:10:20.000Z</time>
      </trkpt>
      <trkpt lat="43.71292" lon="5.00896">
        <ele>171.19999694824</ele>
        <time>2021-03-06T11:10:24.000Z</time>
      </trkpt>
      <trkpt lat="43.71297" lon="5.00901">
        <ele>171</ele>
        <time>2021-03-06T11:10:28.000Z</time>
      </trkpt>
      <trkpt lat="43.713" lon="5.0091">
        <ele>171.80000305176</ele>
        <time>2021-03-06T11:10:32.000Z</time>
      </trkpt>
      <trkpt lat="43.71302" lon="5.00918">
        <ele>172.60000610352</ele>
        <time>2021-03-06T11:10:35.000Z</time>
      </trkpt>
      <trkpt lat="43.71304" lon="5.00927">
        <ele>173.60000610352</ele>
        <time>2021-03-06T11:10:38.000Z</time>
      </trkpt>
      <trkpt lat="43.71307" lon="5.00935">
        <ele>174.19999694824</ele>
        <time>2021-03-06T11:10:41.000Z</time>
      </trkpt>
      <trkpt lat="43.7131" lon="5.00944">
        <ele>174.80000305176</ele>
        <time>2021-03-06T11:10:44.000Z</time>
      </trkpt>
      <trkpt lat="43.71312" lon="5.0095">
        <ele>175.39999389648</ele>
        <time>2021-03-06T11:10:46.000Z</time>
      </trkpt>
      <trkpt lat="43.71315" lon="5.0096">
        <ele>176.19999694824</ele>
        <time>2021-03-06T11:10:49.000Z</time>
      </trkpt>
      <trkpt lat="43.71318" lon="5.00966">
        <ele>176.19999694824</ele>
        <time>2021-03-06T11:10:51.000Z</time>
      </trkpt>
      <trkpt lat="43.7132" lon="5.00973">
        <ele>176.19999694824</ele>
        <time>2021-03-06T11:10:53.000Z</time>
      </trkpt>
      <trkpt lat="43.71321" lon="5.0098">
        <ele>176.60000610352</ele>
        <time>2021-03-06T11:10:55.000Z</time>
      </trkpt>
      <trkpt lat="43.71322" lon="5.00987">
        <ele>177</ele>
        <time>2021-03-06T11:10:57.000Z</time>
      </trkpt>
      <trkpt lat="43.71323" lon="5.00994">
        <ele>177.39999389648</ele>
        <time>2021-03-06T11:10:59.000Z</time>
      </trkpt>
      <trkpt lat="43.71325" lon="5.01001">
        <ele>177.80000305176</ele>
        <time>2021-03-06T11:11:01.000Z</time>
      </trkpt>
      <trkpt lat="43.71328" lon="5.01009">
        <ele>178</ele>
        <time>2021-03-06T11:11:04.000Z</time>
      </trkpt>
      <trkpt lat="43.71329" lon="5.01017">
        <ele>178.39999389648</ele>
        <time>2021-03-06T11:11:07.000Z</time>
      </trkpt>
      <trkpt lat="43.71331" lon="5.01024">
        <ele>178.60000610352</ele>
        <time>2021-03-06T11:11:10.000Z</time>
      </trkpt>
      <trkpt lat="43.71335" lon="5.01031">
        <ele>178.80000305176</ele>
        <time>2021-03-06T11:11:13.000Z</time>
      </trkpt>
      <trkpt lat="43.71339" lon="5.01039">
        <ele>179</ele>
        <time>2021-03-06T11:11:16.000Z</time>
      </trkpt>
      <trkpt lat="43.71342" lon="5.01046">
        <ele>178.80000305176</ele>
        <time>2021-03-06T11:11:19.000Z</time>
      </trkpt>
      <trkpt lat="43.71344" lon="5.01052">
        <ele>178.39999389648</ele>
        <time>2021-03-06T11:11:22.000Z</time>
      </trkpt>
      <trkpt lat="43.71345" lon="5.0106">
        <ele>178.60000610352</ele>
        <time>2021-03-06T11:11:26.000Z</time>
      </trkpt>
      <trkpt lat="43.71342" lon="5.01067">
        <ele>179.60000610352</ele>
        <time>2021-03-06T11:11:30.000Z</time>
      </trkpt>
      <trkpt lat="43.71337" lon="5.01072">
        <ele>180.80000305176</ele>
        <time>2021-03-06T11:11:34.000Z</time>
      </trkpt>
      <trkpt lat="43.71332" lon="5.01074">
        <ele>182</ele>
        <time>2021-03-06T11:11:38.000Z</time>
      </trkpt>
      <trkpt lat="43.71328" lon="5.01071">
        <ele>183</ele>
        <time>2021-03-06T11:11:42.000Z</time>
      </trkpt>
      <trkpt lat="43.71324" lon="5.01066">
        <ele>183.60000610352</ele>
        <time>2021-03-06T11:11:46.000Z</time>
      </trkpt>
      <trkpt lat="43.71319" lon="5.01061">
        <ele>184.60000610352</ele>
        <time>2021-03-06T11:11:49.000Z</time>
      </trkpt>
      <trkpt lat="43.71315" lon="5.01057">
        <ele>185.39999389648</ele>
        <time>2021-03-06T11:11:52.000Z</time>
      </trkpt>
      <trkpt lat="43.7131" lon="5.01053">
        <ele>186.19999694824</ele>
        <time>2021-03-06T11:11:55.000Z</time>
      </trkpt>
      <trkpt lat="43.71305" lon="5.01051">
        <ele>187.39999389648</ele>
        <time>2021-03-06T11:11:59.000Z</time>
      </trkpt>
      <trkpt lat="43.713" lon="5.01054">
        <ele>188.80000305176</ele>
        <time>2021-03-06T11:12:03.000Z</time>
      </trkpt>
      <trkpt lat="43.71295" lon="5.01052">
        <ele>189.80000305176</ele>
        <time>2021-03-06T11:12:07.000Z</time>
      </trkpt>
      <trkpt lat="43.71289" lon="5.01051">
        <ele>191.19999694824</ele>
        <time>2021-03-06T11:12:11.000Z</time>
      </trkpt>
      <trkpt lat="43.71283" lon="5.01052">
        <ele>192.39999389648</ele>
        <time>2021-03-06T11:12:15.000Z</time>
      </trkpt>
      <trkpt lat="43.71279" lon="5.01052">
        <ele>193.60000610352</ele>
        <time>2021-03-06T11:12:19.000Z</time>
      </trkpt>
      <trkpt lat="43.71274" lon="5.01055">
        <ele>195.60000610352</ele>
        <time>2021-03-06T11:12:26.000Z</time>
      </trkpt>
      <trkpt lat="43.71268" lon="5.01058">
        <ele>198.19999694824</ele>
        <time>2021-03-06T11:12:30.000Z</time>
      </trkpt>
      <trkpt lat="43.71262" lon="5.0106">
        <ele>201.39999389648</ele>
        <time>2021-03-06T11:12:34.000Z</time>
      </trkpt>
      <trkpt lat="43.71256" lon="5.01061">
        <ele>204.39999389648</ele>
        <time>2021-03-06T11:12:38.000Z</time>
      </trkpt>
      <trkpt lat="43.71252" lon="5.01065">
        <ele>207</ele>
        <time>2021-03-06T11:12:42.000Z</time>
      </trkpt>
      <trkpt lat="43.7125" lon="5.01071">
        <ele>208.60000610352</ele>
        <time>2021-03-06T11:12:46.000Z</time>
      </trkpt>
      <trkpt lat="43.71252" lon="5.01078">
        <ele>209</ele>
        <time>2021-03-06T11:12:52.000Z</time>
      </trkpt>
      <trkpt lat="43.71255" lon="5.01084">
        <ele>208.19999694824</ele>
        <time>2021-03-06T11:12:57.000Z</time>
      </trkpt>
      <trkpt lat="43.71255" lon="5.01091">
        <ele>209.19999694824</ele>
        <time>2021-03-06T11:13:04.000Z</time>
      </trkpt>
      <trkpt lat="43.71252" lon="5.01097">
        <ele>211.39999389648</ele>
        <time>2021-03-06T11:13:10.000Z</time>
      </trkpt>
      <trkpt lat="43.71247" lon="5.01099">
        <ele>214</ele>
        <time>2021-03-06T11:13:17.000Z</time>
      </trkpt>
      <trkpt lat="43.71233" lon="5.01099">
        <ele>219.80000305176</ele>
        <time>2021-03-06T11:13:50.000Z</time>
      </trkpt>
      <trkpt lat="43.71229" lon="5.01095">
        <ele>221.39999389648</ele>
        <time>2021-03-06T11:13:58.000Z</time>
      </trkpt>
      <trkpt lat="43.71226" lon="5.01088">
        <ele>222.19999694824</ele>
        <time>2021-03-06T11:14:05.000Z</time>
      </trkpt>
      <trkpt lat="43.71222" lon="5.01084">
        <ele>223.80000305176</ele>
        <time>2021-03-06T11:14:12.000Z</time>
      </trkpt>
      <trkpt lat="43.71218" lon="5.01081">
        <ele>225.19999694824</ele>
        <time>2021-03-06T11:14:20.000Z</time>
      </trkpt>
      <trkpt lat="43.7121" lon="5.01081">
        <ele>228.39999389648</ele>
        <time>2021-03-06T11:14:41.000Z</time>
      </trkpt>
      <trkpt lat="43.71205" lon="5.0108">
        <ele>230.19999694824</ele>
        <time>2021-03-06T11:14:48.000Z</time>
      </trkpt>
      <trkpt lat="43.71192" lon="5.01065">
        <ele>235</ele>
        <time>2021-03-06T11:15:27.000Z</time>
      </trkpt>
      <trkpt lat="43.71196" lon="5.01063">
        <ele>233.19999694824</ele>
        <time>2021-03-06T11:15:33.000Z</time>
      </trkpt>
      <trkpt lat="43.71181" lon="5.0107">
        <ele>239.39999389648</ele>
        <time>2021-03-06T11:16:37.000Z</time>
      </trkpt>
      <trkpt lat="43.71167" lon="5.01056">
        <ele>244</ele>
        <time>2021-03-06T11:16:49.000Z</time>
      </trkpt>
      <trkpt lat="43.71166" lon="5.01056">
        <ele>244.19999694824</ele>
        <time>2021-03-06T11:16:54.000Z</time>
      </trkpt>
      <trkpt lat="43.71173" lon="5.01049">
        <ele>241.39999389648</ele>
        <time>2021-03-06T11:17:06.000Z</time>
      </trkpt>
      <trkpt lat="43.71173" lon="5.01045">
        <ele>241.19999694824</ele>
        <time>2021-03-06T11:17:12.000Z</time>
      </trkpt>
      <trkpt lat="43.71169" lon="5.01065">
        <ele>243.39999389648</ele>
        <time>2021-03-06T11:17:16.000Z</time>
      </trkpt>
      <trkpt lat="43.71164" lon="5.01061">
        <ele>245</ele>
        <time>2021-03-06T11:17:20.000Z</time>
      </trkpt>
      <trkpt lat="43.71163" lon="5.01054">
        <ele>245.19999694824</ele>
        <time>2021-03-06T11:17:24.000Z</time>
      </trkpt>
      <trkpt lat="43.71152" lon="5.01045">
        <ele>248.60000610352</ele>
        <time>2021-03-06T11:17:50.000Z</time>
      </trkpt>
      <trkpt lat="43.71151" lon="5.01067">
        <ele>250.19999694824</ele>
        <time>2021-03-06T11:19:20.000Z</time>
      </trkpt>
      <trkpt lat="43.71148" lon="5.01072">
        <ele>251.39999389648</ele>
        <time>2021-03-06T11:19:24.000Z</time>
      </trkpt>
      <trkpt lat="43.71131" lon="5.01079">
        <ele>256.79998779297</ele>
        <time>2021-03-06T11:19:50.000Z</time>
      </trkpt>
      <trkpt lat="43.71127" lon="5.01079">
        <ele>258</ele>
        <time>2021-03-06T11:19:57.000Z</time>
      </trkpt>
      <trkpt lat="43.7112" lon="5.0108">
        <ele>259.79998779297</ele>
        <time>2021-03-06T11:20:06.000Z</time>
      </trkpt>
      <trkpt lat="43.71117" lon="5.01083">
        <ele>260.60000610352</ele>
        <time>2021-03-06T11:20:13.000Z</time>
      </trkpt>
      <trkpt lat="43.71112" lon="5.01085">
        <ele>261.79998779297</ele>
        <time>2021-03-06T11:20:21.000Z</time>
      </trkpt>
      <trkpt lat="43.71107" lon="5.01088">
        <ele>262.79998779297</ele>
        <time>2021-03-06T11:20:28.000Z</time>
      </trkpt>
      <trkpt lat="43.71102" lon="5.01091">
        <ele>263.79998779297</ele>
        <time>2021-03-06T11:20:35.000Z</time>
      </trkpt>
      <trkpt lat="43.71097" lon="5.01093">
        <ele>264.20001220703</ele>
        <time>2021-03-06T11:20:42.000Z</time>
      </trkpt>
      <trkpt lat="43.71094" lon="5.01098">
        <ele>264.20001220703</ele>
        <time>2021-03-06T11:20:51.000Z</time>
      </trkpt>
      <trkpt lat="43.71094" lon="5.01104">
        <ele>264</ele>
        <time>2021-03-06T11:21:04.000Z</time>
      </trkpt>
      <trkpt lat="43.7109" lon="5.0111">
        <ele>264</ele>
        <time>2021-03-06T11:21:11.000Z</time>
      </trkpt>
      <trkpt lat="43.71086" lon="5.01115">
        <ele>263.79998779297</ele>
        <time>2021-03-06T11:21:17.000Z</time>
      </trkpt>
      <trkpt lat="43.71082" lon="5.01118">
        <ele>263.79998779297</ele>
        <time>2021-03-06T11:21:25.000Z</time>
      </trkpt>
      <trkpt lat="43.71077" lon="5.01117">
        <ele>264</ele>
        <time>2021-03-06T11:21:32.000Z</time>
      </trkpt>
      <trkpt lat="43.71072" lon="5.01112">
        <ele>264.79998779297</ele>
        <time>2021-03-06T11:21:57.000Z</time>
      </trkpt>
      <trkpt lat="43.71067" lon="5.01108">
        <ele>265.39999389648</ele>
        <time>2021-03-06T11:22:01.000Z</time>
      </trkpt>
      <trkpt lat="43.71061" lon="5.01105">
        <ele>266</ele>
        <time>2021-03-06T11:22:05.000Z</time>
      </trkpt>
      <trkpt lat="43.71056" lon="5.01102">
        <ele>266.60000610352</ele>
        <time>2021-03-06T11:22:09.000Z</time>
      </trkpt>
      <trkpt lat="43.71051" lon="5.01103">
        <ele>266.60000610352</ele>
        <time>2021-03-06T11:22:13.000Z</time>
      </trkpt>
      <trkpt lat="43.71044" lon="5.01102">
        <ele>267</ele>
        <time>2021-03-06T11:22:20.000Z</time>
      </trkpt>
      <trkpt lat="43.71039" lon="5.01099">
        <ele>267.60000610352</ele>
        <time>2021-03-06T11:22:25.000Z</time>
      </trkpt>
      <trkpt lat="43.71035" lon="5.01095">
        <ele>268.20001220703</ele>
        <time>2021-03-06T11:22:29.000Z</time>
      </trkpt>
      <trkpt lat="43.7103" lon="5.01093">
        <ele>268.60000610352</ele>
        <time>2021-03-06T11:22:34.000Z</time>
      </trkpt>
      <trkpt lat="43.71025" lon="5.01091">
        <ele>269</ele>
        <time>2021-03-06T11:22:41.000Z</time>
      </trkpt>
      <trkpt lat="43.71021" lon="5.01087">
        <ele>269.60000610352</ele>
        <time>2021-03-06T11:22:48.000Z</time>
      </trkpt>
      <trkpt lat="43.71017" lon="5.01081">
        <ele>270</ele>
        <time>2021-03-06T11:22:58.000Z</time>
      </trkpt>
      <trkpt lat="43.71012" lon="5.01077">
        <ele>270.20001220703</ele>
        <time>2021-03-06T11:23:06.000Z</time>
      </trkpt>
      <trkpt lat="43.71007" lon="5.01075">
        <ele>270.20001220703</ele>
        <time>2021-03-06T11:23:13.000Z</time>
      </trkpt>
      <trkpt lat="43.71002" lon="5.01074">
        <ele>270</ele>
        <time>2021-03-06T11:23:18.000Z</time>
      </trkpt>
      <trkpt lat="43.70997" lon="5.01076">
        <ele>269.60000610352</ele>
        <time>2021-03-06T11:23:24.000Z</time>
      </trkpt>
      <trkpt lat="43.70991" lon="5.01075">
        <ele>269.39999389648</ele>
        <time>2021-03-06T11:23:31.000Z</time>
      </trkpt>
      <trkpt lat="43.70986" lon="5.01073">
        <ele>269.39999389648</ele>
        <time>2021-03-06T11:23:38.000Z</time>
      </trkpt>
      <trkpt lat="43.70981" lon="5.01072">
        <ele>269.20001220703</ele>
        <time>2021-03-06T11:23:44.000Z</time>
      </trkpt>
      <trkpt lat="43.70976" lon="5.01071">
        <ele>269.20001220703</ele>
        <time>2021-03-06T11:23:51.000Z</time>
      </trkpt>
      <trkpt lat="43.70974" lon="5.01076">
        <ele>268.39999389648</ele>
        <time>2021-03-06T11:24:05.000Z</time>
      </trkpt>
      <trkpt lat="43.70975" lon="5.01091">
        <ele>268.60000610352</ele>
        <time>2021-03-06T11:24:43.000Z</time>
      </trkpt>
      <trkpt lat="43.7097" lon="5.01091">
        <ele>269.20001220703</ele>
        <time>2021-03-06T11:24:50.000Z</time>
      </trkpt>
      <trkpt lat="43.70966" lon="5.01095">
        <ele>269.79998779297</ele>
        <time>2021-03-06T11:25:00.000Z</time>
      </trkpt>
      <trkpt lat="43.70962" lon="5.011">
        <ele>270.39999389648</ele>
        <time>2021-03-06T11:25:08.000Z</time>
      </trkpt>
      <trkpt lat="43.70958" lon="5.01107">
        <ele>271.20001220703</ele>
        <time>2021-03-06T11:25:23.000Z</time>
      </trkpt>
      <trkpt lat="43.70955" lon="5.01111">
        <ele>271.60000610352</ele>
        <time>2021-03-06T11:25:33.000Z</time>
      </trkpt>
      <trkpt lat="43.7095" lon="5.01115">
        <ele>272.20001220703</ele>
        <time>2021-03-06T11:25:44.000Z</time>
      </trkpt>
      <trkpt lat="43.70946" lon="5.0112">
        <ele>272.79998779297</ele>
        <time>2021-03-06T11:25:53.000Z</time>
      </trkpt>
      <trkpt lat="43.70941" lon="5.01124">
        <ele>273.60000610352</ele>
        <time>2021-03-06T11:25:58.000Z</time>
      </trkpt>
      <trkpt lat="43.70936" lon="5.01128">
        <ele>273.20001220703</ele>
        <time>2021-03-06T11:26:03.000Z</time>
      </trkpt>
      <trkpt lat="43.70932" lon="5.01132">
        <ele>272.20001220703</ele>
        <time>2021-03-06T11:26:08.000Z</time>
      </trkpt>
      <trkpt lat="43.70927" lon="5.01135">
        <ele>271</ele>
        <time>2021-03-06T11:26:13.000Z</time>
      </trkpt>
      <trkpt lat="43.70921" lon="5.01136">
        <ele>270.60000610352</ele>
        <time>2021-03-06T11:26:19.000Z</time>
      </trkpt>
      <trkpt lat="43.70916" lon="5.01137">
        <ele>269.79998779297</ele>
        <time>2021-03-06T11:26:25.000Z</time>
      </trkpt>
      <trkpt lat="43.70912" lon="5.0114">
        <ele>269</ele>
        <time>2021-03-06T11:26:30.000Z</time>
      </trkpt>
      <trkpt lat="43.70908" lon="5.01146">
        <ele>267.39999389648</ele>
        <time>2021-03-06T11:26:38.000Z</time>
      </trkpt>
      <trkpt lat="43.70904" lon="5.01151">
        <ele>265.79998779297</ele>
        <time>2021-03-06T11:26:44.000Z</time>
      </trkpt>
      <trkpt lat="43.709" lon="5.0115">
        <ele>265.79998779297</ele>
        <time>2021-03-06T11:26:50.000Z</time>
      </trkpt>
      <trkpt lat="43.70894" lon="5.01152">
        <ele>265.20001220703</ele>
        <time>2021-03-06T11:26:58.000Z</time>
      </trkpt>
      <trkpt lat="43.70892" lon="5.01147">
        <ele>266</ele>
        <time>2021-03-06T11:27:36.000Z</time>
      </trkpt>
      <trkpt lat="43.70888" lon="5.01144">
        <ele>266.39999389648</ele>
        <time>2021-03-06T11:27:45.000Z</time>
      </trkpt>
      <trkpt lat="43.70884" lon="5.0115">
        <ele>265</ele>
        <time>2021-03-06T11:27:50.000Z</time>
      </trkpt>
      <trkpt lat="43.70882" lon="5.01155">
        <ele>263.60000610352</ele>
        <time>2021-03-06T11:27:57.000Z</time>
      </trkpt>
      <trkpt lat="43.70877" lon="5.01158">
        <ele>263.39999389648</ele>
        <time>2021-03-06T11:28:08.000Z</time>
      </trkpt>
      <trkpt lat="43.70872" lon="5.01162">
        <ele>263.39999389648</ele>
        <time>2021-03-06T11:28:14.000Z</time>
      </trkpt>
      <trkpt lat="43.70866" lon="5.0116">
        <ele>263.79998779297</ele>
        <time>2021-03-06T11:28:30.000Z</time>
      </trkpt>
      <trkpt lat="43.70866" lon="5.01167">
        <ele>262.79998779297</ele>
        <time>2021-03-06T11:28:43.000Z</time>
      </trkpt>
      <trkpt lat="43.70853" lon="5.0118">
        <ele>261.60000610352</ele>
        <time>2021-03-06T11:29:45.000Z</time>
      </trkpt>
      <trkpt lat="43.70848" lon="5.01178">
        <ele>261.20001220703</ele>
        <time>2021-03-06T11:29:48.000Z</time>
      </trkpt>
      <trkpt lat="43.70843" lon="5.01175">
        <ele>260.79998779297</ele>
        <time>2021-03-06T11:29:52.000Z</time>
      </trkpt>
      <trkpt lat="43.70838" lon="5.01171">
        <ele>260.79998779297</ele>
        <time>2021-03-06T11:29:58.000Z</time>
      </trkpt>
      <trkpt lat="43.7084" lon="5.01171">
        <ele>261</ele>
        <time>2021-03-06T11:30:40.000Z</time>
      </trkpt>
      <trkpt lat="43.70836" lon="5.01173">
        <ele>260.20001220703</ele>
        <time>2021-03-06T11:30:52.000Z</time>
      </trkpt>
      <trkpt lat="43.7083" lon="5.01174">
        <ele>259.20001220703</ele>
        <time>2021-03-06T11:31:09.000Z</time>
      </trkpt>
      <trkpt lat="43.70825" lon="5.01176">
        <ele>258.20001220703</ele>
        <time>2021-03-06T11:31:24.000Z</time>
      </trkpt>
      <trkpt lat="43.70819" lon="5.01175">
        <ele>257.60000610352</ele>
        <time>2021-03-06T11:31:31.000Z</time>
      </trkpt>
      <trkpt lat="43.70816" lon="5.01177">
        <ele>258.39999389648</ele>
        <time>2021-03-06T11:31:37.000Z</time>
      </trkpt>
      <trkpt lat="43.7081" lon="5.01178">
        <ele>259.20001220703</ele>
        <time>2021-03-06T11:31:44.000Z</time>
      </trkpt>
      <trkpt lat="43.70806" lon="5.01181">
        <ele>260.20001220703</ele>
        <time>2021-03-06T11:31:53.000Z</time>
      </trkpt>
      <trkpt lat="43.70795" lon="5.01186">
        <ele>262.20001220703</ele>
        <time>2021-03-06T11:32:14.000Z</time>
      </trkpt>
      <trkpt lat="43.7079" lon="5.01191">
        <ele>263.20001220703</ele>
        <time>2021-03-06T11:32:21.000Z</time>
      </trkpt>
      <trkpt lat="43.70786" lon="5.01195">
        <ele>264.20001220703</ele>
        <time>2021-03-06T11:32:29.000Z</time>
      </trkpt>
      <trkpt lat="43.70781" lon="5.012">
        <ele>265.39999389648</ele>
        <time>2021-03-06T11:32:54.000Z</time>
      </trkpt>
      <trkpt lat="43.70766" lon="5.01207">
        <ele>267.79998779297</ele>
        <time>2021-03-06T11:33:24.000Z</time>
      </trkpt>
      <trkpt lat="43.70761" lon="5.01211">
        <ele>268</ele>
        <time>2021-03-06T11:33:31.000Z</time>
      </trkpt>
      <trkpt lat="43.70745" lon="5.0121">
        <ele>268.60000610352</ele>
        <time>2021-03-06T11:34:12.000Z</time>
      </trkpt>
      <trkpt lat="43.7074" lon="5.01208">
        <ele>269</ele>
        <time>2021-03-06T11:34:22.000Z</time>
      </trkpt>
      <trkpt lat="43.70735" lon="5.0121">
        <ele>269</ele>
        <time>2021-03-06T11:34:33.000Z</time>
      </trkpt>
      <trkpt lat="43.70731" lon="5.01214">
        <ele>268.39999389648</ele>
        <time>2021-03-06T11:34:42.000Z</time>
      </trkpt>
      <trkpt lat="43.70726" lon="5.01218">
        <ele>268</ele>
        <time>2021-03-06T11:34:47.000Z</time>
      </trkpt>
      <trkpt lat="43.70721" lon="5.01221">
        <ele>267.60000610352</ele>
        <time>2021-03-06T11:34:52.000Z</time>
      </trkpt>
      <trkpt lat="43.70716" lon="5.0122">
        <ele>268.20001220703</ele>
        <time>2021-03-06T11:34:59.000Z</time>
      </trkpt>
      <trkpt lat="43.7071" lon="5.01224">
        <ele>267.60000610352</ele>
        <time>2021-03-06T11:35:04.000Z</time>
      </trkpt>
      <trkpt lat="43.70705" lon="5.01224">
        <ele>267.79998779297</ele>
        <time>2021-03-06T11:35:09.000Z</time>
      </trkpt>
      <trkpt lat="43.707" lon="5.01224">
        <ele>268.20001220703</ele>
        <time>2021-03-06T11:35:15.000Z</time>
      </trkpt>
      <trkpt lat="43.70695" lon="5.01223">
        <ele>268.79998779297</ele>
        <time>2021-03-06T11:35:24.000Z</time>
      </trkpt>
      <trkpt lat="43.70689" lon="5.01225">
        <ele>269.39999389648</ele>
        <time>2021-03-06T11:35:31.000Z</time>
      </trkpt>
      <trkpt lat="43.70683" lon="5.01228">
        <ele>269</ele>
        <time>2021-03-06T11:35:37.000Z</time>
      </trkpt>
      <trkpt lat="43.70678" lon="5.01228">
        <ele>268.39999389648</ele>
        <time>2021-03-06T11:35:42.000Z</time>
      </trkpt>
      <trkpt lat="43.70673" lon="5.01226">
        <ele>267.79998779297</ele>
        <time>2021-03-06T11:35:47.000Z</time>
      </trkpt>
      <trkpt lat="43.70668" lon="5.01226">
        <ele>267.20001220703</ele>
        <time>2021-03-06T11:36:09.000Z</time>
      </trkpt>
      <trkpt lat="43.70663" lon="5.01227">
        <ele>266.60000610352</ele>
        <time>2021-03-06T11:36:20.000Z</time>
      </trkpt>
      <trkpt lat="43.70658" lon="5.0123">
        <ele>265.79998779297</ele>
        <time>2021-03-06T11:36:34.000Z</time>
      </trkpt>
      <trkpt lat="43.70653" lon="5.01234">
        <ele>264.79998779297</ele>
        <time>2021-03-06T11:36:42.000Z</time>
      </trkpt>
      <trkpt lat="43.70648" lon="5.01235">
        <ele>264.20001220703</ele>
        <time>2021-03-06T11:36:48.000Z</time>
      </trkpt>
      <trkpt lat="43.70644" lon="5.01239">
        <ele>263.39999389648</ele>
        <time>2021-03-06T11:36:57.000Z</time>
      </trkpt>
      <trkpt lat="43.7064" lon="5.01243">
        <ele>262.39999389648</ele>
        <time>2021-03-06T11:37:05.000Z</time>
      </trkpt>
      <trkpt lat="43.70636" lon="5.01248">
        <ele>262</ele>
        <time>2021-03-06T11:37:11.000Z</time>
      </trkpt>
      <trkpt lat="43.70631" lon="5.01253">
        <ele>261.60000610352</ele>
        <time>2021-03-06T11:37:17.000Z</time>
      </trkpt>
      <trkpt lat="43.70626" lon="5.01256">
        <ele>261.20001220703</ele>
        <time>2021-03-06T11:37:23.000Z</time>
      </trkpt>
      <trkpt lat="43.70622" lon="5.01261">
        <ele>260.79998779297</ele>
        <time>2021-03-06T11:37:29.000Z</time>
      </trkpt>
      <trkpt lat="43.70616" lon="5.01261">
        <ele>260.39999389648</ele>
        <time>2021-03-06T11:37:36.000Z</time>
      </trkpt>
      <trkpt lat="43.70612" lon="5.0126">
        <ele>260.20001220703</ele>
        <time>2021-03-06T11:37:43.000Z</time>
      </trkpt>
      <trkpt lat="43.70607" lon="5.01265">
        <ele>259.79998779297</ele>
        <time>2021-03-06T11:37:51.000Z</time>
      </trkpt>
      <trkpt lat="43.70602" lon="5.01268">
        <ele>259.60000610352</ele>
        <time>2021-03-06T11:37:56.000Z</time>
      </trkpt>
      <trkpt lat="43.70596" lon="5.01266">
        <ele>259.20001220703</ele>
        <time>2021-03-06T11:38:03.000Z</time>
      </trkpt>
      <trkpt lat="43.70591" lon="5.01266">
        <ele>259</ele>
        <time>2021-03-06T11:38:09.000Z</time>
      </trkpt>
      <trkpt lat="43.70584" lon="5.01266">
        <ele>258.60000610352</ele>
        <time>2021-03-06T11:38:15.000Z</time>
      </trkpt>
      <trkpt lat="43.70579" lon="5.01264">
        <ele>258.60000610352</ele>
        <time>2021-03-06T11:38:20.000Z</time>
      </trkpt>
      <trkpt lat="43.70574" lon="5.01262">
        <ele>258.39999389648</ele>
        <time>2021-03-06T11:38:32.000Z</time>
      </trkpt>
      <trkpt lat="43.70569" lon="5.01264">
        <ele>258</ele>
        <time>2021-03-06T11:38:38.000Z</time>
      </trkpt>
      <trkpt lat="43.70564" lon="5.01266">
        <ele>257.60000610352</ele>
        <time>2021-03-06T11:38:43.000Z</time>
      </trkpt>
      <trkpt lat="43.70559" lon="5.0127">
        <ele>257.20001220703</ele>
        <time>2021-03-06T11:38:48.000Z</time>
      </trkpt>
      <trkpt lat="43.70554" lon="5.01269">
        <ele>256.79998779297</ele>
        <time>2021-03-06T11:38:53.000Z</time>
      </trkpt>
      <trkpt lat="43.7055" lon="5.01263">
        <ele>256.79998779297</ele>
        <time>2021-03-06T11:38:59.000Z</time>
      </trkpt>
      <trkpt lat="43.70546" lon="5.01262">
        <ele>256.60000610352</ele>
        <time>2021-03-06T11:39:06.000Z</time>
      </trkpt>
      <trkpt lat="43.7054" lon="5.01266">
        <ele>256.20001220703</ele>
        <time>2021-03-06T11:39:16.000Z</time>
      </trkpt>
      <trkpt lat="43.70534" lon="5.01265">
        <ele>255.80000305176</ele>
        <time>2021-03-06T11:39:22.000Z</time>
      </trkpt>
      <trkpt lat="43.7053" lon="5.01262">
        <ele>255.60000610352</ele>
        <time>2021-03-06T11:39:27.000Z</time>
      </trkpt>
      <trkpt lat="43.70523" lon="5.01262">
        <ele>255.19999694824</ele>
        <time>2021-03-06T11:39:32.000Z</time>
      </trkpt>
      <trkpt lat="43.70517" lon="5.0126">
        <ele>255</ele>
        <time>2021-03-06T11:39:37.000Z</time>
      </trkpt>
      <trkpt lat="43.70513" lon="5.0126">
        <ele>254.80000305176</ele>
        <time>2021-03-06T11:39:41.000Z</time>
      </trkpt>
      <trkpt lat="43.70508" lon="5.01256">
        <ele>254.60000610352</ele>
        <time>2021-03-06T11:39:47.000Z</time>
      </trkpt>
      <trkpt lat="43.70502" lon="5.01254">
        <ele>254.19999694824</ele>
        <time>2021-03-06T11:39:53.000Z</time>
      </trkpt>
      <trkpt lat="43.70496" lon="5.01253">
        <ele>254</ele>
        <time>2021-03-06T11:39:59.000Z</time>
      </trkpt>
      <trkpt lat="43.70491" lon="5.01254">
        <ele>253.60000610352</ele>
        <time>2021-03-06T11:40:05.000Z</time>
      </trkpt>
      <trkpt lat="43.70485" lon="5.01253">
        <ele>253.39999389648</ele>
        <time>2021-03-06T11:40:10.000Z</time>
      </trkpt>
      <trkpt lat="43.7048" lon="5.01251">
        <ele>253</ele>
        <time>2021-03-06T11:40:15.000Z</time>
      </trkpt>
      <trkpt lat="43.70474" lon="5.01248">
        <ele>252.80000305176</ele>
        <time>2021-03-06T11:40:20.000Z</time>
      </trkpt>
      <trkpt lat="43.70469" lon="5.01246">
        <ele>252.39999389648</ele>
        <time>2021-03-06T11:40:24.000Z</time>
      </trkpt>
      <trkpt lat="43.70464" lon="5.01244">
        <ele>252</ele>
        <time>2021-03-06T11:40:29.000Z</time>
      </trkpt>
      <trkpt lat="43.70459" lon="5.01244">
        <ele>251.60000610352</ele>
        <time>2021-03-06T11:40:35.000Z</time>
      </trkpt>
      <trkpt lat="43.70453" lon="5.01247">
        <ele>250.80000305176</ele>
        <time>2021-03-06T11:40:41.000Z</time>
      </trkpt>
      <trkpt lat="43.70448" lon="5.01247">
        <ele>250.39999389648</ele>
        <time>2021-03-06T11:40:48.000Z</time>
      </trkpt>
      <trkpt lat="43.70444" lon="5.0125">
        <ele>249.60000610352</ele>
        <time>2021-03-06T11:41:00.000Z</time>
      </trkpt>
      <trkpt lat="43.70439" lon="5.01254">
        <ele>249</ele>
        <time>2021-03-06T11:41:07.000Z</time>
      </trkpt>
      <trkpt lat="43.70427" lon="5.01262">
        <ele>247.19999694824</ele>
        <time>2021-03-06T11:42:19.000Z</time>
      </trkpt>
      <trkpt lat="43.70421" lon="5.01259">
        <ele>246.80000305176</ele>
        <time>2021-03-06T11:42:24.000Z</time>
      </trkpt>
      <trkpt lat="43.70417" lon="5.01256">
        <ele>246.60000610352</ele>
        <time>2021-03-06T11:42:29.000Z</time>
      </trkpt>
      <trkpt lat="43.70412" lon="5.01255">
        <ele>246.19999694824</ele>
        <time>2021-03-06T11:42:38.000Z</time>
      </trkpt>
      <trkpt lat="43.70405" lon="5.01254">
        <ele>245.60000610352</ele>
        <time>2021-03-06T11:42:45.000Z</time>
      </trkpt>
      <trkpt lat="43.704" lon="5.01255">
        <ele>245.19999694824</ele>
        <time>2021-03-06T11:42:52.000Z</time>
      </trkpt>
      <trkpt lat="43.70394" lon="5.01258">
        <ele>244</ele>
        <time>2021-03-06T11:42:59.000Z</time>
      </trkpt>
      <trkpt lat="43.7039" lon="5.01262">
        <ele>243</ele>
        <time>2021-03-06T11:43:05.000Z</time>
      </trkpt>
      <trkpt lat="43.70384" lon="5.01262">
        <ele>242.19999694824</ele>
        <time>2021-03-06T11:43:10.000Z</time>
      </trkpt>
      <trkpt lat="43.70379" lon="5.0126">
        <ele>241.80000305176</ele>
        <time>2021-03-06T11:43:19.000Z</time>
      </trkpt>
      <trkpt lat="43.70367" lon="5.01258">
        <ele>240.39999389648</ele>
        <time>2021-03-06T11:43:38.000Z</time>
      </trkpt>
      <trkpt lat="43.70362" lon="5.01256">
        <ele>240</ele>
        <time>2021-03-06T11:43:51.000Z</time>
      </trkpt>
      <trkpt lat="43.70357" lon="5.01264">
        <ele>238.39999389648</ele>
        <time>2021-03-06T11:44:12.000Z</time>
      </trkpt>
      <trkpt lat="43.70351" lon="5.01255">
        <ele>238.39999389648</ele>
        <time>2021-03-06T11:44:27.000Z</time>
      </trkpt>
      <trkpt lat="43.70347" lon="5.0125">
        <ele>238.19999694824</ele>
        <time>2021-03-06T11:44:34.000Z</time>
      </trkpt>
      <trkpt lat="43.70348" lon="5.01243">
        <ele>239.19999694824</ele>
        <time>2021-03-06T11:44:42.000Z</time>
      </trkpt>
      <trkpt lat="43.7034" lon="5.01252">
        <ele>236.60000610352</ele>
        <time>2021-03-06T11:45:31.000Z</time>
      </trkpt>
      <trkpt lat="43.70335" lon="5.01254">
        <ele>235.39999389648</ele>
        <time>2021-03-06T11:45:38.000Z</time>
      </trkpt>
      <trkpt lat="43.7033" lon="5.01256">
        <ele>234</ele>
        <time>2021-03-06T11:45:46.000Z</time>
      </trkpt>
      <trkpt lat="43.70325" lon="5.01259">
        <ele>232.80000305176</ele>
        <time>2021-03-06T11:45:53.000Z</time>
      </trkpt>
      <trkpt lat="43.7032" lon="5.01262">
        <ele>232</ele>
        <time>2021-03-06T11:45:58.000Z</time>
      </trkpt>
      <trkpt lat="43.70315" lon="5.01267">
        <ele>232</ele>
        <time>2021-03-06T11:46:03.000Z</time>
      </trkpt>
      <trkpt lat="43.70311" lon="5.01271">
        <ele>232</ele>
        <time>2021-03-06T11:46:07.000Z</time>
      </trkpt>
      <trkpt lat="43.70305" lon="5.01273">
        <ele>231.80000305176</ele>
        <time>2021-03-06T11:46:11.000Z</time>
      </trkpt>
      <trkpt lat="43.703" lon="5.01274">
        <ele>231.60000610352</ele>
        <time>2021-03-06T11:46:15.000Z</time>
      </trkpt>
      <trkpt lat="43.70298" lon="5.01281">
        <ele>231.80000305176</ele>
        <time>2021-03-06T11:46:20.000Z</time>
      </trkpt>
      <trkpt lat="43.70295" lon="5.01288">
        <ele>232</ele>
        <time>2021-03-06T11:46:26.000Z</time>
      </trkpt>
      <trkpt lat="43.7029" lon="5.01292">
        <ele>232</ele>
        <time>2021-03-06T11:46:31.000Z</time>
      </trkpt>
      <trkpt lat="43.70284" lon="5.01291">
        <ele>231.60000610352</ele>
        <time>2021-03-06T11:46:36.000Z</time>
      </trkpt>
      <trkpt lat="43.70277" lon="5.01291">
        <ele>231.39999389648</ele>
        <time>2021-03-06T11:46:40.000Z</time>
      </trkpt>
      <trkpt lat="43.70272" lon="5.01291">
        <ele>231</ele>
        <time>2021-03-06T11:46:43.000Z</time>
      </trkpt>
      <trkpt lat="43.70266" lon="5.01291">
        <ele>230.39999389648</ele>
        <time>2021-03-06T11:46:46.000Z</time>
      </trkpt>
      <trkpt lat="43.7026" lon="5.01291">
        <ele>229.39999389648</ele>
        <time>2021-03-06T11:46:50.000Z</time>
      </trkpt>
      <trkpt lat="43.70253" lon="5.01291">
        <ele>228.39999389648</ele>
        <time>2021-03-06T11:46:54.000Z</time>
      </trkpt>
      <trkpt lat="43.70248" lon="5.01292">
        <ele>227.80000305176</ele>
        <time>2021-03-06T11:46:57.000Z</time>
      </trkpt>
      <trkpt lat="43.70243" lon="5.01294">
        <ele>226.80000305176</ele>
        <time>2021-03-06T11:47:00.000Z</time>
      </trkpt>
      <trkpt lat="43.70239" lon="5.01297">
        <ele>225.60000610352</ele>
        <time>2021-03-06T11:47:05.000Z</time>
      </trkpt>
      <trkpt lat="43.70234" lon="5.01302">
        <ele>224</ele>
        <time>2021-03-06T11:47:11.000Z</time>
      </trkpt>
      <trkpt lat="43.70232" lon="5.01299">
        <ele>224.19999694824</ele>
        <time>2021-03-06T11:47:22.000Z</time>
      </trkpt>
      <trkpt lat="43.70228" lon="5.01295">
        <ele>224.39999389648</ele>
        <time>2021-03-06T11:47:33.000Z</time>
      </trkpt>
      <trkpt lat="43.70225" lon="5.01299">
        <ele>223.19999694824</ele>
        <time>2021-03-06T11:47:51.000Z</time>
      </trkpt>
      <trkpt lat="43.70224" lon="5.01305">
        <ele>221.80000305176</ele>
        <time>2021-03-06T11:47:56.000Z</time>
      </trkpt>
      <trkpt lat="43.70221" lon="5.01311">
        <ele>220.19999694824</ele>
        <time>2021-03-06T11:48:03.000Z</time>
      </trkpt>
      <trkpt lat="43.70217" lon="5.01317">
        <ele>218.60000610352</ele>
        <time>2021-03-06T11:48:11.000Z</time>
      </trkpt>
      <trkpt lat="43.70212" lon="5.01315">
        <ele>218.19999694824</ele>
        <time>2021-03-06T11:48:19.000Z</time>
      </trkpt>
      <trkpt lat="43.70207" lon="5.01314">
        <ele>217.60000610352</ele>
        <time>2021-03-06T11:48:27.000Z</time>
      </trkpt>
      <trkpt lat="43.70203" lon="5.01309">
        <ele>218</ele>
        <time>2021-03-06T11:48:39.000Z</time>
      </trkpt>
      <trkpt lat="43.7019" lon="5.01309">
        <ele>216.19999694824</ele>
        <time>2021-03-06T11:49:32.000Z</time>
      </trkpt>
      <trkpt lat="43.70185" lon="5.0131">
        <ele>214.80000305176</ele>
        <time>2021-03-06T11:49:39.000Z</time>
      </trkpt>
      <trkpt lat="43.70184" lon="5.01316">
        <ele>213.60000610352</ele>
        <time>2021-03-06T11:49:50.000Z</time>
      </trkpt>
      <trkpt lat="43.70186" lon="5.01324">
        <ele>212.80000305176</ele>
        <time>2021-03-06T11:49:59.000Z</time>
      </trkpt>
      <trkpt lat="43.70185" lon="5.01332">
        <ele>210.80000305176</ele>
        <time>2021-03-06T11:50:04.000Z</time>
      </trkpt>
      <trkpt lat="43.70183" lon="5.01338">
        <ele>208.80000305176</ele>
        <time>2021-03-06T11:50:10.000Z</time>
      </trkpt>
      <trkpt lat="43.70179" lon="5.01343">
        <ele>206.60000610352</ele>
        <time>2021-03-06T11:50:15.000Z</time>
      </trkpt>
      <trkpt lat="43.70174" lon="5.01348">
        <ele>204</ele>
        <time>2021-03-06T11:50:21.000Z</time>
      </trkpt>
      <trkpt lat="43.70173" lon="5.01355">
        <ele>202.60000610352</ele>
        <time>2021-03-06T11:50:26.000Z</time>
      </trkpt>
      <trkpt lat="43.70173" lon="5.01362">
        <ele>201.19999694824</ele>
        <time>2021-03-06T11:50:35.000Z</time>
      </trkpt>
      <trkpt lat="43.70171" lon="5.0137">
        <ele>201.19999694824</ele>
        <time>2021-03-06T11:50:40.000Z</time>
      </trkpt>
      <trkpt lat="43.7017" lon="5.01377">
        <ele>201.19999694824</ele>
        <time>2021-03-06T11:50:46.000Z</time>
      </trkpt>
      <trkpt lat="43.70168" lon="5.01384">
        <ele>200.39999389648</ele>
        <time>2021-03-06T11:50:54.000Z</time>
      </trkpt>
      <trkpt lat="43.70165" lon="5.01389">
        <ele>199.80000305176</ele>
        <time>2021-03-06T11:51:01.000Z</time>
      </trkpt>
      <trkpt lat="43.70164" lon="5.01397">
        <ele>199.19999694824</ele>
        <time>2021-03-06T11:51:09.000Z</time>
      </trkpt>
      <trkpt lat="43.70161" lon="5.01405">
        <ele>198.39999389648</ele>
        <time>2021-03-06T11:51:13.000Z</time>
      </trkpt>
      <trkpt lat="43.70161" lon="5.01411">
        <ele>198</ele>
        <time>2021-03-06T11:51:22.000Z</time>
      </trkpt>
      <trkpt lat="43.7016" lon="5.01418">
        <ele>197.60000610352</ele>
        <time>2021-03-06T11:51:29.000Z</time>
      </trkpt>
      <trkpt lat="43.70156" lon="5.01424">
        <ele>196.80000305176</ele>
        <time>2021-03-06T11:51:35.000Z</time>
      </trkpt>
      <trkpt lat="43.70155" lon="5.01431">
        <ele>196.39999389648</ele>
        <time>2021-03-06T11:51:41.000Z</time>
      </trkpt>
      <trkpt lat="43.7015" lon="5.01436">
        <ele>196.19999694824</ele>
        <time>2021-03-06T11:51:47.000Z</time>
      </trkpt>
      <trkpt lat="43.70145" lon="5.01437">
        <ele>196</ele>
        <time>2021-03-06T11:51:51.000Z</time>
      </trkpt>
      <trkpt lat="43.70141" lon="5.01439">
        <ele>195.80000305176</ele>
        <time>2021-03-06T11:51:55.000Z</time>
      </trkpt>
      <trkpt lat="43.70138" lon="5.01446">
        <ele>195.60000610352</ele>
        <time>2021-03-06T11:52:01.000Z</time>
      </trkpt>
      <trkpt lat="43.70138" lon="5.01452">
        <ele>195.60000610352</ele>
        <time>2021-03-06T11:52:06.000Z</time>
      </trkpt>
      <trkpt lat="43.70139" lon="5.01459">
        <ele>195.60000610352</ele>
        <time>2021-03-06T11:52:14.000Z</time>
      </trkpt>
      <trkpt lat="43.70133" lon="5.01459">
        <ele>195.39999389648</ele>
        <time>2021-03-06T11:52:23.000Z</time>
      </trkpt>
      <trkpt lat="43.70128" lon="5.0146">
        <ele>195</ele>
        <time>2021-03-06T11:52:29.000Z</time>
      </trkpt>
      <trkpt lat="43.70124" lon="5.01464">
        <ele>194.39999389648</ele>
        <time>2021-03-06T11:52:36.000Z</time>
      </trkpt>
      <trkpt lat="43.70118" lon="5.01467">
        <ele>193.80000305176</ele>
        <time>2021-03-06T11:52:44.000Z</time>
      </trkpt>
      <trkpt lat="43.70113" lon="5.01467">
        <ele>193.39999389648</ele>
        <time>2021-03-06T11:52:50.000Z</time>
      </trkpt>
      <trkpt lat="43.70107" lon="5.01468">
        <ele>192.80000305176</ele>
        <time>2021-03-06T11:52:55.000Z</time>
      </trkpt>
      <trkpt lat="43.70103" lon="5.01471">
        <ele>192</ele>
        <time>2021-03-06T11:53:00.000Z</time>
      </trkpt>
      <trkpt lat="43.70101" lon="5.01478">
        <ele>191</ele>
        <time>2021-03-06T11:53:08.000Z</time>
      </trkpt>
      <trkpt lat="43.70104" lon="5.01484">
        <ele>190.19999694824</ele>
        <time>2021-03-06T11:53:55.000Z</time>
      </trkpt>
      <trkpt lat="43.70105" lon="5.01487">
        <ele>189.60000610352</ele>
        <time>2021-03-06T11:54:15.000Z</time>
      </trkpt>
      <trkpt lat="43.701" lon="5.0148">
        <ele>190.60000610352</ele>
        <time>2021-03-06T11:54:22.000Z</time>
      </trkpt>
      <trkpt lat="43.70094" lon="5.01478">
        <ele>190.80000305176</ele>
        <time>2021-03-06T11:54:27.000Z</time>
      </trkpt>
      <trkpt lat="43.70089" lon="5.01473">
        <ele>191.39999389648</ele>
        <time>2021-03-06T11:54:33.000Z</time>
      </trkpt>
      <trkpt lat="43.70083" lon="5.01473">
        <ele>191.19999694824</ele>
        <time>2021-03-06T11:54:39.000Z</time>
      </trkpt>
      <trkpt lat="43.70076" lon="5.01472">
        <ele>191.19999694824</ele>
        <time>2021-03-06T11:54:43.000Z</time>
      </trkpt>
      <trkpt lat="43.70071" lon="5.01471">
        <ele>191.39999389648</ele>
        <time>2021-03-06T11:54:46.000Z</time>
      </trkpt>
      <trkpt lat="43.70066" lon="5.01468">
        <ele>191.60000610352</ele>
        <time>2021-03-06T11:54:50.000Z</time>
      </trkpt>
      <trkpt lat="43.70061" lon="5.01463">
        <ele>192.19999694824</ele>
        <time>2021-03-06T11:54:55.000Z</time>
      </trkpt>
      <trkpt lat="43.70056" lon="5.01459">
        <ele>192.80000305176</ele>
        <time>2021-03-06T11:55:00.000Z</time>
      </trkpt>
      <trkpt lat="43.70051" lon="5.01457">
        <ele>192.80000305176</ele>
        <time>2021-03-06T11:55:04.000Z</time>
      </trkpt>
      <trkpt lat="43.70047" lon="5.01454">
        <ele>193</ele>
        <time>2021-03-06T11:55:09.000Z</time>
      </trkpt>
      <trkpt lat="43.70042" lon="5.01449">
        <ele>193</ele>
        <time>2021-03-06T11:55:13.000Z</time>
      </trkpt>
      <trkpt lat="43.70037" lon="5.01444">
        <ele>193.19999694824</ele>
        <time>2021-03-06T11:55:18.000Z</time>
      </trkpt>
      <trkpt lat="43.70031" lon="5.01443">
        <ele>193.19999694824</ele>
        <time>2021-03-06T11:55:23.000Z</time>
      </trkpt>
      <trkpt lat="43.70026" lon="5.01443">
        <ele>193</ele>
        <time>2021-03-06T11:55:26.000Z</time>
      </trkpt>
      <trkpt lat="43.7002" lon="5.01444">
        <ele>193</ele>
        <time>2021-03-06T11:55:29.000Z</time>
      </trkpt>
      <trkpt lat="43.70016" lon="5.01441">
        <ele>192.39999389648</ele>
        <time>2021-03-06T11:55:32.000Z</time>
      </trkpt>
      <trkpt lat="43.70013" lon="5.01434">
        <ele>192.60000610352</ele>
        <time>2021-03-06T11:55:36.000Z</time>
      </trkpt>
      <trkpt lat="43.7001" lon="5.0143">
        <ele>192.39999389648</ele>
        <time>2021-03-06T11:55:40.000Z</time>
      </trkpt>
      <trkpt lat="43.70003" lon="5.0143">
        <ele>191.60000610352</ele>
        <time>2021-03-06T11:55:45.000Z</time>
      </trkpt>
      <trkpt lat="43.69998" lon="5.01431">
        <ele>190.80000305176</ele>
        <time>2021-03-06T11:55:50.000Z</time>
      </trkpt>
      <trkpt lat="43.69993" lon="5.01428">
        <ele>190.19999694824</ele>
        <time>2021-03-06T11:55:55.000Z</time>
      </trkpt>
      <trkpt lat="43.69988" lon="5.01424">
        <ele>189.80000305176</ele>
        <time>2021-03-06T11:55:59.000Z</time>
      </trkpt>
      <trkpt lat="43.69983" lon="5.01423">
        <ele>189.19999694824</ele>
        <time>2021-03-06T11:56:03.000Z</time>
      </trkpt>
      <trkpt lat="43.69977" lon="5.0142">
        <ele>188.60000610352</ele>
        <time>2021-03-06T11:56:07.000Z</time>
      </trkpt>
      <trkpt lat="43.69972" lon="5.01416">
        <ele>188.19999694824</ele>
        <time>2021-03-06T11:56:11.000Z</time>
      </trkpt>
      <trkpt lat="43.69966" lon="5.01412">
        <ele>187.60000610352</ele>
        <time>2021-03-06T11:56:15.000Z</time>
      </trkpt>
      <trkpt lat="43.69961" lon="5.01411">
        <ele>187</ele>
        <time>2021-03-06T11:56:18.000Z</time>
      </trkpt>
      <trkpt lat="43.69955" lon="5.01413">
        <ele>186</ele>
        <time>2021-03-06T11:56:22.000Z</time>
      </trkpt>
      <trkpt lat="43.6995" lon="5.01414">
        <ele>185.19999694824</ele>
        <time>2021-03-06T11:56:25.000Z</time>
      </trkpt>
      <trkpt lat="43.69943" lon="5.01414">
        <ele>184</ele>
        <time>2021-03-06T11:56:29.000Z</time>
      </trkpt>
      <trkpt lat="43.69937" lon="5.01415">
        <ele>183.19999694824</ele>
        <time>2021-03-06T11:56:32.000Z</time>
      </trkpt>
      <trkpt lat="43.69931" lon="5.01413">
        <ele>182.60000610352</ele>
        <time>2021-03-06T11:56:36.000Z</time>
      </trkpt>
      <trkpt lat="43.69928" lon="5.01409">
        <ele>182.19999694824</ele>
        <time>2021-03-06T11:56:40.000Z</time>
      </trkpt>
      <trkpt lat="43.69923" lon="5.01404">
        <ele>182</ele>
        <time>2021-03-06T11:56:46.000Z</time>
      </trkpt>
      <trkpt lat="43.6992" lon="5.01411">
        <ele>181</ele>
        <time>2021-03-06T11:56:53.000Z</time>
      </trkpt>
      <trkpt lat="43.69916" lon="5.01417">
        <ele>180</ele>
        <time>2021-03-06T11:57:01.000Z</time>
      </trkpt>
      <trkpt lat="43.69911" lon="5.01422">
        <ele>179</ele>
        <time>2021-03-06T11:57:06.000Z</time>
      </trkpt>
      <trkpt lat="43.69907" lon="5.01425">
        <ele>178</ele>
        <time>2021-03-06T11:57:09.000Z</time>
      </trkpt>
      <trkpt lat="43.69902" lon="5.0143">
        <ele>176.80000305176</ele>
        <time>2021-03-06T11:57:13.000Z</time>
      </trkpt>
      <trkpt lat="43.69892" lon="5.01454">
        <ele>172.60000610352</ele>
        <time>2021-03-06T11:57:48.000Z</time>
      </trkpt>
      <trkpt lat="43.69888" lon="5.0146">
        <ele>171</ele>
        <time>2021-03-06T11:57:52.000Z</time>
      </trkpt>
      <trkpt lat="43.69883" lon="5.01465">
        <ele>169.60000610352</ele>
        <time>2021-03-06T11:57:55.000Z</time>
      </trkpt>
      <trkpt lat="43.6988" lon="5.01471">
        <ele>168.39999389648</ele>
        <time>2021-03-06T11:57:58.000Z</time>
      </trkpt>
      <trkpt lat="43.69877" lon="5.01478">
        <ele>167.19999694824</ele>
        <time>2021-03-06T11:58:01.000Z</time>
      </trkpt>
      <trkpt lat="43.69873" lon="5.01484">
        <ele>166</ele>
        <time>2021-03-06T11:58:04.000Z</time>
      </trkpt>
      <trkpt lat="43.69869" lon="5.01491">
        <ele>164.80000305176</ele>
        <time>2021-03-06T11:58:07.000Z</time>
      </trkpt>
      <trkpt lat="43.69866" lon="5.01496">
        <ele>163.80000305176</ele>
        <time>2021-03-06T11:58:09.000Z</time>
      </trkpt>
      <trkpt lat="43.6986" lon="5.01502">
        <ele>162.39999389648</ele>
        <time>2021-03-06T11:58:12.000Z</time>
      </trkpt>
      <trkpt lat="43.69854" lon="5.01509">
        <ele>161</ele>
        <time>2021-03-06T11:58:15.000Z</time>
      </trkpt>
      <trkpt lat="43.69849" lon="5.01515">
        <ele>160.19999694824</ele>
        <time>2021-03-06T11:58:18.000Z</time>
      </trkpt>
      <trkpt lat="43.69845" lon="5.0152">
        <ele>159.80000305176</ele>
        <time>2021-03-06T11:58:20.000Z</time>
      </trkpt>
      <trkpt lat="43.69841" lon="5.01526">
        <ele>159.19999694824</ele>
        <time>2021-03-06T11:58:23.000Z</time>
      </trkpt>
      <trkpt lat="43.69834" lon="5.0153">
        <ele>158.80000305176</ele>
        <time>2021-03-06T11:58:26.000Z</time>
      </trkpt>
      <trkpt lat="43.69826" lon="5.01532">
        <ele>158.60000610352</ele>
        <time>2021-03-06T11:58:29.000Z</time>
      </trkpt>
      <trkpt lat="43.69821" lon="5.01531">
        <ele>158.39999389648</ele>
        <time>2021-03-06T11:58:31.000Z</time>
      </trkpt>
      <trkpt lat="43.69817" lon="5.01531">
        <ele>158.39999389648</ele>
        <time>2021-03-06T11:58:33.000Z</time>
      </trkpt>
      <trkpt lat="43.69812" lon="5.0153">
        <ele>158.39999389648</ele>
        <time>2021-03-06T11:58:36.000Z</time>
      </trkpt>
      <trkpt lat="43.69805" lon="5.0153">
        <ele>158.39999389648</ele>
        <time>2021-03-06T11:58:40.000Z</time>
      </trkpt>
      <trkpt lat="43.698" lon="5.01528">
        <ele>158.39999389648</ele>
        <time>2021-03-06T11:58:44.000Z</time>
      </trkpt>
      <trkpt lat="43.69794" lon="5.01527">
        <ele>158.60000610352</ele>
        <time>2021-03-06T11:58:48.000Z</time>
      </trkpt>
      <trkpt lat="43.69787" lon="5.01529">
        <ele>158.39999389648</ele>
        <time>2021-03-06T11:58:53.000Z</time>
      </trkpt>
      <trkpt lat="43.69783" lon="5.01532">
        <ele>158</ele>
        <time>2021-03-06T11:58:57.000Z</time>
      </trkpt>
      <trkpt lat="43.69777" lon="5.01536">
        <ele>157.60000610352</ele>
        <time>2021-03-06T11:59:02.000Z</time>
      </trkpt>
      <trkpt lat="43.69772" lon="5.0154">
        <ele>157.19999694824</ele>
        <time>2021-03-06T11:59:07.000Z</time>
      </trkpt>
      <trkpt lat="43.69768" lon="5.01546">
        <ele>156.60000610352</ele>
        <time>2021-03-06T11:59:12.000Z</time>
      </trkpt>
      <trkpt lat="43.69764" lon="5.01551">
        <ele>156.19999694824</ele>
        <time>2021-03-06T11:59:16.000Z</time>
      </trkpt>
      <trkpt lat="43.69761" lon="5.01558">
        <ele>155.60000610352</ele>
        <time>2021-03-06T11:59:20.000Z</time>
      </trkpt>
      <trkpt lat="43.69761" lon="5.01566">
        <ele>154.80000305176</ele>
        <time>2021-03-06T11:59:24.000Z</time>
      </trkpt>
      <trkpt lat="43.69761" lon="5.01576">
        <ele>153.60000610352</ele>
        <time>2021-03-06T11:59:28.000Z</time>
      </trkpt>
      <trkpt lat="43.69759" lon="5.01585">
        <ele>152.60000610352</ele>
        <time>2021-03-06T11:59:31.000Z</time>
      </trkpt>
      <trkpt lat="43.69756" lon="5.01593">
        <ele>151.80000305176</ele>
        <time>2021-03-06T11:59:34.000Z</time>
      </trkpt>
      <trkpt lat="43.69753" lon="5.016">
        <ele>151.19999694824</ele>
        <time>2021-03-06T11:59:37.000Z</time>
      </trkpt>
      <trkpt lat="43.69753" lon="5.01606">
        <ele>150.60000610352</ele>
        <time>2021-03-06T11:59:46.000Z</time>
      </trkpt>
      <trkpt lat="43.69756" lon="5.01614">
        <ele>149.39999389648</ele>
        <time>2021-03-06T11:59:52.000Z</time>
      </trkpt>
      <trkpt lat="43.69761" lon="5.01621">
        <ele>148.19999694824</ele>
        <time>2021-03-06T11:59:57.000Z</time>
      </trkpt>
      <trkpt lat="43.69766" lon="5.01624">
        <ele>147.39999389648</ele>
        <time>2021-03-06T12:00:00.000Z</time>
      </trkpt>
      <trkpt lat="43.69769" lon="5.01629">
        <ele>147.19999694824</ele>
        <time>2021-03-06T12:00:03.000Z</time>
      </trkpt>
      <trkpt lat="43.69773" lon="5.01634">
        <ele>147.60000610352</ele>
        <time>2021-03-06T12:00:06.000Z</time>
      </trkpt>
      <trkpt lat="43.69777" lon="5.01639">
        <ele>148.39999389648</ele>
        <time>2021-03-06T12:00:10.000Z</time>
      </trkpt>
      <trkpt lat="43.69782" lon="5.01641">
        <ele>149.19999694824</ele>
        <time>2021-03-06T12:00:15.000Z</time>
      </trkpt>
      <trkpt lat="43.69781" lon="5.01648">
        <ele>149.19999694824</ele>
        <time>2021-03-06T12:00:37.000Z</time>
      </trkpt>
      <trkpt lat="43.69779" lon="5.01656">
        <ele>148.80000305176</ele>
        <time>2021-03-06T12:00:42.000Z</time>
      </trkpt>
      <trkpt lat="43.69776" lon="5.01663">
        <ele>148.39999389648</ele>
        <time>2021-03-06T12:00:48.000Z</time>
      </trkpt>
      <trkpt lat="43.69773" lon="5.01669">
        <ele>148</ele>
        <time>2021-03-06T12:00:54.000Z</time>
      </trkpt>
      <trkpt lat="43.69768" lon="5.01676">
        <ele>147.80000305176</ele>
        <time>2021-03-06T12:01:01.000Z</time>
      </trkpt>
      <trkpt lat="43.69766" lon="5.01679">
        <ele>148</ele>
        <time>2021-03-06T12:01:15.000Z</time>
      </trkpt>
      <trkpt lat="43.69773" lon="5.01665">
        <ele>148</ele>
        <time>2021-03-06T12:01:39.000Z</time>
      </trkpt>
      <trkpt lat="43.69776" lon="5.01659">
        <ele>148.39999389648</ele>
        <time>2021-03-06T12:01:44.000Z</time>
      </trkpt>
      <trkpt lat="43.69778" lon="5.01652">
        <ele>148.60000610352</ele>
        <time>2021-03-06T12:01:48.000Z</time>
      </trkpt>
      <trkpt lat="43.69781" lon="5.01646">
        <ele>149</ele>
        <time>2021-03-06T12:01:53.000Z</time>
      </trkpt>
      <trkpt lat="43.69783" lon="5.0164">
        <ele>149.39999389648</ele>
        <time>2021-03-06T12:01:58.000Z</time>
      </trkpt>
      <trkpt lat="43.69776" lon="5.01638">
        <ele>148.19999694824</ele>
        <time>2021-03-06T12:02:04.000Z</time>
      </trkpt>
      <trkpt lat="43.69773" lon="5.01634">
        <ele>147.60000610352</ele>
        <time>2021-03-06T12:02:09.000Z</time>
      </trkpt>
      <trkpt lat="43.6977" lon="5.01628">
        <ele>147</ele>
        <time>2021-03-06T12:02:14.000Z</time>
      </trkpt>
      <trkpt lat="43.69765" lon="5.01623">
        <ele>147.60000610352</ele>
        <time>2021-03-06T12:02:20.000Z</time>
      </trkpt>
      <trkpt lat="43.6976" lon="5.01618">
        <ele>148.60000610352</ele>
        <time>2021-03-06T12:02:25.000Z</time>
      </trkpt>
      <trkpt lat="43.69756" lon="5.01612">
        <ele>149.60000610352</ele>
        <time>2021-03-06T12:02:29.000Z</time>
      </trkpt>
      <trkpt lat="43.69752" lon="5.01607">
        <ele>150.60000610352</ele>
        <time>2021-03-06T12:02:34.000Z</time>
      </trkpt>
      <trkpt lat="43.69751" lon="5.016">
        <ele>151.39999389648</ele>
        <time>2021-03-06T12:02:39.000Z</time>
      </trkpt>
      <trkpt lat="43.69755" lon="5.01594">
        <ele>151.80000305176</ele>
        <time>2021-03-06T12:02:43.000Z</time>
      </trkpt>
      <trkpt lat="43.69757" lon="5.01588">
        <ele>152.39999389648</ele>
        <time>2021-03-06T12:02:47.000Z</time>
      </trkpt>
      <trkpt lat="43.69759" lon="5.0158">
        <ele>153.19999694824</ele>
        <time>2021-03-06T12:02:52.000Z</time>
      </trkpt>
      <trkpt lat="43.69759" lon="5.01573">
        <ele>154</ele>
        <time>2021-03-06T12:02:57.000Z</time>
      </trkpt>
      <trkpt lat="43.69759" lon="5.01566">
        <ele>154.80000305176</ele>
        <time>2021-03-06T12:03:02.000Z</time>
      </trkpt>
      <trkpt lat="43.69757" lon="5.01558">
        <ele>156</ele>
        <time>2021-03-06T12:03:09.000Z</time>
      </trkpt>
      <trkpt lat="43.69759" lon="5.01551">
        <ele>156.60000610352</ele>
        <time>2021-03-06T12:03:15.000Z</time>
      </trkpt>
      <trkpt lat="43.69761" lon="5.01546">
        <ele>157.19999694824</ele>
        <time>2021-03-06T12:03:19.000Z</time>
      </trkpt>
      <trkpt lat="43.69763" lon="5.01538">
        <ele>157.39999389648</ele>
        <time>2021-03-06T12:03:25.000Z</time>
      </trkpt>
      <trkpt lat="43.69764" lon="5.01532">
        <ele>157.60000610352</ele>
        <time>2021-03-06T12:03:30.000Z</time>
      </trkpt>
      <trkpt lat="43.69759" lon="5.01532">
        <ele>157.39999389648</ele>
        <time>2021-03-06T12:03:37.000Z</time>
      </trkpt>
      <trkpt lat="43.69753" lon="5.0153">
        <ele>157.80000305176</ele>
        <time>2021-03-06T12:03:42.000Z</time>
      </trkpt>
      <trkpt lat="43.69748" lon="5.01527">
        <ele>158</ele>
        <time>2021-03-06T12:03:47.000Z</time>
      </trkpt>
      <trkpt lat="43.69744" lon="5.01524">
        <ele>158.19999694824</ele>
        <time>2021-03-06T12:03:53.000Z</time>
      </trkpt>
      <trkpt lat="43.69738" lon="5.01524">
        <ele>158.60000610352</ele>
        <time>2021-03-06T12:03:58.000Z</time>
      </trkpt>
      <trkpt lat="43.69733" lon="5.0153">
        <ele>159.19999694824</ele>
        <time>2021-03-06T12:04:03.000Z</time>
      </trkpt>
      <trkpt lat="43.69728" lon="5.01532">
        <ele>159.60000610352</ele>
        <time>2021-03-06T12:04:07.000Z</time>
      </trkpt>
      <trkpt lat="43.69722" lon="5.01535">
        <ele>160.19999694824</ele>
        <time>2021-03-06T12:04:12.000Z</time>
      </trkpt>
      <trkpt lat="43.69717" lon="5.0154">
        <ele>160.80000305176</ele>
        <time>2021-03-06T12:04:17.000Z</time>
      </trkpt>
      <trkpt lat="43.69711" lon="5.01544">
        <ele>161</ele>
        <time>2021-03-06T12:04:22.000Z</time>
      </trkpt>
      <trkpt lat="43.69706" lon="5.01548">
        <ele>160.80000305176</ele>
        <time>2021-03-06T12:04:26.000Z</time>
      </trkpt>
      <trkpt lat="43.69702" lon="5.01555">
        <ele>160.19999694824</ele>
        <time>2021-03-06T12:04:29.000Z</time>
      </trkpt>
      <trkpt lat="43.69698" lon="5.01562">
        <ele>159.80000305176</ele>
        <time>2021-03-06T12:04:32.000Z</time>
      </trkpt>
      <trkpt lat="43.69693" lon="5.01567">
        <ele>159.80000305176</ele>
        <time>2021-03-06T12:04:35.000Z</time>
      </trkpt>
      <trkpt lat="43.69688" lon="5.01571">
        <ele>159.80000305176</ele>
        <time>2021-03-06T12:04:39.000Z</time>
      </trkpt>
      <trkpt lat="43.69685" lon="5.01571">
        <ele>159.80000305176</ele>
        <time>2021-03-06T12:04:49.000Z</time>
      </trkpt>
      <trkpt lat="43.69685" lon="5.01578">
        <ele>159</ele>
        <time>2021-03-06T12:04:58.000Z</time>
      </trkpt>
      <trkpt lat="43.69685" lon="5.01585">
        <ele>158.39999389648</ele>
        <time>2021-03-06T12:05:03.000Z</time>
      </trkpt>
      <trkpt lat="43.69688" lon="5.01582">
        <ele>158.60000610352</ele>
        <time>2021-03-06T12:05:29.000Z</time>
      </trkpt>
      <trkpt lat="43.69688" lon="5.01576">
        <ele>159.19999694824</ele>
        <time>2021-03-06T12:05:33.000Z</time>
      </trkpt>
      <trkpt lat="43.69682" lon="5.01572">
        <ele>159.60000610352</ele>
        <time>2021-03-06T12:05:39.000Z</time>
      </trkpt>
      <trkpt lat="43.69677" lon="5.01571">
        <ele>159.60000610352</ele>
        <time>2021-03-06T12:05:43.000Z</time>
      </trkpt>
      <trkpt lat="43.6967" lon="5.0157">
        <ele>159.60000610352</ele>
        <time>2021-03-06T12:05:48.000Z</time>
      </trkpt>
      <trkpt lat="43.69662" lon="5.01569">
        <ele>159.39999389648</ele>
        <time>2021-03-06T12:05:52.000Z</time>
      </trkpt>
      <trkpt lat="43.69656" lon="5.01569">
        <ele>159.39999389648</ele>
        <time>2021-03-06T12:05:55.000Z</time>
      </trkpt>
      <trkpt lat="43.69649" lon="5.01568">
        <ele>159.19999694824</ele>
        <time>2021-03-06T12:05:58.000Z</time>
      </trkpt>
      <trkpt lat="43.69643" lon="5.01567">
        <ele>159.19999694824</ele>
        <time>2021-03-06T12:06:01.000Z</time>
      </trkpt>
      <trkpt lat="43.69638" lon="5.01566">
        <ele>159.19999694824</ele>
        <time>2021-03-06T12:06:03.000Z</time>
      </trkpt>
      <trkpt lat="43.69631" lon="5.01563">
        <ele>159.39999389648</ele>
        <time>2021-03-06T12:06:06.000Z</time>
      </trkpt>
      <trkpt lat="43.69624" lon="5.01563">
        <ele>159.19999694824</ele>
        <time>2021-03-06T12:06:09.000Z</time>
      </trkpt>
      <trkpt lat="43.69617" lon="5.01563">
        <ele>159.39999389648</ele>
        <time>2021-03-06T12:06:12.000Z</time>
      </trkpt>
      <trkpt lat="43.69612" lon="5.01562">
        <ele>159.60000610352</ele>
        <time>2021-03-06T12:06:14.000Z</time>
      </trkpt>
      <trkpt lat="43.69605" lon="5.01559">
        <ele>160</ele>
        <time>2021-03-06T12:06:17.000Z</time>
      </trkpt>
      <trkpt lat="43.69598" lon="5.01555">
        <ele>160</ele>
        <time>2021-03-06T12:06:20.000Z</time>
      </trkpt>
      <trkpt lat="43.69594" lon="5.01554">
        <ele>159.80000305176</ele>
        <time>2021-03-06T12:06:22.000Z</time>
      </trkpt>
      <trkpt lat="43.69588" lon="5.01556">
        <ele>159.39999389648</ele>
        <time>2021-03-06T12:06:25.000Z</time>
      </trkpt>
      <trkpt lat="43.69582" lon="5.01561">
        <ele>158.80000305176</ele>
        <time>2021-03-06T12:06:28.000Z</time>
      </trkpt>
      <trkpt lat="43.69577" lon="5.01565">
        <ele>158.39999389648</ele>
        <time>2021-03-06T12:06:30.000Z</time>
      </trkpt>
      <trkpt lat="43.69572" lon="5.01571">
        <ele>157.80000305176</ele>
        <time>2021-03-06T12:06:33.000Z</time>
      </trkpt>
      <trkpt lat="43.69568" lon="5.01575">
        <ele>157.39999389648</ele>
        <time>2021-03-06T12:06:36.000Z</time>
      </trkpt>
      <trkpt lat="43.69562" lon="5.01578">
        <ele>156.80000305176</ele>
        <time>2021-03-06T12:06:40.000Z</time>
      </trkpt>
      <trkpt lat="43.69556" lon="5.01576">
        <ele>156.80000305176</ele>
        <time>2021-03-06T12:06:44.000Z</time>
      </trkpt>
      <trkpt lat="43.6955" lon="5.01573">
        <ele>156.60000610352</ele>
        <time>2021-03-06T12:06:48.000Z</time>
      </trkpt>
      <trkpt lat="43.69544" lon="5.01574">
        <ele>155.80000305176</ele>
        <time>2021-03-06T12:06:51.000Z</time>
      </trkpt>
      <trkpt lat="43.69537" lon="5.01575">
        <ele>155</ele>
        <time>2021-03-06T12:06:54.000Z</time>
      </trkpt>
      <trkpt lat="43.69531" lon="5.01575">
        <ele>154.19999694824</ele>
        <time>2021-03-06T12:06:57.000Z</time>
      </trkpt>
      <trkpt lat="43.69526" lon="5.01576">
        <ele>153.60000610352</ele>
        <time>2021-03-06T12:07:00.000Z</time>
      </trkpt>
      <trkpt lat="43.69519" lon="5.01573">
        <ele>153.19999694824</ele>
        <time>2021-03-06T12:07:04.000Z</time>
      </trkpt>
      <trkpt lat="43.69514" lon="5.01573">
        <ele>153.19999694824</ele>
        <time>2021-03-06T12:07:07.000Z</time>
      </trkpt>
      <trkpt lat="43.69509" lon="5.01573">
        <ele>153</ele>
        <time>2021-03-06T12:07:11.000Z</time>
      </trkpt>
      <trkpt lat="43.69503" lon="5.01571">
        <ele>153</ele>
        <time>2021-03-06T12:07:16.000Z</time>
      </trkpt>
      <trkpt lat="43.69497" lon="5.01568">
        <ele>153.19999694824</ele>
        <time>2021-03-06T12:07:21.000Z</time>
      </trkpt>
      <trkpt lat="43.69492" lon="5.01566">
        <ele>153.39999389648</ele>
        <time>2021-03-06T12:07:26.000Z</time>
      </trkpt>
      <trkpt lat="43.69486" lon="5.01569">
        <ele>152.80000305176</ele>
        <time>2021-03-06T12:07:31.000Z</time>
      </trkpt>
      <trkpt lat="43.69482" lon="5.01572">
        <ele>152.39999389648</ele>
        <time>2021-03-06T12:07:43.000Z</time>
      </trkpt>
      <trkpt lat="43.69477" lon="5.01566">
        <ele>153</ele>
        <time>2021-03-06T12:07:50.000Z</time>
      </trkpt>
      <trkpt lat="43.69471" lon="5.01562">
        <ele>153.39999389648</ele>
        <time>2021-03-06T12:07:55.000Z</time>
      </trkpt>
      <trkpt lat="43.69465" lon="5.01561">
        <ele>153.39999389648</ele>
        <time>2021-03-06T12:07:58.000Z</time>
      </trkpt>
      <trkpt lat="43.69458" lon="5.01559">
        <ele>153.39999389648</ele>
        <time>2021-03-06T12:08:01.000Z</time>
      </trkpt>
      <trkpt lat="43.69453" lon="5.01558">
        <ele>153.39999389648</ele>
        <time>2021-03-06T12:08:03.000Z</time>
      </trkpt>
      <trkpt lat="43.69447" lon="5.01556">
        <ele>153.39999389648</ele>
        <time>2021-03-06T12:08:06.000Z</time>
      </trkpt>
      <trkpt lat="43.69439" lon="5.01555">
        <ele>153.19999694824</ele>
        <time>2021-03-06T12:08:09.000Z</time>
      </trkpt>
      <trkpt lat="43.69432" lon="5.01555">
        <ele>151.80000305176</ele>
        <time>2021-03-06T12:08:12.000Z</time>
      </trkpt>
      <trkpt lat="43.69426" lon="5.01555">
        <ele>150.39999389648</ele>
        <time>2021-03-06T12:08:15.000Z</time>
      </trkpt>
      <trkpt lat="43.6942" lon="5.01556">
        <ele>148.60000610352</ele>
        <time>2021-03-06T12:08:19.000Z</time>
      </trkpt>
      <trkpt lat="43.69415" lon="5.01557">
        <ele>147.19999694824</ele>
        <time>2021-03-06T12:08:23.000Z</time>
      </trkpt>
      <trkpt lat="43.69414" lon="5.01563">
        <ele>146</ele>
        <time>2021-03-06T12:08:31.000Z</time>
      </trkpt>
      <trkpt lat="43.69414" lon="5.0157">
        <ele>145</ele>
        <time>2021-03-06T12:08:46.000Z</time>
      </trkpt>
      <trkpt lat="43.6941" lon="5.01575">
        <ele>143</ele>
        <time>2021-03-06T12:08:51.000Z</time>
      </trkpt>
      <trkpt lat="43.69406" lon="5.01584">
        <ele>141</ele>
        <time>2021-03-06T12:08:56.000Z</time>
      </trkpt>
      <trkpt lat="43.69404" lon="5.01591">
        <ele>139.39999389648</ele>
        <time>2021-03-06T12:09:00.000Z</time>
      </trkpt>
      <trkpt lat="43.69402" lon="5.01597">
        <ele>139</ele>
        <time>2021-03-06T12:09:05.000Z</time>
      </trkpt>
      <trkpt lat="43.69399" lon="5.01604">
        <ele>138.80000305176</ele>
        <time>2021-03-06T12:09:12.000Z</time>
      </trkpt>
      <trkpt lat="43.69395" lon="5.0161">
        <ele>138.39999389648</ele>
        <time>2021-03-06T12:09:17.000Z</time>
      </trkpt>
      <trkpt lat="43.6939" lon="5.01614">
        <ele>137.80000305176</ele>
        <time>2021-03-06T12:09:21.000Z</time>
      </trkpt>
      <trkpt lat="43.69387" lon="5.01621">
        <ele>137.60000610352</ele>
        <time>2021-03-06T12:09:25.000Z</time>
      </trkpt>
      <trkpt lat="43.69385" lon="5.01629">
        <ele>137</ele>
        <time>2021-03-06T12:09:28.000Z</time>
      </trkpt>
      <trkpt lat="43.69381" lon="5.01636">
        <ele>135.60000610352</ele>
        <time>2021-03-06T12:09:31.000Z</time>
      </trkpt>
      <trkpt lat="43.69376" lon="5.01642">
        <ele>134.19999694824</ele>
        <time>2021-03-06T12:09:34.000Z</time>
      </trkpt>
      <trkpt lat="43.69371" lon="5.01647">
        <ele>133.39999389648</ele>
        <time>2021-03-06T12:09:37.000Z</time>
      </trkpt>
      <trkpt lat="43.69366" lon="5.01654">
        <ele>133.39999389648</ele>
        <time>2021-03-06T12:09:40.000Z</time>
      </trkpt>
      <trkpt lat="43.69362" lon="5.01661">
        <ele>133.19999694824</ele>
        <time>2021-03-06T12:09:43.000Z</time>
      </trkpt>
      <trkpt lat="43.6936" lon="5.01667">
        <ele>133</ele>
        <time>2021-03-06T12:09:46.000Z</time>
      </trkpt>
      <trkpt lat="43.69359" lon="5.01674">
        <ele>132.80000305176</ele>
        <time>2021-03-06T12:09:50.000Z</time>
      </trkpt>
      <trkpt lat="43.69357" lon="5.01681">
        <ele>132.60000610352</ele>
        <time>2021-03-06T12:09:56.000Z</time>
      </trkpt>
      <trkpt lat="43.69355" lon="5.01687">
        <ele>132.60000610352</ele>
        <time>2021-03-06T12:10:02.000Z</time>
      </trkpt>
      <trkpt lat="43.69353" lon="5.01694">
        <ele>132.19999694824</ele>
        <time>2021-03-06T12:10:10.000Z</time>
      </trkpt>
      <trkpt lat="43.6935" lon="5.017">
        <ele>131.60000610352</ele>
        <time>2021-03-06T12:10:17.000Z</time>
      </trkpt>
      <trkpt lat="43.69345" lon="5.01696">
        <ele>130.80000305176</ele>
        <time>2021-03-06T12:10:27.000Z</time>
      </trkpt>
      <trkpt lat="43.69342" lon="5.01688">
        <ele>130.19999694824</ele>
        <time>2021-03-06T12:10:31.000Z</time>
      </trkpt>
      <trkpt lat="43.6934" lon="5.01682">
        <ele>129.80000305176</ele>
        <time>2021-03-06T12:10:34.000Z</time>
      </trkpt>
      <trkpt lat="43.69335" lon="5.01676">
        <ele>129</ele>
        <time>2021-03-06T12:10:38.000Z</time>
      </trkpt>
      <trkpt lat="43.69331" lon="5.0167">
        <ele>128.39999389648</ele>
        <time>2021-03-06T12:10:41.000Z</time>
      </trkpt>
      <trkpt lat="43.69327" lon="5.01664">
        <ele>127.80000305176</ele>
        <time>2021-03-06T12:10:44.000Z</time>
      </trkpt>
      <trkpt lat="43.69323" lon="5.01657">
        <ele>127.19999694824</ele>
        <time>2021-03-06T12:10:47.000Z</time>
      </trkpt>
      <trkpt lat="43.69319" lon="5.01652">
        <ele>126.40000152588</ele>
        <time>2021-03-06T12:10:50.000Z</time>
      </trkpt>
      <trkpt lat="43.69314" lon="5.01648">
        <ele>125.40000152588</ele>
        <time>2021-03-06T12:10:53.000Z</time>
      </trkpt>
      <trkpt lat="43.69309" lon="5.01642">
        <ele>124.59999847412</ele>
        <time>2021-03-06T12:10:56.000Z</time>
      </trkpt>
      <trkpt lat="43.69303" lon="5.01636">
        <ele>123.59999847412</ele>
        <time>2021-03-06T12:10:59.000Z</time>
      </trkpt>
      <trkpt lat="43.693" lon="5.01632">
        <ele>123</ele>
        <time>2021-03-06T12:11:02.000Z</time>
      </trkpt>
      <trkpt lat="43.69295" lon="5.01627">
        <ele>122</ele>
        <time>2021-03-06T12:11:06.000Z</time>
      </trkpt>
      <trkpt lat="43.69289" lon="5.01622">
        <ele>120.80000305176</ele>
        <time>2021-03-06T12:11:10.000Z</time>
      </trkpt>
      <trkpt lat="43.69284" lon="5.01615">
        <ele>119.19999694824</ele>
        <time>2021-03-06T12:11:14.000Z</time>
      </trkpt>
      <trkpt lat="43.69282" lon="5.01607">
        <ele>118.40000152588</ele>
        <time>2021-03-06T12:11:17.000Z</time>
      </trkpt>
      <trkpt lat="43.69282" lon="5.016">
        <ele>118</ele>
        <time>2021-03-06T12:11:19.000Z</time>
      </trkpt>
      <trkpt lat="43.69284" lon="5.0159">
        <ele>117.80000305176</ele>
        <time>2021-03-06T12:11:22.000Z</time>
      </trkpt>
      <trkpt lat="43.69287" lon="5.01584">
        <ele>118</ele>
        <time>2021-03-06T12:11:24.000Z</time>
      </trkpt>
      <trkpt lat="43.69289" lon="5.01575">
        <ele>117.80000305176</ele>
        <time>2021-03-06T12:11:27.000Z</time>
      </trkpt>
      <trkpt lat="43.69288" lon="5.01566">
        <ele>117.19999694824</ele>
        <time>2021-03-06T12:11:30.000Z</time>
      </trkpt>
      <trkpt lat="43.69287" lon="5.01558">
        <ele>116.40000152588</ele>
        <time>2021-03-06T12:11:33.000Z</time>
      </trkpt>
      <trkpt lat="43.69287" lon="5.01553">
        <ele>116.40000152588</ele>
        <time>2021-03-06T12:11:38.000Z</time>
      </trkpt>
      <trkpt lat="43.69288" lon="5.01562">
        <ele>117</ele>
        <time>2021-03-06T12:11:47.000Z</time>
      </trkpt>
      <trkpt lat="43.69288" lon="5.01571">
        <ele>117.40000152588</ele>
        <time>2021-03-06T12:11:51.000Z</time>
      </trkpt>
      <trkpt lat="43.69286" lon="5.01579">
        <ele>117.40000152588</ele>
        <time>2021-03-06T12:11:54.000Z</time>
      </trkpt>
      <trkpt lat="43.69282" lon="5.01588">
        <ele>117.40000152588</ele>
        <time>2021-03-06T12:11:57.000Z</time>
      </trkpt>
      <trkpt lat="43.6928" lon="5.01597">
        <ele>117.40000152588</ele>
        <time>2021-03-06T12:12:00.000Z</time>
      </trkpt>
      <trkpt lat="43.69276" lon="5.01606">
        <ele>117.19999694824</ele>
        <time>2021-03-06T12:12:03.000Z</time>
      </trkpt>
      <trkpt lat="43.69274" lon="5.01613">
        <ele>117.19999694824</ele>
        <time>2021-03-06T12:12:05.000Z</time>
      </trkpt>
      <trkpt lat="43.69271" lon="5.01621">
        <ele>117</ele>
        <time>2021-03-06T12:12:08.000Z</time>
      </trkpt>
      <trkpt lat="43.69266" lon="5.01632">
        <ele>117.40000152588</ele>
        <time>2021-03-06T12:12:12.000Z</time>
      </trkpt>
      <trkpt lat="43.69263" lon="5.0164">
        <ele>118</ele>
        <time>2021-03-06T12:12:15.000Z</time>
      </trkpt>
      <trkpt lat="43.69258" lon="5.01645">
        <ele>118.19999694824</ele>
        <time>2021-03-06T12:12:18.000Z</time>
      </trkpt>
      <trkpt lat="43.69257" lon="5.01651">
        <ele>118.59999847412</ele>
        <time>2021-03-06T12:12:21.000Z</time>
      </trkpt>
      <trkpt lat="43.69254" lon="5.01659">
        <ele>119.19999694824</ele>
        <time>2021-03-06T12:12:25.000Z</time>
      </trkpt>
      <trkpt lat="43.69251" lon="5.01664">
        <ele>119.59999847412</ele>
        <time>2021-03-06T12:12:28.000Z</time>
      </trkpt>
      <trkpt lat="43.69248" lon="5.01672">
        <ele>120.19999694824</ele>
        <time>2021-03-06T12:12:32.000Z</time>
      </trkpt>
      <trkpt lat="43.69243" lon="5.01678">
        <ele>120.40000152588</ele>
        <time>2021-03-06T12:12:35.000Z</time>
      </trkpt>
      <trkpt lat="43.69238" lon="5.01685">
        <ele>120.40000152588</ele>
        <time>2021-03-06T12:12:38.000Z</time>
      </trkpt>
      <trkpt lat="43.69233" lon="5.01691">
        <ele>120</ele>
        <time>2021-03-06T12:12:41.000Z</time>
      </trkpt>
      <trkpt lat="43.69227" lon="5.01693">
        <ele>119.40000152588</ele>
        <time>2021-03-06T12:12:44.000Z</time>
      </trkpt>
      <trkpt lat="43.69222" lon="5.01692">
        <ele>118.80000305176</ele>
        <time>2021-03-06T12:12:47.000Z</time>
      </trkpt>
      <trkpt lat="43.69216" lon="5.01689">
        <ele>117.80000305176</ele>
        <time>2021-03-06T12:12:52.000Z</time>
      </trkpt>
      <trkpt lat="43.69214" lon="5.01682">
        <ele>117</ele>
        <time>2021-03-06T12:12:56.000Z</time>
      </trkpt>
      <trkpt lat="43.69212" lon="5.01676">
        <ele>116.40000152588</ele>
        <time>2021-03-06T12:13:00.000Z</time>
      </trkpt>
      <trkpt lat="43.69207" lon="5.01678">
        <ele>116</ele>
        <time>2021-03-06T12:13:05.000Z</time>
      </trkpt>
      <trkpt lat="43.69204" lon="5.01686">
        <ele>115.80000305176</ele>
        <time>2021-03-06T12:13:08.000Z</time>
      </trkpt>
      <trkpt lat="43.692" lon="5.01693">
        <ele>116</ele>
        <time>2021-03-06T12:13:11.000Z</time>
      </trkpt>
      <trkpt lat="43.69197" lon="5.01701">
        <ele>116</ele>
        <time>2021-03-06T12:13:14.000Z</time>
      </trkpt>
      <trkpt lat="43.69193" lon="5.0171">
        <ele>115.80000305176</ele>
        <time>2021-03-06T12:13:17.000Z</time>
      </trkpt>
      <trkpt lat="43.6919" lon="5.01716">
        <ele>115.59999847412</ele>
        <time>2021-03-06T12:13:19.000Z</time>
      </trkpt>
      <trkpt lat="43.69187" lon="5.01721">
        <ele>115.59999847412</ele>
        <time>2021-03-06T12:13:21.000Z</time>
      </trkpt>
      <trkpt lat="43.69183" lon="5.01729">
        <ele>115.40000152588</ele>
        <time>2021-03-06T12:13:24.000Z</time>
      </trkpt>
      <trkpt lat="43.69179" lon="5.01738">
        <ele>115.40000152588</ele>
        <time>2021-03-06T12:13:27.000Z</time>
      </trkpt>
      <trkpt lat="43.69176" lon="5.01743">
        <ele>115.19999694824</ele>
        <time>2021-03-06T12:13:29.000Z</time>
      </trkpt>
      <trkpt lat="43.69171" lon="5.01752">
        <ele>115</ele>
        <time>2021-03-06T12:13:32.000Z</time>
      </trkpt>
      <trkpt lat="43.69166" lon="5.01759">
        <ele>114.80000305176</ele>
        <time>2021-03-06T12:13:35.000Z</time>
      </trkpt>
      <trkpt lat="43.69163" lon="5.01765">
        <ele>114.59999847412</ele>
        <time>2021-03-06T12:13:37.000Z</time>
      </trkpt>
      <trkpt lat="43.69159" lon="5.0177">
        <ele>114</ele>
        <time>2021-03-06T12:13:39.000Z</time>
      </trkpt>
      <trkpt lat="43.69155" lon="5.01778">
        <ele>113</ele>
        <time>2021-03-06T12:13:42.000Z</time>
      </trkpt>
      <trkpt lat="43.69149" lon="5.01785">
        <ele>111.80000305176</ele>
        <time>2021-03-06T12:13:45.000Z</time>
      </trkpt>
      <trkpt lat="43.69145" lon="5.0179">
        <ele>111</ele>
        <time>2021-03-06T12:13:47.000Z</time>
      </trkpt>
      <trkpt lat="43.69141" lon="5.01796">
        <ele>110.19999694824</ele>
        <time>2021-03-06T12:13:49.000Z</time>
      </trkpt>
      <trkpt lat="43.69138" lon="5.01803">
        <ele>109.59999847412</ele>
        <time>2021-03-06T12:13:51.000Z</time>
      </trkpt>
      <trkpt lat="43.69136" lon="5.01811">
        <ele>109</ele>
        <time>2021-03-06T12:13:54.000Z</time>
      </trkpt>
      <trkpt lat="43.69134" lon="5.01817">
        <ele>108.59999847412</ele>
        <time>2021-03-06T12:13:57.000Z</time>
      </trkpt>
      <trkpt lat="43.69131" lon="5.01826">
        <ele>108.19999694824</ele>
        <time>2021-03-06T12:14:01.000Z</time>
      </trkpt>
      <trkpt lat="43.69129" lon="5.01833">
        <ele>108</ele>
        <time>2021-03-06T12:14:04.000Z</time>
      </trkpt>
      <trkpt lat="43.69126" lon="5.0184">
        <ele>107.80000305176</ele>
        <time>2021-03-06T12:14:07.000Z</time>
      </trkpt>
      <trkpt lat="43.69124" lon="5.01845">
        <ele>107.59999847412</ele>
        <time>2021-03-06T12:14:10.000Z</time>
      </trkpt>
      <trkpt lat="43.69121" lon="5.01852">
        <ele>107.19999694824</ele>
        <time>2021-03-06T12:14:14.000Z</time>
      </trkpt>
      <trkpt lat="43.69118" lon="5.01859">
        <ele>107</ele>
        <time>2021-03-06T12:14:22.000Z</time>
      </trkpt>
      <trkpt lat="43.69115" lon="5.01866">
        <ele>106.59999847412</ele>
        <time>2021-03-06T12:14:27.000Z</time>
      </trkpt>
      <trkpt lat="43.69111" lon="5.01871">
        <ele>106.19999694824</ele>
        <time>2021-03-06T12:14:32.000Z</time>
      </trkpt>
      <trkpt lat="43.69107" lon="5.01877">
        <ele>105.40000152588</ele>
        <time>2021-03-06T12:14:37.000Z</time>
      </trkpt>
      <trkpt lat="43.69106" lon="5.01883">
        <ele>105.19999694824</ele>
        <time>2021-03-06T12:14:41.000Z</time>
      </trkpt>
      <trkpt lat="43.69103" lon="5.0189">
        <ele>105</ele>
        <time>2021-03-06T12:14:46.000Z</time>
      </trkpt>
      <trkpt lat="43.69101" lon="5.01896">
        <ele>104.80000305176</ele>
        <time>2021-03-06T12:14:54.000Z</time>
      </trkpt>
      <trkpt lat="43.69097" lon="5.01906">
        <ele>104</ele>
        <time>2021-03-06T12:15:13.000Z</time>
      </trkpt>
      <trkpt lat="43.69096" lon="5.01913">
        <ele>104</ele>
        <time>2021-03-06T12:15:16.000Z</time>
      </trkpt>
      <trkpt lat="43.69094" lon="5.01921">
        <ele>103.59999847412</ele>
        <time>2021-03-06T12:15:19.000Z</time>
      </trkpt>
      <trkpt lat="43.69094" lon="5.0193">
        <ele>103.59999847412</ele>
        <time>2021-03-06T12:15:22.000Z</time>
      </trkpt>
      <trkpt lat="43.69091" lon="5.01941">
        <ele>103.40000152588</ele>
        <time>2021-03-06T12:15:25.000Z</time>
      </trkpt>
      <trkpt lat="43.6909" lon="5.01949">
        <ele>103.19999694824</ele>
        <time>2021-03-06T12:15:27.000Z</time>
      </trkpt>
      <trkpt lat="43.69088" lon="5.01955">
        <ele>103</ele>
        <time>2021-03-06T12:15:29.000Z</time>
      </trkpt>
      <trkpt lat="43.69085" lon="5.01962">
        <ele>102.80000305176</ele>
        <time>2021-03-06T12:15:31.000Z</time>
      </trkpt>
      <trkpt lat="43.69083" lon="5.01969">
        <ele>102.40000152588</ele>
        <time>2021-03-06T12:15:33.000Z</time>
      </trkpt>
      <trkpt lat="43.69082" lon="5.01976">
        <ele>102.19999694824</ele>
        <time>2021-03-06T12:15:35.000Z</time>
      </trkpt>
      <trkpt lat="43.6908" lon="5.01982">
        <ele>102</ele>
        <time>2021-03-06T12:15:37.000Z</time>
      </trkpt>
      <trkpt lat="43.69076" lon="5.01993">
        <ele>101.40000152588</ele>
        <time>2021-03-06T12:15:40.000Z</time>
      </trkpt>
      <trkpt lat="43.69073" lon="5.02001">
        <ele>101</ele>
        <time>2021-03-06T12:15:42.000Z</time>
      </trkpt>
      <trkpt lat="43.69072" lon="5.02009">
        <ele>100.59999847412</ele>
        <time>2021-03-06T12:15:44.000Z</time>
      </trkpt>
      <trkpt lat="43.6907" lon="5.02017">
        <ele>100.80000305176</ele>
        <time>2021-03-06T12:15:46.000Z</time>
      </trkpt>
      <trkpt lat="43.69067" lon="5.02025">
        <ele>100.80000305176</ele>
        <time>2021-03-06T12:15:48.000Z</time>
      </trkpt>
      <trkpt lat="43.69064" lon="5.02033">
        <ele>100.80000305176</ele>
        <time>2021-03-06T12:15:50.000Z</time>
      </trkpt>
      <trkpt lat="43.69062" lon="5.0204">
        <ele>101</ele>
        <time>2021-03-06T12:15:52.000Z</time>
      </trkpt>
      <trkpt lat="43.6906" lon="5.02047">
        <ele>100.80000305176</ele>
        <time>2021-03-06T12:15:54.000Z</time>
      </trkpt>
      <trkpt lat="43.69059" lon="5.02055">
        <ele>100.40000152588</ele>
        <time>2021-03-06T12:15:56.000Z</time>
      </trkpt>
      <trkpt lat="43.69058" lon="5.02064">
        <ele>100.19999694824</ele>
        <time>2021-03-06T12:15:58.000Z</time>
      </trkpt>
      <trkpt lat="43.69058" lon="5.02072">
        <ele>100</ele>
        <time>2021-03-06T12:16:00.000Z</time>
      </trkpt>
      <trkpt lat="43.69058" lon="5.02081">
        <ele>99.800003051758</ele>
        <time>2021-03-06T12:16:02.000Z</time>
      </trkpt>
      <trkpt lat="43.69057" lon="5.02089">
        <ele>99.599998474121</ele>
        <time>2021-03-06T12:16:04.000Z</time>
      </trkpt>
      <trkpt lat="43.69057" lon="5.02098">
        <ele>99.400001525879</ele>
        <time>2021-03-06T12:16:06.000Z</time>
      </trkpt>
      <trkpt lat="43.69058" lon="5.02106">
        <ele>99.199996948242</ele>
        <time>2021-03-06T12:16:08.000Z</time>
      </trkpt>
      <trkpt lat="43.69059" lon="5.02114">
        <ele>99.199996948242</ele>
        <time>2021-03-06T12:16:10.000Z</time>
      </trkpt>
      <trkpt lat="43.69061" lon="5.02122">
        <ele>99</ele>
        <time>2021-03-06T12:16:12.000Z</time>
      </trkpt>
      <trkpt lat="43.69062" lon="5.0213">
        <ele>98.800003051758</ele>
        <time>2021-03-06T12:16:14.000Z</time>
      </trkpt>
      <trkpt lat="43.69064" lon="5.02138">
        <ele>98.599998474121</ele>
        <time>2021-03-06T12:16:16.000Z</time>
      </trkpt>
      <trkpt lat="43.69065" lon="5.02146">
        <ele>98.199996948242</ele>
        <time>2021-03-06T12:16:18.000Z</time>
      </trkpt>
      <trkpt lat="43.69067" lon="5.02153">
        <ele>98.199996948242</ele>
        <time>2021-03-06T12:16:20.000Z</time>
      </trkpt>
      <trkpt lat="43.69069" lon="5.0216">
        <ele>97.800003051758</ele>
        <time>2021-03-06T12:16:22.000Z</time>
      </trkpt>
      <trkpt lat="43.69072" lon="5.02166">
        <ele>97.800003051758</ele>
        <time>2021-03-06T12:16:24.000Z</time>
      </trkpt>
      <trkpt lat="43.69073" lon="5.02174">
        <ele>97.400001525879</ele>
        <time>2021-03-06T12:16:26.000Z</time>
      </trkpt>
      <trkpt lat="43.69073" lon="5.02183">
        <ele>97.199996948242</ele>
        <time>2021-03-06T12:16:28.000Z</time>
      </trkpt>
      <trkpt lat="43.69073" lon="5.02191">
        <ele>96.800003051758</ele>
        <time>2021-03-06T12:16:30.000Z</time>
      </trkpt>
      <trkpt lat="43.69073" lon="5.02199">
        <ele>96.599998474121</ele>
        <time>2021-03-06T12:16:32.000Z</time>
      </trkpt>
      <trkpt lat="43.69073" lon="5.02207">
        <ele>96.199996948242</ele>
        <time>2021-03-06T12:16:34.000Z</time>
      </trkpt>
      <trkpt lat="43.69073" lon="5.02213">
        <ele>96</ele>
        <time>2021-03-06T12:16:36.000Z</time>
      </trkpt>
      <trkpt lat="43.69073" lon="5.02219">
        <ele>95.800003051758</ele>
        <time>2021-03-06T12:16:39.000Z</time>
      </trkpt>
      <trkpt lat="43.69076" lon="5.02224">
        <ele>95.800003051758</ele>
        <time>2021-03-06T12:16:44.000Z</time>
      </trkpt>
      <trkpt lat="43.69071" lon="5.02233">
        <ele>95.199996948242</ele>
        <time>2021-03-06T12:17:29.000Z</time>
      </trkpt>
      <trkpt lat="43.6907" lon="5.02241">
        <ele>94.800003051758</ele>
        <time>2021-03-06T12:17:32.000Z</time>
      </trkpt>
      <trkpt lat="43.69067" lon="5.0225">
        <ele>94.400001525879</ele>
        <time>2021-03-06T12:17:35.000Z</time>
      </trkpt>
      <trkpt lat="43.69066" lon="5.02259">
        <ele>94</ele>
        <time>2021-03-06T12:17:38.000Z</time>
      </trkpt>
      <trkpt lat="43.69065" lon="5.02267">
        <ele>93.800003051758</ele>
        <time>2021-03-06T12:17:41.000Z</time>
      </trkpt>
      <trkpt lat="43.69065" lon="5.02277">
        <ele>93.599998474121</ele>
        <time>2021-03-06T12:17:44.000Z</time>
      </trkpt>
      <trkpt lat="43.69068" lon="5.02287">
        <ele>93.400001525879</ele>
        <time>2021-03-06T12:17:47.000Z</time>
      </trkpt>
      <trkpt lat="43.6907" lon="5.02292">
        <ele>93.400001525879</ele>
        <time>2021-03-06T12:17:49.000Z</time>
      </trkpt>
      <trkpt lat="43.69074" lon="5.02296">
        <ele>93.400001525879</ele>
        <time>2021-03-06T12:17:52.000Z</time>
      </trkpt>
    </trkseg>
  </trk>
</gpx>